Darstellungsparameter: Aktuell verwendete Einstellungen:
Skalierung der Graphiken ... ?
xyx+y,   Skalierungsfaktor:      Skalierung: Modus: x, Faktor: 1
Darstellungszeitraum ... ?
Vom - - bis: - -   Zeitraum: 26.07.2008 - 25.01.2009
Min/Max/Avg-Anzeige ... ?
Zeige MMA aktuell
Zeige MMA Monat
Zeige MMA alles
Zeige --A aktuell
Zeige --A Monat
Zeige --A alles
Keine MMA-Anzeige
MMA:
Minimum Maximum Average (ber die Originaldaten)
MMA-Basis: 26.07.2008 - 25.01.2009
Quicknavigation für Darstellung... ?
Tage:      1T, 2T, 3T, 5T -1T -2T -3T -5T +1T +2T +3T +5T
Wochen: 1W, 2W, 3W -1W -2W -3W +1W +2W +3W
Monate: 1M, 3M, 6M -1M -3M -6M +1M +3M +6M
Jahre:    1J, 3J, 5J, 10J -1J -3J -5J -10J +1J +3J +5J +10J
Nutze für die Darstellung ... ?
Originaldaten oder Mittelwerte auf ...
Stundenbasis Tagesbasis Wochenbasis
Monatsbasis Jahresbasis      Datenbasis: Original-Daten
Darstellen als:
Statistik (Auto) Statistik J:M      Darstellung:
Zur Graphik,    zurück zur Übersicht aller Sensoren.
 
Tabellarische Datenbersicht: ?
 
Sensor: Nr:Datum:Temp:Feuchte:Taupunkt:
Aussen-T/F 1 26-07-2008 00:05:28 23 C 51 % 12.32 C
2 26-07-2008 00:35:29 22.2 C 54 % 12.45 C
3 26-07-2008 01:05:29 22.2 C 55 % 12.73 C
4 26-07-2008 01:35:29 21.3 C 58 % 12.71 C
5 26-07-2008 02:05:29 21 C 60 % 12.94 C
6 26-07-2008 02:35:29 20.5 C 63 % 13.22 C
7 26-07-2008 03:05:29 20.2 C 64 % 13.18 C
8 26-07-2008 03:35:29 20 C 65 % 13.22 C
9 26-07-2008 04:05:29 20.2 C 64 % 13.18 C
10 26-07-2008 04:35:29 20 C 65 % 13.22 C
11 26-07-2008 05:05:29 19.9 C 67 % 13.59 C
12 26-07-2008 05:35:29 19.1 C 69 % 13.28 C
13 26-07-2008 06:05:29 18.8 C 72 % 13.65 C
14 26-07-2008 06:35:29 19.1 C 71 % 13.72 C
15 26-07-2008 07:05:29 19.5 C 70 % 13.89 C
16 26-07-2008 07:35:29 19.6 C 69 % 13.76 C
17 26-07-2008 08:05:29 19.8 C 69 % 13.95 C
18 26-07-2008 08:35:29 20.2 C 67 % 13.88 C
19 26-07-2008 09:05:29 21 C 62 % 13.44 C
20 26-07-2008 09:35:29 22 C 60 % 13.88 C
21 26-07-2008 10:05:29 23.7 C 54 % 13.84 C
22 26-07-2008 10:35:30 25.1 C 51 % 14.25 C
23 26-07-2008 11:05:30 25.8 C 51 % 14.9 C
24 26-07-2008 11:35:30 27.3 C 46 % 14.67 C
25 26-07-2008 12:05:30 29.6 C 41 % 14.95 C
Sensor: Nr:Datum:Temp:Feuchte:Taupunkt:
Aussen-T/F 26 26-07-2008 12:35:30 30.2 C 37 % 13.9 C
27 26-07-2008 13:05:30 30.6 C 35 % 13.39 C
28 26-07-2008 13:35:30 30.7 C 35 % 13.48 C
29 26-07-2008 14:05:30 30.9 C 33 % 12.76 C
30 26-07-2008 14:35:30 31 C 32 % 12.37 C
31 26-07-2008 15:05:30 31.8 C 30 % 12.08 C
32 26-07-2008 15:35:30 32.1 C 30 % 12.34 C
33 26-07-2008 16:05:30 33.2 C 21 % 7.94 C
34 26-07-2008 16:35:30 32.2 C 25 % 9.68 C
35 26-07-2008 17:05:30 31.7 C 26 % 9.85 C
36 26-07-2008 17:35:30 29 C 35 % 11.99 C
37 26-07-2008 18:05:30 25.3 C 50 % 14.13 C
38 26-07-2008 18:35:30 20.8 C 78 % 16.82 C
39 26-07-2008 19:05:30 20.9 C 84 % 18.09 C
40 26-07-2008 19:35:30 20.6 C 85 % 17.99 C
41 26-07-2008 20:05:31 21.1 C 78 % 17.11 C
42 26-07-2008 20:35:31 20.8 C 80 % 17.22 C
43 26-07-2008 21:05:31 20.8 C 79 % 17.02 C
44 26-07-2008 21:35:31 19.5 C 84 % 16.72 C
45 26-07-2008 22:05:31 19.3 C 82 % 16.15 C
46 26-07-2008 22:35:31 19 C 82 % 15.86 C
47 26-07-2008 23:05:31 18.9 C 84 % 16.14 C
48 26-07-2008 23:35:31 18.8 C 88 % 16.77 C
49 27-07-2008 00:05:31 18.5 C 89 % 16.65 C
50 27-07-2008 00:35:31 18.4 C 89 % 16.55 C
Sensor: Nr:Datum:Temp:Feuchte:Taupunkt:
Aussen-T/F 51 27-07-2008 01:05:31 18.5 C 89 % 16.65 C
52 27-07-2008 01:35:31 18.3 C 89 % 16.46 C
53 27-07-2008 02:05:31 18.1 C 88 % 16.08 C
54 27-07-2008 02:35:31 17.8 C 89 % 15.96 C
55 27-07-2008 03:05:31 18 C 89 % 16.16 C
56 27-07-2008 03:35:31 18.4 C 89 % 16.55 C
57 27-07-2008 04:05:31 18.4 C 88 % 16.38 C
58 27-07-2008 04:35:31 18.5 C 88 % 16.48 C
59 27-07-2008 05:05:31 18.7 C 87 % 16.49 C
60 27-07-2008 05:35:32 18.7 C 87 % 16.49 C
61 27-07-2008 06:05:32 18.8 C 87 % 16.59 C
62 27-07-2008 06:35:32 18.8 C 87 % 16.59 C
63 27-07-2008 07:05:32 19 C 85 % 16.42 C
64 27-07-2008 07:35:32 19.2 C 84 % 16.43 C
65 27-07-2008 08:05:32 19.6 C 81 % 16.25 C
66 27-07-2008 08:35:32 19.7 C 78 % 15.76 C
67 27-07-2008 09:05:32 19.9 C 77 % 15.75 C
68 27-07-2008 09:35:32 20.1 C 75 % 15.53 C
69 27-07-2008 10:05:32 20.4 C 74 % 15.61 C
70 27-07-2008 10:35:32 21.6 C 72 % 16.34 C
71 27-07-2008 11:05:32 23.4 C 62 % 15.71 C
72 27-07-2008 11:35:32 24.3 C 58 % 15.51 C
73 27-07-2008 12:05:32 24.9 C 57 % 15.8 C
74 27-07-2008 12:35:32 26.5 C 51 % 15.54 C
75 27-07-2008 13:05:32 28.2 C 44 % 14.79 C
Sensor: Nr:Datum:Temp:Feuchte:Taupunkt:
Aussen-T/F 76 27-07-2008 13:35:32 29.9 C 38 % 14.04 C
77 27-07-2008 14:05:32 30.3 C 37 % 13.99 C
78 27-07-2008 14:35:32 31.2 C 33 % 13.02 C
79 27-07-2008 15:05:33 31.8 C 30 % 12.08 C
80 27-07-2008 15:35:33 32.4 C 29 % 12.08 C
81 27-07-2008 16:05:33 33 C 25 % 10.35 C
82 27-07-2008 16:35:33 32.7 C 25 % 10.1 C
83 27-07-2008 17:05:33 33.8 C 20 % 7.71 C
84 27-07-2008 17:35:33 33.6 C 20 % 7.55 C
85 27-07-2008 18:05:33 32 C 28 % 11.21 C
86 27-07-2008 18:35:33 31 C 34 % 13.3 C
87 27-07-2008 19:05:33 25.1 C 52 % 14.55 C
88 27-07-2008 19:35:33 22.8 C 77 % 18.56 C
89 27-07-2008 20:05:33 21.7 C 83 % 18.69 C
90 27-07-2008 20:35:33 21 C 84 % 18.19 C
91 27-07-2008 21:05:33 21.6 C 81 % 18.2 C
92 27-07-2008 21:35:33 21.5 C 78 % 17.5 C
93 27-07-2008 22:05:33 21.3 C 78 % 17.31 C
94 27-07-2008 22:35:33 21 C 76 % 16.61 C
95 27-07-2008 23:05:33 20.8 C 76 % 16.41 C
96 27-07-2008 23:35:33 20.7 C 76 % 16.32 C
97 28-07-2008 00:05:33 20.3 C 77 % 16.14 C
98 28-07-2008 00:35:33 20 C 78 % 16.05 C
99 28-07-2008 01:05:34 19.5 C 79 % 15.76 C
100 28-07-2008 01:35:34 19.2 C 80 % 15.67 C
Sensor: Nr:Datum:Temp:Feuchte:Taupunkt:
Aussen-T/F 101 28-07-2008 02:05:34 19.1 C 81 % 15.76 C
102 28-07-2008 02:35:34 19.2 C 81 % 15.86 C
103 28-07-2008 03:05:34 19.2 C 81 % 15.86 C
104 28-07-2008 03:35:34 18.9 C 84 % 16.14 C
105 28-07-2008 04:05:34 18.6 C 84 % 15.84 C
106 28-07-2008 04:35:34 18.6 C 84 % 15.84 C
107 28-07-2008 05:05:34 18.3 C 85 % 15.74 C
108 28-07-2008 05:35:34 18.1 C 85 % 15.54 C
109 28-07-2008 06:05:34 18 C 85 % 15.44 C
110 28-07-2008 06:35:34 18.2 C 85 % 15.64 C
111 28-07-2008 07:05:34 18.5 C 85 % 15.93 C
112 28-07-2008 07:35:34 18.9 C 85 % 16.32 C
113 28-07-2008 08:05:34 19.4 C 83 % 16.44 C
114 28-07-2008 08:35:34 19.8 C 81 % 16.45 C
115 28-07-2008 09:05:34 20.9 C 78 % 16.92 C
116 28-07-2008 09:35:34 22.4 C 69 % 16.43 C
117 28-07-2008 10:05:34 23.5 C 65 % 16.54 C
118 28-07-2008 10:35:35 26 C 51 % 15.08 C
119 28-07-2008 11:05:35 26.6 C 50 % 15.32 C
120 28-07-2008 11:35:35 27.9 C 45 % 14.87 C
121 28-07-2008 12:05:35 28.7 C 41 % 14.15 C
122 28-07-2008 12:35:35 30.6 C 34 % 12.95 C
123 28-07-2008 13:05:35 31.5 C 30 % 11.83 C
124 28-07-2008 13:35:35 32.1 C 27 % 10.75 C
125 28-07-2008 14:05:35 32.1 C 26 % 10.18 C
Sensor: Nr:Datum:Temp:Feuchte:Taupunkt:
Aussen-T/F 126 28-07-2008 14:35:35 31.9 C 25 % 9.43 C
127 28-07-2008 15:05:35 32.6 C 22 % 8.13 C
128 28-07-2008 15:35:35 32.3 C 20 % 6.49 C
129 28-07-2008 16:05:35 33.1 C 20 % 7.14 C
130 28-07-2008 16:35:35 32.6 C 20 % 6.73 C
131 28-07-2008 17:05:35 33.2 C 20 % 7.22 C
132 28-07-2008 17:35:35 32.7 C 24 % 9.49 C
133 28-07-2008 18:05:35 32.8 C 22 % 8.29 C
134 28-07-2008 18:35:35 31.5 C 28 % 10.79 C
135 28-07-2008 19:05:35 30.2 C 30 % 10.71 C
136 28-07-2008 19:35:35 30.3 C 31 % 11.29 C
137 28-07-2008 20:05:36 29 C 34 % 11.55 C
138 28-07-2008 20:35:36 27.8 C 36 % 11.37 C
139 28-07-2008 21:05:36 27 C 37 % 11.07 C
140 28-07-2008 21:35:36 26.3 C 39 % 11.25 C
141 28-07-2008 22:05:36 25.5 C 40 % 10.91 C
142 28-07-2008 22:35:36 24.8 C 43 % 11.38 C
143 28-07-2008 23:05:36 24.1 C 44 % 11.09 C
144 28-07-2008 23:35:36 23.4 C 47 % 11.45 C
145 29-07-2008 00:05:36 23 C 48 % 11.41 C
146 29-07-2008 00:35:36 22.5 C 52 % 12.16 C
147 29-07-2008 01:05:36 22.1 C 53 % 12.08 C
148 29-07-2008 01:35:36 21.6 C 55 % 12.18 C
149 29-07-2008 02:05:36 21.1 C 60 % 13.04 C
150 29-07-2008 02:35:36 20.9 C 60 % 12.85 C
Sensor: Nr:Datum:Temp:Feuchte:Taupunkt:
Aussen-T/F 151 29-07-2008 03:05:36 20.4 C 62 % 12.88 C
152 29-07-2008 03:35:36 20.1 C 65 % 13.32 C
153 29-07-2008 04:05:36 19.8 C 67 % 13.5 C
154 29-07-2008 04:35:36 19.4 C 70 % 13.79 C
155 29-07-2008 05:05:36 19.2 C 72 % 14.03 C
156 29-07-2008 05:35:37 19 C 71 % 13.63 C
157 29-07-2008 06:05:37 19 C 72 % 13.84 C
158 29-07-2008 06:35:37 19 C 73 % 14.05 C
159 29-07-2008 07:05:37 19.2 C 73 % 14.25 C
160 29-07-2008 07:35:37 19.1 C 74 % 14.36 C
161 29-07-2008 08:05:37 19.4 C 74 % 14.65 C
162 29-07-2008 08:35:37 20.2 C 70 % 14.56 C
163 29-07-2008 09:05:37 22 C 63 % 14.63 C
164 29-07-2008 09:35:37 23.5 C 56 % 14.22 C
165 29-07-2008 10:05:37 24.6 C 52 % 14.09 C
166 29-07-2008 10:35:37 27 C 45 % 14.06 C
167 29-07-2008 11:05:37 27.8 C 45 % 14.78 C
168 29-07-2008 11:35:37 24.8 C 52 % 14.28 C
169 29-07-2008 12:05:37 20.4 C 79 % 16.64 C
170 29-07-2008 12:35:37 20.3 C 85 % 17.7 C
171 29-07-2008 13:05:37 21.4 C 82 % 18.2 C
172 29-07-2008 13:35:37 24.6 C 72 % 19.21 C
173 29-07-2008 14:05:37 26.8 C 55 % 17 C
174 29-07-2008 14:35:37 27.7 C 49 % 16.01 C
175 29-07-2008 15:05:38 29.8 C 40 % 14.75 C
Sensor: Nr:Datum:Temp:Feuchte:Taupunkt:
Aussen-T/F 176 29-07-2008 15:35:38 30.7 C 35 % 13.48 C
177 29-07-2008 16:05:38 31.4 C 32 % 12.72 C
178 29-07-2008 16:35:38 32 C 30 % 12.26 C
179 29-07-2008 17:05:38 32.1 C 28 % 11.3 C
180 29-07-2008 17:35:38 31.8 C 30 % 12.08 C
181 29-07-2008 18:05:38 31.5 C 31 % 12.32 C
182 29-07-2008 18:35:38 31.9 C 27 % 10.58 C
183 29-07-2008 19:05:38 31.7 C 28 % 10.96 C
184 29-07-2008 19:35:38 30.3 C 35 % 13.13 C
185 29-07-2008 20:05:38 31.3 C 33 % 13.1 C
186 29-07-2008 20:35:38 30.2 C 32 % 11.68 C
187 29-07-2008 21:05:38 26.9 C 41 % 12.54 C
188 29-07-2008 21:35:38 25.1 C 46 % 12.67 C
189 29-07-2008 22:05:38 24.4 C 52 % 13.91 C
190 29-07-2008 22:35:38 23.5 C 54 % 13.66 C
191 29-07-2008 23:05:38 23.1 C 57 % 14.12 C
192 29-07-2008 23:35:38 22.3 C 59 % 13.9 C
193 30-07-2008 00:05:38 21.7 C 64 % 14.6 C
194 30-07-2008 00:35:38 21.1 C 68 % 14.97 C
195 30-07-2008 01:05:39 20.7 C 71 % 15.25 C
196 30-07-2008 01:35:39 20.6 C 71 % 15.16 C
197 30-07-2008 02:05:39 20.3 C 71 % 14.87 C
198 30-07-2008 02:35:39 19.9 C 73 % 14.92 C
199 30-07-2008 03:05:39 19.5 C 74 % 14.74 C
200 30-07-2008 03:35:39 19 C 77 % 14.88 C
Sensor: Nr:Datum:Temp:Feuchte:Taupunkt:
Aussen-T/F 201 30-07-2008 04:05:39 18.9 C 77 % 14.78 C
202 30-07-2008 04:35:39 18.7 C 78 % 14.79 C
203 30-07-2008 05:05:39 18.3 C 80 % 14.79 C
204 30-07-2008 05:35:39 18.1 C 80 % 14.6 C
205 30-07-2008 06:05:39 17.9 C 81 % 14.59 C
206 30-07-2008 06:35:39 17.8 C 82 % 14.69 C
207 30-07-2008 07:05:39 17.8 C 82 % 14.69 C
208 30-07-2008 07:35:39 17.8 C 82 % 14.69 C
209 30-07-2008 08:05:39 19 C 78 % 15.08 C
210 30-07-2008 08:35:39 19.9 C 73 % 14.92 C
211 30-07-2008 09:05:39 20.7 C 70 % 15.03 C
212 30-07-2008 09:35:39 22 C 66 % 15.36 C
213 30-07-2008 10:05:39 22.7 C 64 % 15.54 C
214 30-07-2008 10:35:40 24.8 C 57 % 15.7 C
215 30-07-2008 11:05:40 26.1 C 51 % 15.17 C
216 30-07-2008 11:35:40 26.8 C 48 % 14.87 C
217 30-07-2008 12:05:40 27.5 C 47 % 15.18 C
218 30-07-2008 12:35:40 29.3 C 41 % 14.68 C
219 30-07-2008 13:05:40 29.6 C 40 % 14.57 C
220 30-07-2008 13:35:40 30 C 36 % 13.3 C
221 30-07-2008 14:05:40 29.8 C 38 % 13.95 C
222 30-07-2008 14:35:40 31.7 C 31 % 12.5 C
223 30-07-2008 15:05:40 32.7 C 26 % 10.69 C
224 30-07-2008 15:35:40 32 C 28 % 11.21 C
225 30-07-2008 16:05:40 31.8 C 30 % 12.08 C
Sensor: Nr:Datum:Temp:Feuchte:Taupunkt:
Aussen-T/F 226 30-07-2008 16:35:40 33.2 C 24 % 9.91 C
227 30-07-2008 17:05:40 33.3 C 22 % 8.7 C
228 30-07-2008 17:35:40 33.6 C 22 % 8.95 C
229 30-07-2008 18:05:40 34 C 20 % 7.88 C
230 30-07-2008 18:35:40 24.5 C 26 % 3.76 C
231 30-07-2008 19:05:40 21.2 C 26 % 0.95 C
232 30-07-2008 19:35:40 22.4 C 31 % 4.46 C
233 30-07-2008 20:05:41 24.6 C 80 % 20.92 C
234 30-07-2008 20:35:41 23 C 75 % 18.33 C
235 30-07-2008 21:05:41 22.1 C 70 % 16.37 C
236 30-07-2008 21:35:41 20.1 C 85 % 17.5 C
237 30-07-2008 22:05:41 20.1 C 87 % 17.87 C
238 30-07-2008 22:35:41 20.1 C 87 % 17.87 C
239 30-07-2008 23:05:41 20 C 86 % 17.59 C
240 30-07-2008 23:35:41 19.6 C 87 % 17.38 C
241 31-07-2008 00:05:41 19.1 C 85 % 16.52 C
242 31-07-2008 00:35:41 18.7 C 86 % 16.31 C
243 31-07-2008 01:05:41 18.5 C 86 % 16.11 C
244 31-07-2008 01:35:41 18.4 C 86 % 16.02 C
245 31-07-2008 02:05:41 18.1 C 87 % 15.9 C
246 31-07-2008 02:35:41 17.9 C 88 % 15.88 C
247 31-07-2008 03:05:41 17.6 C 88 % 15.59 C
248 31-07-2008 03:35:41 17.4 C 88 % 15.39 C
249 31-07-2008 04:05:41 17.1 C 89 % 15.27 C
250 31-07-2008 04:35:41 17.2 C 90 % 15.55 C
Sensor: Nr:Datum:Temp:Feuchte:Taupunkt:
Aussen-T/F 251 31-07-2008 05:05:41 17.2 C 89 % 15.37 C
252 31-07-2008 05:35:42 17.4 C 89 % 15.57 C
253 31-07-2008 06:05:42 17 C 88 % 15 C
254 31-07-2008 06:35:42 17.5 C 88 % 15.49 C
255 31-07-2008 07:05:42 17.2 C 86 % 14.84 C
256 31-07-2008 07:35:42 17.1 C 87 % 14.92 C
257 31-07-2008 08:05:42 17.9 C 87 % 15.71 C
258 31-07-2008 08:35:42 18.5 C 83 % 15.56 C
259 31-07-2008 09:05:42 18.9 C 80 % 15.38 C
260 31-07-2008 09:35:42 19.7 C 81 % 16.35 C
261 31-07-2008 10:05:42 21 C 78 % 17.02 C
262 31-07-2008 10:35:42 22.9 C 74 % 18.02 C
263 31-07-2008 11:05:42 24.8 C 61 % 16.77 C
264 31-07-2008 11:35:42 26.6 C 55 % 16.82 C
265 31-07-2008 12:05:42 27.8 C 49 % 16.11 C
266 31-07-2008 12:35:42 29.5 C 42 % 15.24 C
267 31-07-2008 13:05:42 30.7 C 36 % 13.92 C
268 31-07-2008 13:35:42 31.6 C 30 % 11.91 C
269 31-07-2008 14:05:42 31.4 C 30 % 11.74 C
270 31-07-2008 14:35:42 30.8 C 34 % 13.13 C
271 31-07-2008 15:05:43 31.5 C 31 % 12.32 C
272 31-07-2008 15:35:43 31.5 C 32 % 12.81 C
273 31-07-2008 16:05:43 33.3 C 25 % 10.61 C
274 31-07-2008 16:35:43 33.8 C 23 % 9.78 C
275 31-07-2008 17:05:43 33.7 C 23 % 9.69 C
Sensor: Nr:Datum:Temp:Feuchte:Taupunkt:
Aussen-T/F 276 31-07-2008 17:35:43 33.9 C 21 % 8.51 C
277 31-07-2008 18:05:43 34.1 C 22 % 9.37 C
278 31-07-2008 18:35:43 33.8 C 24 % 10.41 C
279 31-07-2008 19:05:43 33.3 C 25 % 10.61 C
280 31-07-2008 19:35:43 32.9 C 27 % 11.43 C
281 31-07-2008 20:05:43 32 C 31 % 12.75 C
282 31-07-2008 20:35:43 29.7 C 41 % 15.04 C
283 31-07-2008 21:05:43 27.9 C 45 % 14.87 C
284 31-07-2008 21:35:43 26.8 C 48 % 14.87 C
285 31-07-2008 22:05:43 26.1 C 48 % 14.23 C
286 31-07-2008 22:35:43 25.6 C 49 % 14.1 C
287 31-07-2008 23:05:43 25.2 C 51 % 14.35 C
288 31-07-2008 23:35:43 24.9 C 52 % 14.37 C
289 01-08-2008 00:05:43 24.6 C 53 % 14.39 C
290 01-08-2008 00:35:44 24.5 C 56 % 15.15 C
291 01-08-2008 01:05:44 24.8 C 54 % 14.86 C
292 01-08-2008 01:35:44 24.6 C 55 % 14.96 C
293 01-08-2008 02:05:44 24.1 C 58 % 15.32 C
294 01-08-2008 02:35:44 23.8 C 62 % 16.08 C
295 01-08-2008 03:05:44 23.7 C 63 % 16.24 C
296 01-08-2008 03:35:44 23 C 66 % 16.31 C
297 01-08-2008 04:05:44 22.8 C 67 % 16.35 C
298 01-08-2008 04:35:44 22.6 C 68 % 16.39 C
299 01-08-2008 05:05:44 22.5 C 70 % 16.76 C
300 01-08-2008 05:35:44 22.1 C 72 % 16.82 C
Sensor: Nr:Datum:Temp:Feuchte:Taupunkt:
Aussen-T/F 301 01-08-2008 06:05:44 22.2 C 71 % 16.69 C
302 01-08-2008 06:35:44 22.4 C 70 % 16.66 C
303 01-08-2008 07:05:44 22.7 C 67 % 16.26 C
304 01-08-2008 07:35:44 23.4 C 65 % 16.45 C
305 01-08-2008 08:05:44 23.4 C 64 % 16.2 C
306 01-08-2008 08:35:44 23.7 C 64 % 16.49 C
307 01-08-2008 09:05:44 23.8 C 58 % 15.04 C
308 01-08-2008 09:35:44 24.5 C 57 % 15.42 C
309 01-08-2008 10:05:45 24.9 C 54 % 14.95 C
310 01-08-2008 10:35:45 26.3 C 47 % 14.09 C
311 01-08-2008 11:05:45 27.3 C 44 % 13.98 C
312 01-08-2008 11:35:45 27.7 C 40 % 12.88 C
313 01-08-2008 12:05:45 27.7 C 37 % 11.69 C
314 01-08-2008 12:35:45 28.2 C 32 % 9.95 C
315 01-08-2008 13:05:45 28.2 C 31 % 9.48 C
316 01-08-2008 13:35:45 26.5 C 37 % 10.63 C
317 01-08-2008 14:05:45 26.3 C 38 % 10.86 C
318 01-08-2008 14:35:45 26.1 C 39 % 11.07 C
319 01-08-2008 15:05:45 28.2 C 32 % 9.95 C
320 01-08-2008 15:35:45 29.5 C 30 % 10.11 C
321 01-08-2008 16:05:45 28.2 C 32 % 9.95 C
322 01-08-2008 16:35:45 29.3 C 29 % 9.43 C
323 01-08-2008 17:05:45 28.4 C 30 % 9.16 C
324 01-08-2008 17:35:45 26.8 C 32 % 8.73 C
325 01-08-2008 18:05:45 26.3 C 32 % 8.3 C
Sensor: Nr:Datum:Temp:Feuchte:Taupunkt:
Aussen-T/F 326 01-08-2008 18:35:45 26.4 C 32 % 8.39 C
327 01-08-2008 19:05:45 26.9 C 30 % 7.87 C
328 01-08-2008 19:35:46 27.2 C 27 % 6.59 C
329 01-08-2008 20:05:46 25.6 C 27 % 5.23 C
330 01-08-2008 20:35:46 24.4 C 29 % 5.23 C
331 01-08-2008 21:05:46 23.7 C 33 % 6.49 C
332 01-08-2008 21:35:46 23.1 C 36 % 7.23 C
333 01-08-2008 22:05:46 22.4 C 38 % 7.4 C
334 01-08-2008 22:35:46 22 C 41 % 8.15 C
335 01-08-2008 23:05:46 21.6 C 43 % 8.49 C
336 01-08-2008 23:35:46 20.6 C 48 % 9.21 C
337 02-08-2008 00:05:46 19.6 C 51 % 9.2 C
338 02-08-2008 00:35:46 19 C 54 % 9.49 C
339 02-08-2008 01:05:46 18.4 C 58 % 9.99 C
340 02-08-2008 01:35:46 18.1 C 60 % 10.22 C
341 02-08-2008 02:05:46 17.2 C 65 % 10.57 C
342 02-08-2008 02:35:46 16.9 C 68 % 10.96 C
343 02-08-2008 03:05:46 16.6 C 69 % 10.89 C
344 02-08-2008 03:35:46 16.6 C 69 % 10.89 C
345 02-08-2008 04:05:46 16.3 C 71 % 11.04 C
346 02-08-2008 04:35:46 16.6 C 70 % 11.11 C
347 02-08-2008 05:05:47 16.1 C 71 % 10.84 C
348 02-08-2008 05:35:47 15.7 C 74 % 11.08 C
349 02-08-2008 06:05:47 15.5 C 76 % 11.29 C
350 02-08-2008 06:35:47 16.1 C 75 % 11.67 C
Sensor: Nr:Datum:Temp:Feuchte:Taupunkt:
Aussen-T/F 351 02-08-2008 07:05:47 16.6 C 74 % 11.95 C
352 02-08-2008 07:35:47 17.2 C 71 % 11.9 C
353 02-08-2008 08:05:47 18 C 67 % 11.79 C
354 02-08-2008 08:35:47 18.5 C 64 % 11.57 C
355 02-08-2008 09:05:47 20 C 57 % 11.23 C
356 02-08-2008 09:35:47 20.4 C 58 % 11.86 C
357 02-08-2008 10:05:47 21.2 C 56 % 12.08 C
358 02-08-2008 10:35:47 22 C 46 % 9.86 C
359 02-08-2008 11:05:47 22.9 C 42 % 9.32 C
360 02-08-2008 11:35:47 23.6 C 38 % 8.46 C
361 02-08-2008 12:05:47 24.4 C 35 % 7.96 C
362 02-08-2008 12:35:47 25.6 C 31 % 7.23 C
363 02-08-2008 13:05:47 26.9 C 27 % 6.33 C
364 02-08-2008 13:35:47 27 C 27 % 6.42 C
365 02-08-2008 14:05:47 26.9 C 26 % 5.79 C
366 02-08-2008 14:35:48 26.5 C 28 % 6.52 C
367 02-08-2008 15:05:48 27 C 27 % 6.42 C
368 02-08-2008 15:35:48 27.3 C 26 % 6.13 C
369 02-08-2008 16:05:48 26.9 C 27 % 6.33 C
370 02-08-2008 16:35:48 23.3 C 46 % 11.04 C
371 02-08-2008 17:05:48 24.6 C 38 % 9.35 C
372 02-08-2008 17:35:02 24.9 C 36 % 8.81 C
373 02-08-2008 18:05:02 24.7 C 36 % 8.64 C
374 02-08-2008 18:35:02 24.1 C 39 % 9.29 C
375 02-08-2008 19:05:04 24.7 C 39 % 9.82 C
Sensor: Nr:Datum:Temp:Feuchte:Taupunkt:
Aussen-T/F 376 02-08-2008 19:35:02 24.1 C 37 % 8.51 C
377 02-08-2008 20:05:02 23.7 C 39 % 8.93 C
378 02-08-2008 20:35:01 22.8 C 44 % 9.92 C
379 02-08-2008 21:05:03 22 C 46 % 9.86 C
380 02-08-2008 21:35:03 21.8 C 49 % 10.62 C
381 02-08-2008 22:05:04 21.5 C 51 % 10.94 C
382 02-08-2008 22:35:03 21.2 C 54 % 11.53 C
383 02-08-2008 23:05:02 20.7 C 57 % 11.88 C
384 02-08-2008 23:35:02 20.6 C 60 % 12.57 C
385 03-08-2008 00:05:03 20.4 C 63 % 13.12 C
386 03-08-2008 00:35:03 19 C 74 % 14.26 C
387 03-08-2008 01:05:02 19.2 C 74 % 14.46 C
388 03-08-2008 01:35:03 19.6 C 71 % 14.2 C
389 03-08-2008 02:05:02 18.4 C 83 % 15.46 C
390 03-08-2008 02:35:03 18.4 C 87 % 16.2 C
391 03-08-2008 03:06:03 18.2 C 88 % 16.18 C
392 03-08-2008 03:36:02 18.2 C 88 % 16.18 C
393 03-08-2008 04:06:02 17.7 C 86 % 15.33 C
394 03-08-2008 04:36:02 17.6 C 87 % 15.41 C
395 03-08-2008 05:06:01 17.3 C 88 % 15.29 C
396 03-08-2008 05:36:01 17.5 C 89 % 15.67 C
397 03-08-2008 06:06:03 17.5 C 89 % 15.67 C
398 03-08-2008 06:36:03 17.5 C 89 % 15.67 C
399 03-08-2008 07:06:02 17.7 C 85 % 15.15 C
400 03-08-2008 07:36:02 17.8 C 79 % 14.11 C
Sensor: Nr:Datum:Temp:Feuchte:Taupunkt:
Aussen-T/F 401 03-08-2008 08:06:02 17.9 C 71 % 12.57 C
402 03-08-2008 08:36:02 18.3 C 69 % 12.52 C
403 03-08-2008 09:06:02 19 C 62 % 11.56 C
404 03-08-2008 09:36:02 19.5 C 62 % 12.03 C
405 03-08-2008 10:06:02 20.1 C 57 % 11.32 C
406 03-08-2008 10:36:02 21.1 C 54 % 11.44 C
407 03-08-2008 11:06:01 22 C 50 % 11.11 C
408 03-08-2008 11:36:01 23.6 C 45 % 10.98 C
409 03-08-2008 12:00:01 22.6 C 46 % 10.4 C
410 03-08-2008 12:12:02 22.6 C 45 % 10.07 C
411 03-08-2008 12:24:01 22.5 C 45 % 9.98 C
412 03-08-2008 12:36:02 23 C 43 % 9.76 C
413 03-08-2008 12:48:02 23.1 C 44 % 10.19 C
414 03-08-2008 13:00:02 23.4 C 43 % 10.12 C
415 03-08-2008 13:12:01 23.3 C 46 % 11.04 C
416 03-08-2008 13:24:02 23.2 C 44 % 10.28 C
417 03-08-2008 13:36:02 24.6 C 41 % 10.48 C
418 03-08-2008 13:48:02 26.7 C 35 % 9.98 C
419 03-08-2008 14:00:02 26.5 C 36 % 10.22 C
420 03-08-2008 14:12:02 26.7 C 35 % 9.98 C
421 03-08-2008 14:24:01 26.2 C 37 % 10.37 C
422 03-08-2008 14:36:02 27.2 C 35 % 10.42 C
423 03-08-2008 14:48:02 27.1 C 34 % 9.89 C
424 03-08-2008 15:00:03 27.4 C 34 % 10.16 C
425 03-08-2008 15:12:02 27.6 C 33 % 9.89 C
Sensor: Nr:Datum:Temp:Feuchte:Taupunkt:
Aussen-T/F 426 03-08-2008 15:24:03 26.9 C 34 % 9.72 C
427 03-08-2008 15:36:03 27 C 35 % 10.24 C
428 03-08-2008 15:48:02 27.3 C 35 % 10.5 C
429 03-08-2008 16:00:02 27.7 C 35 % 10.85 C
430 03-08-2008 16:12:02 27.9 C 34 % 10.59 C
431 03-08-2008 16:24:02 28 C 33 % 10.23 C
432 03-08-2008 16:36:01 27.2 C 35 % 10.42 C
433 03-08-2008 16:48:02 27.2 C 35 % 10.42 C
434 03-08-2008 17:00:02 28 C 33 % 10.23 C
435 03-08-2008 17:12:03 28 C 32 % 9.77 C
436 03-08-2008 17:48:02 28.4 C 31 % 9.65 C
437 03-08-2008 18:00:02 28.4 C 32 % 10.12 C
438 03-08-2008 18:12:03 28.8 C 31 % 9.99 C
439 03-08-2008 18:24:03 27.5 C 33 % 9.8 C
440 03-08-2008 18:36:02 27.2 C 34 % 9.98 C
441 03-08-2008 18:48:02 27.3 C 35 % 10.5 C
442 03-08-2008 19:00:02 27.1 C 35 % 10.33 C
443 03-08-2008 19:12:02 27.3 C 35 % 10.5 C
444 03-08-2008 19:24:02 26.6 C 37 % 10.72 C
445 03-08-2008 19:36:02 26.1 C 38 % 10.68 C
446 03-08-2008 19:48:02 25.8 C 40 % 11.18 C
447 03-08-2008 20:00:03 25.7 C 40 % 11.09 C
448 03-08-2008 20:12:02 25.3 C 42 % 11.47 C
449 03-08-2008 20:24:02 25 C 42 % 11.2 C
450 03-08-2008 20:36:02 24.8 C 44 % 11.72 C
Sensor: Nr:Datum:Temp:Feuchte:Taupunkt:
Aussen-T/F 451 03-08-2008 20:48:02 24.7 C 45 % 11.97 C
452 03-08-2008 21:00:02 24.5 C 46 % 12.13 C
453 03-08-2008 21:12:02 24.3 C 47 % 12.27 C
454 03-08-2008 21:24:02 24.1 C 50 % 13.03 C
455 03-08-2008 21:36:03 23.6 C 53 % 13.46 C
456 03-08-2008 21:48:02 22.6 C 62 % 14.95 C
457 03-08-2008 22:00:02 22.7 C 61 % 14.79 C
458 03-08-2008 22:12:03 22.9 C 59 % 14.47 C
459 03-08-2008 22:24:02 22.7 C 59 % 14.28 C
460 03-08-2008 22:37:04 22.6 C 59 % 14.18 C
461 03-08-2008 22:49:04 22.5 C 60 % 14.35 C
462 03-08-2008 23:01:05 22.2 C 61 % 14.32 C
463 03-08-2008 23:13:05 22.1 C 61 % 14.23 C
464 03-08-2008 23:25:05 22 C 63 % 14.63 C
465 03-08-2008 23:37:05 21.8 C 64 % 14.69 C
466 03-08-2008 23:49:05 21.9 C 64 % 14.78 C
467 04-08-2008 00:01:05 21.8 C 64 % 14.69 C
468 04-08-2008 00:13:05 21.8 C 64 % 14.69 C
469 04-08-2008 00:25:05 21.6 C 65 % 14.74 C
470 04-08-2008 00:37:05 21.3 C 66 % 14.69 C
471 04-08-2008 00:49:05 21.3 C 66 % 14.69 C
472 04-08-2008 01:01:05 21.6 C 64 % 14.5 C
473 04-08-2008 01:13:05 21.8 C 62 % 14.2 C
474 04-08-2008 01:25:05 22.1 C 61 % 14.23 C
475 04-08-2008 01:37:05 22.6 C 59 % 14.18 C
Sensor: Nr:Datum:Temp:Feuchte:Taupunkt:
Aussen-T/F 476 04-08-2008 01:49:05 22.9 C 57 % 13.93 C
477 04-08-2008 02:01:05 23.1 C 55 % 13.57 C
478 04-08-2008 02:13:05 23.3 C 54 % 13.47 C
479 04-08-2008 02:25:05 23.4 C 53 % 13.28 C
480 04-08-2008 02:37:05 23.5 C 53 % 13.37 C
481 04-08-2008 02:49:06 23.4 C 53 % 13.28 C
482 04-08-2008 03:01:06 23.3 C 54 % 13.47 C
483 04-08-2008 03:13:06 23.2 C 54 % 13.38 C
484 04-08-2008 03:25:06 23 C 55 % 13.48 C
485 04-08-2008 03:37:06 22.9 C 56 % 13.66 C
486 04-08-2008 03:49:06 21.5 C 67 % 15.12 C
487 04-08-2008 04:01:06 19.8 C 81 % 16.45 C
488 04-08-2008 04:13:06 19.5 C 84 % 16.72 C
489 04-08-2008 04:25:06 19.4 C 85 % 16.81 C
490 04-08-2008 04:37:06 19.1 C 85 % 16.52 C
491 04-08-2008 04:49:06 19.2 C 81 % 15.86 C
492 04-08-2008 05:01:06 18.9 C 82 % 15.76 C
493 04-08-2008 05:13:06 18.8 C 84 % 16.04 C
494 04-08-2008 05:25:06 18.4 C 84 % 15.65 C
495 04-08-2008 05:37:06 17.9 C 84 % 15.16 C
496 04-08-2008 05:49:06 17.7 C 85 % 15.15 C
497 04-08-2008 06:01:06 17.6 C 86 % 15.23 C
498 04-08-2008 06:13:06 17.5 C 87 % 15.31 C
499 04-08-2008 06:25:06 17.2 C 88 % 15.2 C
500 04-08-2008 06:37:06 16.9 C 89 % 15.08 C
Sensor: Nr:Datum:Temp:Feuchte:Taupunkt:
Aussen-T/F 501 04-08-2008 06:49:06 16.8 C 89 % 14.98 C
502 04-08-2008 07:01:07 16.6 C 90 % 14.95 C
503 04-08-2008 07:13:07 16.3 C 90 % 14.66 C
504 04-08-2008 07:25:07 16.4 C 90 % 14.76 C
505 04-08-2008 07:37:07 16.5 C 90 % 14.85 C
506 04-08-2008 07:49:07 16.5 C 90 % 14.85 C
507 04-08-2008 08:01:07 17 C 88 % 15 C
508 04-08-2008 08:13:07 17.2 C 86 % 14.84 C
509 04-08-2008 08:25:07 17.4 C 85 % 14.85 C
510 04-08-2008 08:37:07 17.9 C 85 % 15.34 C
511 04-08-2008 08:49:07 18.1 C 84 % 15.35 C
512 04-08-2008 09:01:07 18 C 83 % 15.07 C
513 04-08-2008 09:13:07 17.9 C 83 % 14.97 C
514 04-08-2008 09:25:04 18.1 C 80 % 14.6 C
515 04-08-2008 09:37:04 18.6 C 80 % 15.08 C
516 04-08-2008 09:49:02 19.1 C 77 % 14.97 C
517 04-08-2008 10:01:02 19.1 C 72 % 13.94 C
518 04-08-2008 10:13:02 19 C 70 % 13.41 C
519 04-08-2008 10:25:01 19.4 C 71 % 14.01 C
520 04-08-2008 10:37:02 19.9 C 66 % 13.36 C
521 04-08-2008 10:49:02 20.4 C 57 % 11.6 C
522 04-08-2008 11:01:03 20.7 C 55 % 11.34 C
523 04-08-2008 11:13:03 20.8 C 52 % 10.59 C
524 04-08-2008 11:25:02 21.4 C 49 % 10.25 C
525 04-08-2008 11:37:02 21.8 C 49 % 10.62 C
Sensor: Nr:Datum:Temp:Feuchte:Taupunkt:
Aussen-T/F 526 04-08-2008 11:49:02 22 C 45 % 9.53 C
527 04-08-2008 12:01:02 22.6 C 44 % 9.74 C
528 04-08-2008 12:13:02 22.9 C 41 % 8.96 C
529 04-08-2008 12:25:02 23.7 C 37 % 8.16 C
530 04-08-2008 12:37:02 23.1 C 37 % 7.63 C
531 04-08-2008 12:49:02 23.4 C 36 % 7.49 C
532 04-08-2008 13:01:02 24.4 C 32 % 6.65 C
533 04-08-2008 13:13:02 24 C 31 % 5.84 C
534 04-08-2008 13:25:02 24 C 30 % 5.37 C
535 04-08-2008 13:37:02 24.5 C 31 % 6.28 C
536 04-08-2008 13:49:03 24.8 C 28 % 5.07 C
537 04-08-2008 14:01:03 25.7 C 27 % 5.31 C
538 04-08-2008 14:13:03 25.4 C 30 % 6.58 C
539 04-08-2008 14:25:03 24.8 C 35 % 8.31 C
540 04-08-2008 14:37:02 24.4 C 37 % 8.78 C
541 04-08-2008 14:49:02 25.3 C 31 % 6.97 C
542 04-08-2008 15:01:01 25.2 C 28 % 5.41 C
543 04-08-2008 15:13:01 24.7 C 28 % 4.98 C
544 04-08-2008 15:25:02 25.1 C 28 % 5.32 C
545 04-08-2008 15:37:01 25.9 C 26 % 4.94 C
546 04-08-2008 15:49:02 27.1 C 22 % 3.57 C
547 04-08-2008 16:01:02 26.2 C 23 % 3.45 C
548 04-08-2008 16:13:02 26.9 C 22 % 3.4 C
549 04-08-2008 16:25:02 26.8 C 22 % 3.32 C
550 04-08-2008 16:37:02 25.8 C 22 % 2.49 C
Sensor: Nr:Datum:Temp:Feuchte:Taupunkt:
Aussen-T/F 551 04-08-2008 16:49:03 26.3 C 25 % 4.72 C
552 04-08-2008 17:01:02 27.2 C 23 % 4.28 C
553 04-08-2008 17:13:02 26.3 C 25 % 4.72 C
554 04-08-2008 17:25:03 26.7 C 22 % 3.24 C
555 04-08-2008 17:37:02 26.2 C 22 % 2.82 C
556 04-08-2008 17:49:02 26.3 C 21 % 2.25 C
557 04-08-2008 18:01:02 26.5 C 22 % 3.07 C
558 04-08-2008 18:13:02 26.6 C 22 % 3.15 C
559 04-08-2008 18:25:02 25.9 C 23 % 3.2 C
560 04-08-2008 18:37:02 26.1 C 23 % 3.37 C
561 04-08-2008 18:49:01 25.7 C 25 % 4.21 C
562 04-08-2008 19:01:02 26 C 23 % 3.28 C
563 04-08-2008 19:13:02 25.9 C 26 % 4.94 C
564 04-08-2008 19:25:01 26.1 C 25 % 4.55 C
565 04-08-2008 19:37:02 26.1 C 24 % 3.97 C
566 04-08-2008 19:49:02 25.4 C 25 % 3.96 C
567 04-08-2008 20:01:02 24.5 C 26 % 3.76 C
568 04-08-2008 20:13:02 23.9 C 28 % 4.3 C
569 04-08-2008 20:25:02 23.4 C 29 % 4.37 C
570 04-08-2008 20:37:02 23.1 C 31 % 5.06 C
571 04-08-2008 20:49:02 22.5 C 35 % 6.29 C
572 04-08-2008 21:01:01 21.8 C 36 % 6.08 C
573 04-08-2008 21:13:01 21.5 C 38 % 6.6 C
574 04-08-2008 21:25:02 21 C 39 % 6.53 C
575 04-08-2008 21:37:01 20.6 C 40 % 6.54 C
Sensor: Nr:Datum:Temp:Feuchte:Taupunkt:
Aussen-T/F 576 04-08-2008 21:49:03 20.4 C 41 % 6.72 C
577 04-08-2008 22:01:02 20.3 C 42 % 6.98 C
578 04-08-2008 22:13:02 19.9 C 44 % 7.3 C
579 04-08-2008 22:25:03 19.5 C 45 % 7.26 C
580 04-08-2008 22:38:13 19.3 C 47 % 7.72 C
581 04-08-2008 22:50:13 19.2 C 47 % 7.63 C
582 04-08-2008 23:02:13 19.2 C 48 % 7.93 C
583 04-08-2008 23:14:13 19.3 C 47 % 7.72 C
584 04-08-2008 23:26:13 19.1 C 49 % 8.15 C
585 04-08-2008 23:38:13 18.9 C 50 % 8.26 C
586 04-08-2008 23:50:13 18.5 C 52 % 8.47 C
587 05-08-2008 00:02:13 18.4 C 52 % 8.38 C
588 05-08-2008 00:14:14 18.2 C 53 % 8.47 C
589 05-08-2008 00:26:14 18.1 C 54 % 8.65 C
590 05-08-2008 00:38:14 17.7 C 58 % 9.34 C
591 05-08-2008 00:50:14 17.4 C 58 % 9.06 C
592 05-08-2008 01:02:14 17.2 C 59 % 9.13 C
593 05-08-2008 01:14:14 16.8 C 62 % 9.49 C
594 05-08-2008 01:26:14 16.6 C 62 % 9.3 C
595 05-08-2008 01:38:14 16.4 C 64 % 9.58 C
596 05-08-2008 01:50:14 16.2 C 65 % 9.62 C
597 05-08-2008 02:02:14 16 C 66 % 9.66 C
598 05-08-2008 02:14:14 15.8 C 67 % 9.69 C
599 05-08-2008 02:26:14 15.6 C 67 % 9.5 C
600 05-08-2008 02:38:14 15.5 C 69 % 9.84 C
Sensor: Nr:Datum:Temp:Feuchte:Taupunkt:
Aussen-T/F 601 05-08-2008 02:50:14 15.4 C 67 % 9.31 C
602 05-08-2008 03:02:14 15.2 C 65 % 8.67 C
603 05-08-2008 03:14:14 15.3 C 66 % 8.99 C
604 05-08-2008 03:26:14 15.1 C 65 % 8.58 C
605 05-08-2008 03:38:14 15 C 67 % 8.93 C
606 05-08-2008 03:50:14 14.8 C 69 % 9.17 C
607 05-08-2008 04:02:14 14.7 C 68 % 8.86 C
608 05-08-2008 04:14:14 14.7 C 65 % 8.2 C
609 05-08-2008 04:26:15 14.5 C 69 % 8.89 C
610 05-08-2008 04:38:15 14.2 C 70 % 8.81 C
611 05-08-2008 04:50:15 14.2 C 69 % 8.6 C
612 05-08-2008 05:02:15 14.1 C 68 % 8.29 C
613 05-08-2008 05:14:15 14 C 69 % 8.41 C
614 05-08-2008 05:26:15 13.9 C 72 % 8.94 C
615 05-08-2008 05:38:15 13.7 C 73 % 8.95 C
616 05-08-2008 05:50:15 13.5 C 73 % 8.76 C
617 05-08-2008 06:02:15 13.5 C 73 % 8.76 C
618 05-08-2008 06:14:15 13.4 C 74 % 8.87 C
619 05-08-2008 06:26:15 13.4 C 74 % 8.87 C
620 05-08-2008 06:38:15 13.4 C 74 % 8.87 C
621 05-08-2008 06:50:15 13.5 C 74 % 8.96 C
622 05-08-2008 07:02:15 13.6 C 74 % 9.06 C
623 05-08-2008 07:14:15 13.7 C 74 % 9.15 C
624 05-08-2008 07:26:15 13.9 C 73 % 9.15 C
625 05-08-2008 07:38:15 14.2 C 71 % 9.02 C
Sensor: Nr:Datum:Temp:Feuchte:Taupunkt:
Aussen-T/F 626 05-08-2008 07:50:15 14.4 C 69 % 8.79 C
627 05-08-2008 08:02:15 14.6 C 69 % 8.98 C
628 05-08-2008 08:14:15 14.8 C 68 % 8.96 C
629 05-08-2008 08:26:15 15 C 66 % 8.71 C
630 05-08-2008 08:38:03 15.4 C 65 % 8.86 C
631 05-08-2008 08:50:03 15.6 C 63 % 8.59 C
632 05-08-2008 09:02:03 15.7 C 64 % 8.92 C
633 05-08-2008 09:14:03 16.1 C 62 % 8.82 C
634 05-08-2008 09:26:02 16.4 C 61 % 8.87 C
635 05-08-2008 09:38:02 16.8 C 60 % 9 C
636 05-08-2008 09:50:02 17.2 C 58 % 8.87 C
637 05-08-2008 10:02:03 17.9 C 57 % 9.27 C
638 05-08-2008 10:14:03 18 C 55 % 8.83 C
639 05-08-2008 10:26:02 18.4 C 54 % 8.93 C
640 05-08-2008 10:38:03 19.1 C 52 % 9.02 C
641 05-08-2008 10:50:03 19.8 C 49 % 8.79 C
642 05-08-2008 11:02:02 20.1 C 47 % 8.45 C
643 05-08-2008 11:14:03 20.5 C 46 % 8.49 C
644 05-08-2008 11:26:02 21.1 C 45 % 8.71 C
645 05-08-2008 11:38:03 22.7 C 39 % 8.04 C
646 05-08-2008 11:50:02 22.2 C 41 % 8.33 C
647 05-08-2008 12:02:02 22.7 C 41 % 8.78 C
648 05-08-2008 12:14:02 23.8 C 37 % 8.25 C
649 05-08-2008 12:26:02 24 C 36 % 8.02 C
650 05-08-2008 12:38:02 24.5 C 35 % 8.05 C
Sensor: Nr:Datum:Temp:Feuchte:Taupunkt:
Aussen-T/F 651 05-08-2008 12:50:01 24.3 C 34 % 7.45 C
652 05-08-2008 13:02:03 24.8 C 32 % 7 C
653 05-08-2008 13:14:03 24.6 C 32 % 6.82 C
654 05-08-2008 13:26:02 24.4 C 33 % 7.1 C
655 05-08-2008 13:38:02 25 C 32 % 7.17 C
656 05-08-2008 13:50:01 25.2 C 32 % 7.34 C
657 05-08-2008 14:02:02 25.9 C 31 % 7.49 C
658 05-08-2008 14:14:02 26.5 C 28 % 6.52 C
659 05-08-2008 14:26:02 26.9 C 26 % 5.79 C
660 05-08-2008 14:38:02 26.8 C 27 % 6.25 C
661 05-08-2008 14:50:01 27.5 C 25 % 5.73 C
662 05-08-2008 15:02:02 26.9 C 26 % 5.79 C
663 05-08-2008 15:14:02 26.7 C 26 % 5.62 C
664 05-08-2008 15:26:02 26.2 C 29 % 6.77 C
665 05-08-2008 15:38:01 25.8 C 30 % 6.92 C
666 05-08-2008 15:50:01 26.3 C 29 % 6.86 C
667 05-08-2008 16:02:02 26.6 C 28 % 6.61 C
668 05-08-2008 16:14:02 26.6 C 29 % 7.12 C
669 05-08-2008 16:26:01 27.6 C 27 % 6.93 C
670 05-08-2008 16:38:02 28.5 C 25 % 6.57 C
671 05-08-2008 16:50:02 28.6 C 25 % 6.66 C
672 05-08-2008 17:02:02 29.1 C 22 % 5.23 C
673 05-08-2008 17:14:02 29.6 C 22 % 5.64 C
674 05-08-2008 17:26:02 27.9 C 25 % 6.07 C
675 05-08-2008 17:38:02 27.2 C 26 % 6.04 C
Sensor: Nr:Datum:Temp:Feuchte:Taupunkt:
Aussen-T/F 676 05-08-2008 17:50:02 28.3 C 25 % 6.4 C
677 05-08-2008 18:02:02 28.8 C 23 % 5.62 C
678 05-08-2008 18:14:02 27.1 C 25 % 5.39 C
679 05-08-2008 18:26:02 26.7 C 30 % 7.7 C
680 05-08-2008 18:38:02 26.6 C 32 % 8.56 C
681 05-08-2008 18:50:02 26.2 C 32 % 8.21 C
682 05-08-2008 19:02:01 25.8 C 32 % 7.87 C
683 05-08-2008 19:14:01 25.9 C 33 % 8.4 C
684 05-08-2008 19:26:02 25.6 C 34 % 8.58 C
685 05-08-2008 19:38:01 25.1 C 36 % 8.99 C
686 05-08-2008 19:50:01 24.7 C 37 % 9.04 C
687 05-08-2008 20:02:02 24.7 C 37 % 9.04 C
688 05-08-2008 20:14:02 24.1 C 37 % 8.51 C
689 05-08-2008 20:26:02 23.5 C 39 % 8.76 C
690 05-08-2008 20:38:01 22.9 C 42 % 9.32 C
691 05-08-2008 20:50:02 22.4 C 42 % 8.87 C
692 05-08-2008 21:02:03 21.9 C 45 % 9.44 C
693 05-08-2008 21:14:03 21.5 C 46 % 9.4 C
694 05-08-2008 21:26:03 21.2 C 46 % 9.13 C
695 05-08-2008 21:38:02 21 C 46 % 8.95 C
696 05-08-2008 21:50:03 20.9 C 50 % 10.1 C
697 05-08-2008 22:02:02 21 C 49 % 9.89 C
698 05-08-2008 22:14:02 20.8 C 50 % 10 C
699 05-08-2008 22:26:03 20.6 C 51 % 10.12 C
700 05-08-2008 22:39:03 20.3 C 52 % 10.13 C
Sensor: Nr:Datum:Temp:Feuchte:Taupunkt:
Aussen-T/F 701 05-08-2008 22:51:03 20 C 51 % 9.56 C
702 05-08-2008 23:03:03 19.9 C 52 % 9.76 C
703 05-08-2008 23:15:03 19.5 C 53 % 9.67 C
704 05-08-2008 23:27:03 19.3 C 53 % 9.49 C
705 05-08-2008 23:39:03 19.2 C 55 % 9.95 C
706 05-08-2008 23:51:03 18.9 C 57 % 10.2 C
707 06-08-2008 00:03:04 18.9 C 57 % 10.2 C
708 06-08-2008 00:15:04 18.7 C 57 % 10.02 C
709 06-08-2008 00:27:04 18.7 C 58 % 10.28 C
710 06-08-2008 00:39:04 18.6 C 59 % 10.44 C
711 06-08-2008 00:51:04 18.4 C 59 % 10.25 C
712 06-08-2008 01:03:04 18.3 C 59 % 10.16 C
713 06-08-2008 01:15:04 18.1 C 61 % 10.47 C
714 06-08-2008 01:27:04 17.9 C 62 % 10.52 C
715 06-08-2008 01:39:04 17.9 C 63 % 10.76 C
716 06-08-2008 01:51:04 17.7 C 64 % 10.81 C
717 06-08-2008 02:03:04 17.6 C 64 % 10.72 C
718 06-08-2008 02:15:04 17.5 C 64 % 10.62 C
719 06-08-2008 02:27:04 17.4 C 64 % 10.53 C
720 06-08-2008 02:39:04 17.5 C 65 % 10.85 C
721 06-08-2008 02:51:04 17.6 C 64 % 10.72 C
722 06-08-2008 03:03:04 17.4 C 65 % 10.76 C
723 06-08-2008 03:15:04 17 C 65 % 10.38 C
724 06-08-2008 03:27:04 16.8 C 68 % 10.87 C
725 06-08-2008 03:39:04 16.7 C 69 % 10.99 C
Sensor: Nr:Datum:Temp:Feuchte:Taupunkt:
Aussen-T/F 726 06-08-2008 03:51:05 16.6 C 69 % 10.89 C
727 06-08-2008 04:03:05 16.6 C 69 % 10.89 C
728 06-08-2008 04:15:05 16.6 C 69 % 10.89 C
729 06-08-2008 04:27:05 16.4 C 70 % 10.92 C
730 06-08-2008 04:39:05 16.2 C 71 % 10.94 C
731 06-08-2008 04:51:05 16 C 72 % 10.96 C
732 06-08-2008 05:03:05 15.9 C 73 % 11.07 C
733 06-08-2008 05:15:05 15.7 C 73 % 10.88 C
734 06-08-2008 05:27:05 15.6 C 74 % 10.99 C
735 06-08-2008 05:39:05 15.4 C 74 % 10.79 C
736 06-08-2008 05:51:05 15.3 C 75 % 10.9 C
737 06-08-2008 06:03:05 15.2 C 75 % 10.8 C
738 06-08-2008 06:15:05 15.2 C 77 % 11.2 C
739 06-08-2008 06:27:05 15.1 C 77 % 11.1 C
740 06-08-2008 06:39:05 14.9 C 78 % 11.1 C
741 06-08-2008 06:51:02 14.9 C 78 % 11.1 C
742 06-08-2008 07:03:01 15.2 C 78 % 11.39 C
743 06-08-2008 07:15:02 15.3 C 78 % 11.49 C
744 06-08-2008 07:27:02 15.5 C 78 % 11.68 C
745 06-08-2008 07:39:01 15.6 C 77 % 11.59 C
746 06-08-2008 07:51:02 15.8 C 77 % 11.78 C
747 06-08-2008 08:03:01 15.9 C 76 % 11.68 C
748 06-08-2008 08:15:02 16.2 C 75 % 11.77 C
749 06-08-2008 08:27:02 16.4 C 74 % 11.76 C
750 06-08-2008 08:39:01 16.6 C 74 % 11.95 C
Sensor: Nr:Datum:Temp:Feuchte:Taupunkt:
Aussen-T/F 751 06-08-2008 08:51:01 16.9 C 72 % 11.82 C
752 06-08-2008 09:03:01 17.3 C 69 % 11.56 C
753 06-08-2008 09:15:02 17.8 C 69 % 12.04 C
754 06-08-2008 09:27:02 18.3 C 66 % 11.84 C
755 06-08-2008 09:39:01 18.9 C 66 % 12.41 C
756 06-08-2008 09:51:01 19.3 C 64 % 12.32 C
757 06-08-2008 10:03:01 20 C 61 % 12.26 C
758 06-08-2008 10:15:01 20.9 C 58 % 12.33 C
759 06-08-2008 10:27:01 21.7 C 53 % 11.71 C
760 06-08-2008 10:39:01 22.2 C 51 % 11.59 C
761 06-08-2008 10:51:01 23.2 C 48 % 11.59 C
762 06-08-2008 11:03:02 23.7 C 48 % 12.04 C
763 06-08-2008 11:15:01 24.3 C 43 % 10.93 C
764 06-08-2008 11:27:01 25.1 C 40 % 10.56 C
765 06-08-2008 11:39:02 25.8 C 39 % 10.8 C
766 06-08-2008 11:51:02 26.1 C 37 % 10.28 C
767 06-08-2008 12:03:02 26.9 C 37 % 10.99 C
768 06-08-2008 12:15:01 27.1 C 34 % 9.89 C
769 06-08-2008 12:27:01 27.6 C 34 % 10.33 C
770 06-08-2008 12:39:02 28.1 C 32 % 9.86 C
771 06-08-2008 12:51:02 27.8 C 32 % 9.6 C
772 06-08-2008 13:03:02 28.9 C 31 % 10.08 C
773 06-08-2008 13:15:02 30 C 27 % 8.97 C
774 06-08-2008 13:27:02 30.6 C 26 % 8.92 C
775 06-08-2008 13:39:02 30.6 C 25 % 8.34 C
Sensor: Nr:Datum:Temp:Feuchte:Taupunkt:
Aussen-T/F 776 06-08-2008 13:51:02 30.9 C 25 % 8.59 C
777 06-08-2008 14:03:01 31 C 25 % 8.67 C
778 06-08-2008 14:15:02 31.1 C 25 % 8.76 C
779 06-08-2008 14:27:02 30.7 C 27 % 9.56 C
780 06-08-2008 14:39:02 31.3 C 24 % 8.32 C
781 06-08-2008 14:51:02 31.5 C 23 % 7.87 C
782 06-08-2008 15:03:02 32.1 C 22 % 7.71 C
783 06-08-2008 15:15:02 32.3 C 20 % 6.49 C
784 06-08-2008 15:27:03 32 C 21 % 6.95 C
785 06-08-2008 15:39:02 32.5 C 20 % 6.65 C
786 06-08-2008 15:51:02 32.7 C 20 % 6.81 C
787 06-08-2008 16:03:02 33 C 20 % 7.06 C
788 06-08-2008 16:15:02 33.2 C 20 % 7.22 C
789 06-08-2008 16:27:02 33.5 C 20 % 7.47 C
790 06-08-2008 16:39:02 33.6 C 20 % 7.55 C
791 06-08-2008 16:51:02 33.7 C 20 % 7.63 C
792 06-08-2008 17:03:02 33.9 C 20 % 7.8 C
793 06-08-2008 17:15:02 33.9 C 20 % 7.8 C
794 06-08-2008 17:27:02 33.6 C 20 % 7.55 C
795 06-08-2008 17:39:02 33.7 C 20 % 7.63 C
796 06-08-2008 17:51:02 33.8 C 20 % 7.71 C
797 06-08-2008 18:03:02 34 C 20 % 7.88 C
798 06-08-2008 18:15:02 34.2 C 20 % 8.04 C
799 06-08-2008 18:27:02 33.9 C 20 % 7.8 C
800 06-08-2008 18:39:02 34 C 20 % 7.88 C
Sensor: Nr:Datum:Temp:Feuchte:Taupunkt:
Aussen-T/F 801 06-08-2008 18:51:02 33.9 C 20 % 7.8 C
802 06-08-2008 19:03:01 33.9 C 20 % 7.8 C
803 06-08-2008 19:15:02 33.3 C 20 % 7.3 C
804 06-08-2008 19:27:02 33.3 C 21 % 8.02 C
805 06-08-2008 19:39:02 32.7 C 21 % 7.53 C
806 06-08-2008 19:51:02 31.6 C 26 % 9.76 C
807 06-08-2008 20:03:02 30.6 C 30 % 11.05 C
808 06-08-2008 20:15:02 30.1 C 31 % 11.12 C
809 06-08-2008 20:27:03 29.5 C 32 % 11.07 C
810 06-08-2008 20:39:02 28.9 C 33 % 11.02 C
811 06-08-2008 20:51:02 28.4 C 34 % 11.03 C
812 06-08-2008 21:03:02 27.8 C 34 % 10.51 C
813 06-08-2008 21:15:03 27.3 C 35 % 10.5 C
814 06-08-2008 21:27:03 27 C 35 % 10.24 C
815 06-08-2008 21:39:02 26.7 C 36 % 10.4 C
816 06-08-2008 21:51:01 26.6 C 37 % 10.72 C
817 06-08-2008 22:03:01 26.6 C 36 % 10.31 C
818 06-08-2008 22:15:01 26.4 C 37 % 10.54 C
819 06-08-2008 22:27:01 26 C 39 % 10.98 C
820 06-08-2008 22:40:02 25.8 C 39 % 10.8 C
821 06-08-2008 22:52:02 25.6 C 39 % 10.62 C
822 06-08-2008 23:04:02 25.1 C 40 % 10.56 C
823 06-08-2008 23:16:02 24.8 C 43 % 11.38 C
824 06-08-2008 23:28:02 24.5 C 45 % 11.79 C
825 06-08-2008 23:40:02 24.1 C 45 % 11.43 C
Sensor: Nr:Datum:Temp:Feuchte:Taupunkt:
Aussen-T/F 826 06-08-2008 23:52:02 24 C 46 % 11.67 C
827 07-08-2008 00:04:02 23.7 C 46 % 11.4 C
828 07-08-2008 00:16:02 23.6 C 48 % 11.95 C
829 07-08-2008 00:28:02 23.3 C 49 % 11.99 C
830 07-08-2008 00:40:02 23 C 50 % 12.02 C
831 07-08-2008 00:52:02 22.7 C 52 % 12.34 C
832 07-08-2008 01:04:02 22.5 C 53 % 12.45 C
833 07-08-2008 01:16:02 22.3 C 54 % 12.55 C
834 07-08-2008 01:28:02 22.1 C 55 % 12.64 C
835 07-08-2008 01:40:02 21.9 C 57 % 13 C
836 07-08-2008 01:52:03 21.7 C 58 % 13.08 C
837 07-08-2008 02:04:03 21.4 C 59 % 13.06 C
838 07-08-2008 02:16:03 21.3 C 59 % 12.97 C
839 07-08-2008 02:28:03 21.1 C 60 % 13.04 C
840 07-08-2008 02:40:03 20.9 C 62 % 13.35 C
841 07-08-2008 02:52:03 20.7 C 63 % 13.41 C
842 07-08-2008 03:04:03 20.6 C 63 % 13.31 C
843 07-08-2008 03:16:03 20.4 C 63 % 13.12 C
844 07-08-2008 03:28:03 20.3 C 64 % 13.27 C
845 07-08-2008 03:40:03 20.3 C 64 % 13.27 C
846 07-08-2008 03:52:03 20.2 C 64 % 13.18 C
847 07-08-2008 04:04:03 19.9 C 66 % 13.36 C
848 07-08-2008 04:16:03 19.7 C 67 % 13.4 C
849 07-08-2008 04:28:03 19.6 C 67 % 13.31 C
850 07-08-2008 04:40:03 19.4 C 68 % 13.34 C
Sensor: Nr:Datum:Temp:Feuchte:Taupunkt:
Aussen-T/F 851 07-08-2008 04:52:03 19.3 C 69 % 13.47 C
852 07-08-2008 05:04:03 19.3 C 69 % 13.47 C
853 07-08-2008 05:16:03 19.1 C 70 % 13.5 C
854 07-08-2008 05:28:03 18.8 C 72 % 13.65 C
855 07-08-2008 05:40:03 18.8 C 72 % 13.65 C
856 07-08-2008 05:52:04 18.6 C 73 % 13.67 C
857 07-08-2008 06:04:04 18.6 C 73 % 13.67 C
858 07-08-2008 06:16:04 18.5 C 74 % 13.78 C
859 07-08-2008 06:28:04 18.4 C 74 % 13.68 C
860 07-08-2008 06:40:04 18.3 C 74 % 13.59 C
861 07-08-2008 06:52:04 18.5 C 75 % 13.99 C
862 07-08-2008 07:04:03 18.7 C 75 % 14.18 C
863 07-08-2008 07:16:02 18.8 C 74 % 14.07 C
864 07-08-2008 07:28:02 18.6 C 75 % 14.08 C
865 07-08-2008 07:40:02 18.8 C 75 % 14.28 C
866 07-08-2008 07:52:02 19.1 C 73 % 14.15 C
867 07-08-2008 08:04:02 19.2 C 73 % 14.25 C
868 07-08-2008 08:16:02 19.6 C 72 % 14.42 C
869 07-08-2008 08:28:02 19.9 C 71 % 14.49 C
870 07-08-2008 08:40:02 20.3 C 69 % 14.43 C
871 07-08-2008 08:52:02 20.9 C 68 % 14.77 C
872 07-08-2008 09:04:02 21.6 C 66 % 14.98 C
873 07-08-2008 09:16:02 22.5 C 63 % 15.11 C
874 07-08-2008 09:28:02 23 C 60 % 14.82 C
875 07-08-2008 09:40:02 23.7 C 59 % 15.21 C
Sensor: Nr:Datum:Temp:Feuchte:Taupunkt:
Aussen-T/F 876 07-08-2008 09:52:03 24.2 C 57 % 15.14 C
877 07-08-2008 10:04:02 24.7 C 54 % 14.77 C
878 07-08-2008 10:16:02 25.3 C 49 % 13.82 C
879 07-08-2008 10:28:02 26.2 C 46 % 13.67 C
880 07-08-2008 10:40:02 26.8 C 45 % 13.87 C
881 07-08-2008 10:52:02 27.2 C 43 % 13.54 C
882 07-08-2008 11:04:02 27.4 C 43 % 13.72 C
883 07-08-2008 11:16:02 28 C 42 % 13.89 C
884 07-08-2008 11:28:02 28.3 C 40 % 13.41 C
885 07-08-2008 11:40:02 28.3 C 41 % 13.79 C
886 07-08-2008 11:52:02 28.7 C 38 % 12.98 C
887 07-08-2008 12:04:02 29.1 C 37 % 12.93 C
888 07-08-2008 12:16:02 29.1 C 37 % 12.93 C
889 07-08-2008 12:28:02 28.7 C 38 % 12.98 C
890 07-08-2008 12:40:02 29.3 C 36 % 12.68 C
891 07-08-2008 12:52:02 29.9 C 35 % 12.78 C
892 07-08-2008 13:04:02 30.4 C 34 % 12.78 C
893 07-08-2008 13:16:02 30.6 C 32 % 12.03 C
894 07-08-2008 13:28:02 30.4 C 33 % 12.32 C
895 07-08-2008 13:40:02 29.6 C 34 % 12.08 C
896 07-08-2008 13:52:01 29.8 C 35 % 12.69 C
897 07-08-2008 14:04:02 29.4 C 36 % 12.77 C
898 07-08-2008 14:16:01 29.8 C 35 % 12.69 C
899 07-08-2008 14:28:01 28.8 C 37 % 12.66 C
900 07-08-2008 14:40:02 28.1 C 38 % 12.45 C
Sensor: Nr:Datum:Temp:Feuchte:Taupunkt:
Aussen-T/F 901 07-08-2008 14:52:02 28.4 C 38 % 12.72 C
902 07-08-2008 15:04:02 28 C 38 % 12.36 C
903 07-08-2008 15:16:02 28.2 C 39 % 12.93 C
904 07-08-2008 15:28:02 28.5 C 37 % 12.4 C
905 07-08-2008 15:40:02 29.2 C 34 % 11.73 C
906 07-08-2008 15:52:01 29.1 C 32 % 10.73 C
907 07-08-2008 16:04:02 29.3 C 33 % 11.37 C
908 07-08-2008 16:16:01 28.7 C 35 % 11.73 C
909 07-08-2008 16:28:01 29.3 C 33 % 11.37 C
910 07-08-2008 16:40:02 29.4 C 32 % 10.99 C
911 07-08-2008 16:52:02 30.4 C 30 % 10.88 C
912 07-08-2008 17:04:01 30.7 C 29 % 10.63 C
913 07-08-2008 17:16:02 30.1 C 29 % 10.12 C
914 07-08-2008 17:28:02 29.4 C 30 % 10.02 C
915 07-08-2008 17:40:01 29.4 C 30 % 10.02 C
916 07-08-2008 17:52:02 28.7 C 30 % 9.42 C
917 07-08-2008 18:04:01 30.1 C 28 % 9.59 C
918 07-08-2008 18:16:02 29.9 C 27 % 8.88 C
919 07-08-2008 18:28:03 28.8 C 30 % 9.51 C
920 07-08-2008 18:40:01 28.6 C 31 % 9.82 C
921 07-08-2008 18:52:02 28.5 C 31 % 9.73 C
922 07-08-2008 19:04:01 28.3 C 31 % 9.56 C
923 07-08-2008 19:16:02 27.7 C 32 % 9.51 C
924 07-08-2008 19:28:02 27.1 C 33 % 9.45 C
925 07-08-2008 19:40:01 26.9 C 35 % 10.15 C
Sensor: Nr:Datum:Temp:Feuchte:Taupunkt:
Aussen-T/F 926 07-08-2008 19:52:02 26.6 C 36 % 10.31 C
927 07-08-2008 20:04:02 26.7 C 36 % 10.4 C
928 07-08-2008 20:16:02 27.2 C 34 % 9.98 C
929 07-08-2008 20:28:02 26.1 C 36 % 9.87 C
930 07-08-2008 20:40:02 25.4 C 37 % 9.66 C
931 07-08-2008 20:52:02 24.8 C 37 % 9.13 C
932 07-08-2008 21:04:02 24.6 C 37 % 8.95 C
933 07-08-2008 21:16:02 24.3 C 38 % 9.08 C
934 07-08-2008 21:28:02 24 C 39 % 9.2 C
935 07-08-2008 21:40:02 23.7 C 41 % 9.68 C
936 07-08-2008 21:52:02 23.4 C 42 % 9.77 C
937 07-08-2008 22:04:02 23.3 C 42 % 9.68 C
938 07-08-2008 22:17:02 23.3 C 41 % 9.32 C
939 07-08-2008 22:29:02 23.1 C 40 % 8.77 C
940 07-08-2008 22:41:02 23 C 41 % 9.05 C
941 07-08-2008 22:53:02 20.4 C 61 % 12.63 C
942 07-08-2008 23:05:02 19.2 C 77 % 15.07 C
943 07-08-2008 23:17:02 18.5 C 81 % 15.18 C
944 07-08-2008 23:29:01 17.9 C 83 % 14.97 C
945 07-08-2008 23:41:01 17.8 C 85 % 15.25 C
946 07-08-2008 23:53:02 17.9 C 85 % 15.34 C
947 08-08-2008 00:05:02 18.2 C 84 % 15.45 C
948 08-08-2008 00:17:02 18.2 C 83 % 15.27 C
949 08-08-2008 00:29:02 17.9 C 83 % 14.97 C
950 08-08-2008 00:41:02 17.8 C 83 % 14.88 C
Sensor: Nr:Datum:Temp:Feuchte:Taupunkt:
Aussen-T/F 951 08-08-2008 00:53:03 17.7 C 83 % 14.78 C
952 08-08-2008 01:05:03 17.6 C 83 % 14.68 C
953 08-08-2008 01:17:03 17.6 C 83 % 14.68 C
954 08-08-2008 01:41:03 17.7 C 82 % 14.59 C
955 08-08-2008 01:53:03 17.7 C 82 % 14.59 C
956 08-08-2008 02:05:03 17.7 C 81 % 14.4 C
957 08-08-2008 02:29:03 17.8 C 82 % 14.69 C
958 08-08-2008 02:41:04 17.7 C 82 % 14.59 C
959 08-08-2008 02:53:04 17.7 C 82 % 14.59 C
960 08-08-2008 03:05:34 17.6 C 82 % 14.49 C
961 08-08-2008 03:17:34 17.7 C 82 % 14.59 C
962 08-08-2008 03:29:34 17.7 C 82 % 14.59 C
963 08-08-2008 03:41:04 17.7 C 82 % 14.59 C
964 08-08-2008 03:53:05 17.8 C 81 % 14.5 C
965 08-08-2008 04:05:05 18.1 C 78 % 14.21 C
966 08-08-2008 04:17:35 18 C 77 % 13.91 C
967 08-08-2008 04:29:35 17.9 C 77 % 13.81 C
968 08-08-2008 04:41:02 17.9 C 76 % 13.61 C
969 08-08-2008 04:53:02 17.7 C 76 % 13.42 C
970 08-08-2008 05:05:02 17.7 C 76 % 13.42 C
971 08-08-2008 05:17:02 17.7 C 76 % 13.42 C
972 08-08-2008 05:29:01 17.6 C 77 % 13.52 C
973 08-08-2008 05:41:01 17.7 C 76 % 13.42 C
974 08-08-2008 05:53:02 17.7 C 75 % 13.22 C
975 08-08-2008 06:05:02 17.6 C 75 % 13.12 C
Sensor: Nr:Datum:Temp:Feuchte:Taupunkt:
Aussen-T/F 976 08-08-2008 06:17:02 17.7 C 74 % 13.01 C
977 08-08-2008 06:29:02 17.8 C 74 % 13.11 C
978 08-08-2008 06:41:02 17.7 C 76 % 13.42 C
979 08-08-2008 06:53:33 17.1 C 80 % 13.62 C
980 08-08-2008 07:05:33 17.2 C 80 % 13.72 C
981 08-08-2008 07:17:33 17.7 C 77 % 13.62 C
982 08-08-2008 07:29:33 18 C 73 % 13.09 C
983 08-08-2008 07:41:33 17.7 C 74 % 13.01 C
984 08-08-2008 07:53:33 16.6 C 83 % 13.7 C
985 08-08-2008 08:17:34 16.3 C 86 % 13.95 C
986 08-08-2008 08:29:34 16.6 C 87 % 14.43 C
987 08-08-2008 08:41:34 16.9 C 86 % 14.54 C
988 08-08-2008 09:05:34 17 C 81 % 13.72 C
989 08-08-2008 09:17:34 17 C 82 % 13.91 C
990 08-08-2008 09:29:34 16.8 C 83 % 13.9 C
991 08-08-2008 09:41:03 17.2 C 83 % 14.29 C
992 08-08-2008 09:53:03 17.5 C 81 % 14.2 C
993 08-08-2008 10:05:03 17.7 C 79 % 14.01 C
994 08-08-2008 10:17:02 17.7 C 77 % 13.62 C
995 08-08-2008 10:29:02 17.8 C 78 % 13.91 C
996 08-08-2008 10:41:02 18.2 C 76 % 13.9 C
997 08-08-2008 10:53:02 18.5 C 73 % 13.57 C
998 08-08-2008 11:05:02 18.8 C 73 % 13.86 C
999 08-08-2008 11:17:03 19.4 C 71 % 14.01 C
1000 08-08-2008 11:29:03 20.3 C 67 % 13.97 C
Sensor: Nr:Datum:Temp:Feuchte:Taupunkt:
Aussen-T/F 1001 08-08-2008 11:41:02 20.9 C 63 % 13.6 C
1002 08-08-2008 11:53:02 21.9 C 57 % 13 C
1003 08-08-2008 12:05:02 21.7 C 56 % 12.54 C
1004 08-08-2008 12:17:03 21.4 C 58 % 12.8 C
1005 08-08-2008 12:29:03 21.7 C 58 % 13.08 C
1006 08-08-2008 12:41:02 16.9 C 74 % 12.24 C
1007 08-08-2008 12:53:02 16 C 84 % 13.3 C
1008 08-08-2008 13:05:02 17.8 C 87 % 15.61 C
1009 08-08-2008 13:17:02 19.2 C 84 % 16.43 C
1010 08-08-2008 13:29:02 20.9 C 72 % 15.66 C
1011 08-08-2008 13:41:02 21.8 C 64 % 14.69 C
1012 08-08-2008 13:53:01 20.8 C 72 % 15.57 C
1013 08-08-2008 14:05:02 20.4 C 75 % 15.82 C
1014 08-08-2008 14:17:02 20.3 C 80 % 16.74 C
1015 08-08-2008 14:29:02 21.1 C 75 % 16.5 C
1016 08-08-2008 14:41:02 22 C 71 % 16.5 C
1017 08-08-2008 14:53:02 22.7 C 63 % 15.3 C
1018 08-08-2008 15:05:02 21.7 C 63 % 14.35 C
1019 08-08-2008 15:17:02 19.2 C 71 % 13.82 C
1020 08-08-2008 15:29:03 20 C 75 % 15.43 C
1021 08-08-2008 15:41:03 21.9 C 61 % 14.04 C
1022 08-08-2008 15:53:03 22.1 C 59 % 13.72 C
1023 08-08-2008 16:05:03 21.1 C 52 % 10.87 C
1024 08-08-2008 16:17:02 21.1 C 54 % 11.44 C
1025 08-08-2008 16:29:02 22.7 C 48 % 11.13 C
Sensor: Nr:Datum:Temp:Feuchte:Taupunkt:
Aussen-T/F 1026 08-08-2008 16:41:02 22.1 C 47 % 10.27 C
1027 08-08-2008 16:53:01 21.6 C 50 % 10.74 C
1028 08-08-2008 17:05:01 21.8 C 48 % 10.31 C
1029 08-08-2008 17:17:01 21.8 C 49 % 10.62 C
1030 08-08-2008 17:29:01 21.4 C 49 % 10.25 C
1031 08-08-2008 17:41:01 19.7 C 58 % 11.21 C
1032 08-08-2008 17:53:02 18.7 C 69 % 12.9 C
1033 08-08-2008 18:05:02 18.9 C 72 % 13.74 C
1034 08-08-2008 18:17:02 19.5 C 67 % 13.21 C
1035 08-08-2008 18:29:02 19.5 C 64 % 12.51 C
1036 08-08-2008 18:41:02 19.4 C 63 % 12.18 C
1037 08-08-2008 18:53:28 19.3 C 62 % 11.84 C
1038 08-08-2008 19:05:02 19.4 C 62 % 11.94 C
1039 08-08-2008 19:17:03 19.4 C 62 % 11.94 C
1040 08-08-2008 19:29:03 19.3 C 62 % 11.84 C
1041 08-08-2008 19:41:03 19.3 C 61 % 11.6 C
1042 08-08-2008 19:53:02 19.3 C 61 % 11.6 C
1043 08-08-2008 20:05:03 19 C 63 % 11.8 C
1044 08-08-2008 20:17:02 17.8 C 73 % 12.9 C
1045 08-08-2008 20:29:02 17.5 C 75 % 13.02 C
1046 08-08-2008 20:41:03 16.8 C 81 % 13.52 C
1047 08-08-2008 20:53:02 16.5 C 84 % 13.79 C
1048 08-08-2008 21:05:02 16.4 C 86 % 14.05 C
1049 08-08-2008 21:17:02 16.3 C 87 % 14.13 C
1050 08-08-2008 21:29:01 16.3 C 88 % 14.31 C
Sensor: Nr:Datum:Temp:Feuchte:Taupunkt:
Aussen-T/F 1051 08-08-2008 21:41:01 16.5 C 87 % 14.33 C
1052 08-08-2008 21:54:01 16.6 C 86 % 14.25 C
1053 08-08-2008 22:06:01 16.7 C 85 % 14.17 C
1054 08-08-2008 22:18:01 16.7 C 84 % 13.98 C
1055 08-08-2008 22:30:01 16.8 C 83 % 13.9 C
1056 08-08-2008 22:42:01 16.4 C 83 % 13.51 C
1057 08-08-2008 22:54:01 16.1 C 87 % 13.94 C
1058 08-08-2008 23:06:01 16 C 88 % 14.01 C
1059 08-08-2008 23:18:01 16 C 89 % 14.19 C
1060 08-08-2008 23:30:02 16.1 C 90 % 14.46 C
1061 08-08-2008 23:42:02 16.2 C 90 % 14.56 C
1062 08-08-2008 23:54:02 16.1 C 89 % 14.29 C
1063 09-08-2008 00:06:02 16 C 88 % 14.01 C
1064 09-08-2008 00:18:02 16.1 C 88 % 14.11 C
1065 09-08-2008 00:30:02 16.2 C 87 % 14.03 C
1066 09-08-2008 00:42:02 16.2 C 86 % 13.86 C
1067 09-08-2008 00:54:02 16.1 C 85 % 13.58 C
1068 09-08-2008 01:06:02 15.9 C 85 % 13.38 C
1069 09-08-2008 01:18:02 15.7 C 85 % 13.19 C
1070 09-08-2008 01:30:02 15.4 C 86 % 13.07 C
1071 09-08-2008 01:42:02 15.1 C 86 % 12.78 C
1072 09-08-2008 01:54:02 14.9 C 88 % 12.93 C
1073 09-08-2008 02:06:02 14.9 C 88 % 12.93 C
1074 09-08-2008 02:18:02 14.7 C 88 % 12.73 C
1075 09-08-2008 02:30:02 14.5 C 88 % 12.54 C
Sensor: Nr:Datum:Temp:Feuchte:Taupunkt:
Aussen-T/F 1076 09-08-2008 02:42:02 14.5 C 88 % 12.54 C
1077 09-08-2008 02:54:02 14.4 C 88 % 12.44 C
1078 09-08-2008 03:06:02 14.4 C 88 % 12.44 C
1079 09-08-2008 03:18:03 14.5 C 86 % 12.19 C
1080 09-08-2008 03:30:03 14.5 C 83 % 11.65 C
1081 09-08-2008 03:42:03 14.4 C 83 % 11.55 C
1082 09-08-2008 03:54:03 14.4 C 83 % 11.55 C
1083 09-08-2008 04:06:03 14.5 C 84 % 11.83 C
1084 09-08-2008 04:18:03 14.5 C 84 % 11.83 C
1085 09-08-2008 04:30:03 14.5 C 85 % 12.01 C
1086 09-08-2008 04:42:03 14.6 C 85 % 12.11 C
1087 09-08-2008 04:54:03 14.6 C 85 % 12.11 C
1088 09-08-2008 05:06:03 14.7 C 84 % 12.03 C
1089 09-08-2008 05:18:03 14.6 C 84 % 11.93 C
1090 09-08-2008 05:30:03 14.6 C 84 % 11.93 C
1091 09-08-2008 05:42:03 14.6 C 83 % 11.75 C
1092 09-08-2008 05:54:03 14.7 C 81 % 11.48 C
1093 09-08-2008 06:06:03 14.7 C 80 % 11.29 C
1094 09-08-2008 06:18:03 14.9 C 77 % 10.91 C
1095 09-08-2008 06:30:03 14.9 C 76 % 10.71 C
1096 09-08-2008 06:42:03 14.9 C 76 % 10.71 C
1097 09-08-2008 06:54:03 15 C 77 % 11 C
1098 09-08-2008 07:06:03 15 C 76 % 10.81 C
1099 09-08-2008 07:18:04 14.9 C 74 % 10.31 C
1100 09-08-2008 07:30:04 14.8 C 74 % 10.22 C
Sensor: Nr:Datum:Temp:Feuchte:Taupunkt:
Aussen-T/F 1101 09-08-2008 07:42:04 15 C 73 % 10.2 C
1102 09-08-2008 07:54:04 15.1 C 72 % 10.09 C
1103 09-08-2008 08:06:02 14.7 C 73 % 9.92 C
1104 09-08-2008 08:18:02 14.7 C 75 % 10.32 C
1105 09-08-2008 08:30:02 15.1 C 73 % 10.3 C
1106 09-08-2008 08:42:01 15.7 C 68 % 9.82 C
1107 09-08-2008 08:54:02 16.2 C 68 % 10.29 C
1108 09-08-2008 09:06:02 16.3 C 65 % 9.71 C
1109 09-08-2008 09:18:02 16.3 C 68 % 10.39 C
1110 09-08-2008 09:30:02 16.8 C 68 % 10.87 C
1111 09-08-2008 09:42:02 17.1 C 63 % 10.01 C
1112 09-08-2008 09:54:02 16.6 C 64 % 9.77 C
1113 09-08-2008 10:06:02 17.6 C 59 % 9.5 C
1114 09-08-2008 10:18:01 17.9 C 53 % 8.19 C
1115 09-08-2008 10:30:01 18.1 C 50 % 7.52 C
1116 09-08-2008 10:42:02 18.5 C 50 % 7.89 C
1117 09-08-2008 10:54:02 18.6 C 43 % 5.79 C
1118 09-08-2008 11:06:02 19 C 47 % 7.44 C
1119 09-08-2008 11:18:02 20.2 C 38 % 5.44 C
1120 09-08-2008 11:30:02 19.9 C 42 % 6.62 C
1121 09-08-2008 11:42:02 20.4 C 38 % 5.62 C
1122 09-08-2008 11:54:02 20.7 C 36 % 5.11 C
1123 09-08-2008 12:06:01 20.9 C 34 % 4.47 C
1124 09-08-2008 12:18:02 21.9 C 32 % 4.48 C
1125 09-08-2008 12:30:02 22.5 C 31 % 4.54 C
Sensor: Nr:Datum:Temp:Feuchte:Taupunkt:
Aussen-T/F 1126 09-08-2008 12:42:01 21.5 C 32 % 4.13 C
1127 09-08-2008 12:54:02 22.3 C 29 % 3.42 C
1128 09-08-2008 13:06:01 22.4 C 28 % 3.01 C
1129 09-08-2008 13:18:02 23.1 C 26 % 2.57 C
1130 09-08-2008 13:30:02 23.5 C 25 % 2.36 C
1131 09-08-2008 13:42:01 23.5 C 26 % 2.91 C
1132 09-08-2008 13:54:03 22.9 C 25 % 1.85 C
1133 09-08-2008 14:06:02 23.2 C 27 % 3.18 C
1134 09-08-2008 14:18:03 23 C 26 % 2.48 C
1135 09-08-2008 14:30:03 23.2 C 25 % 2.1 C
1136 09-08-2008 14:42:02 24.4 C 25 % 3.12 C
1137 09-08-2008 14:54:02 25.2 C 22 % 1.99 C
1138 09-08-2008 15:06:03 24.3 C 25 % 3.03 C
1139 09-08-2008 15:18:03 24.9 C 25 % 3.54 C
1140 09-08-2008 15:30:03 25.6 C 23 % 2.95 C
1141 09-08-2008 15:42:03 26.1 C 23 % 3.37 C
1142 09-08-2008 15:54:02 26.1 C 22 % 2.74 C
1143 09-08-2008 16:06:03 25.9 C 22 % 2.57 C
1144 09-08-2008 16:18:02 25.9 C 25 % 4.38 C
1145 09-08-2008 16:30:02 25.4 C 24 % 3.38 C
1146 09-08-2008 16:42:03 24.8 C 26 % 4.01 C
1147 09-08-2008 16:54:03 24.8 C 26 % 4.01 C
1148 09-08-2008 17:06:02 26.3 C 24 % 4.14 C
1149 09-08-2008 17:18:02 26.4 C 22 % 2.99 C
1150 09-08-2008 17:30:02 25.4 C 25 % 3.96 C
Sensor: Nr:Datum:Temp:Feuchte:Taupunkt:
Aussen-T/F 1151 09-08-2008 17:42:02 24.9 C 26 % 4.09 C
1152 09-08-2008 17:54:01 26 C 25 % 4.47 C
1153 09-08-2008 18:06:02 26.2 C 25 % 4.63 C
1154 09-08-2008 18:18:01 25.2 C 26 % 4.35 C
1155 09-08-2008 18:30:01 25 C 27 % 4.72 C
1156 09-08-2008 18:42:02 25.9 C 26 % 4.94 C
1157 09-08-2008 18:54:01 25.8 C 28 % 5.92 C
1158 09-08-2008 19:06:02 25.3 C 29 % 6 C
1159 09-08-2008 19:18:02 24.9 C 31 % 6.62 C
1160 09-08-2008 19:30:02 23.9 C 33 % 6.66 C
1161 09-08-2008 19:42:01 23.8 C 33 % 6.57 C
1162 09-08-2008 19:54:01 23.3 C 35 % 6.99 C
1163 09-08-2008 20:06:02 22.9 C 37 % 7.45 C
1164 09-08-2008 20:18:01 22.3 C 39 % 7.69 C
1165 09-08-2008 20:30:01 21.6 C 41 % 7.79 C
1166 09-08-2008 20:42:02 21 C 42 % 7.61 C
1167 09-08-2008 20:54:02 20.7 C 45 % 8.35 C
1168 09-08-2008 21:06:02 20 C 46 % 8.04 C
1169 09-08-2008 21:18:02 19.9 C 48 % 8.57 C
1170 09-08-2008 21:30:02 19.8 C 48 % 8.48 C
1171 09-08-2008 21:42:02 19.6 C 49 % 8.6 C
1172 09-08-2008 21:54:02 19.5 C 50 % 8.81 C
1173 09-08-2008 22:06:01 19.3 C 52 % 9.21 C
1174 09-08-2008 22:18:02 19 C 54 % 9.49 C
1175 09-08-2008 22:30:02 19 C 54 % 9.49 C
Sensor: Nr:Datum:Temp:Feuchte:Taupunkt:
Aussen-T/F 1176 09-08-2008 22:42:01 18.9 C 57 % 10.2 C
1177 09-08-2008 22:54:02 18.9 C 57 % 10.2 C
1178 09-08-2008 23:06:01 18.8 C 58 % 10.37 C
1179 09-08-2008 23:18:02 18.7 C 57 % 10.02 C
1180 09-08-2008 23:30:02 18.4 C 59 % 10.25 C
1181 09-08-2008 23:43:02 18.2 C 60 % 10.31 C
1182 09-08-2008 23:55:02 18 C 61 % 10.37 C
1183 10-08-2008 00:07:02 17.8 C 63 % 10.67 C
1184 10-08-2008 00:19:02 17.7 C 63 % 10.57 C
1185 10-08-2008 00:31:02 17.7 C 63 % 10.57 C
1186 10-08-2008 00:43:02 17.9 C 64 % 11 C
1187 10-08-2008 00:55:02 17.9 C 64 % 11 C
1188 10-08-2008 01:07:02 18 C 63 % 10.86 C
1189 10-08-2008 01:19:02 18.1 C 63 % 10.95 C
1190 10-08-2008 01:31:02 17.9 C 64 % 11 C
1191 10-08-2008 01:43:02 17.9 C 65 % 11.23 C
1192 10-08-2008 01:55:02 18 C 64 % 11.09 C
1193 10-08-2008 02:07:02 17.9 C 66 % 11.46 C
1194 10-08-2008 02:19:02 17.7 C 67 % 11.5 C
1195 10-08-2008 02:31:02 18 C 66 % 11.56 C
1196 10-08-2008 02:43:02 18.1 C 63 % 10.95 C
1197 10-08-2008 02:55:02 18.3 C 63 % 11.14 C
1198 10-08-2008 03:07:02 18.3 C 62 % 10.9 C
1199 10-08-2008 03:19:03 18.2 C 63 % 11.05 C
1200 10-08-2008 03:31:03 18.2 C 63 % 11.05 C
Sensor: Nr:Datum:Temp:Feuchte:Taupunkt:
Aussen-T/F 1201 10-08-2008 03:43:03 18.2 C 62 % 10.81 C
1202 10-08-2008 03:55:03 17.7 C 67 % 11.5 C
1203 10-08-2008 04:07:03 17.6 C 68 % 11.63 C
1204 10-08-2008 04:19:03 18 C 63 % 10.86 C
1205 10-08-2008 04:31:03 17.9 C 64 % 11 C
1206 10-08-2008 04:43:03 18 C 63 % 10.86 C
1207 10-08-2008 04:55:03 18 C 63 % 10.86 C
1208 10-08-2008 05:07:03 18 C 63 % 10.86 C
1209 10-08-2008 05:19:03 17.9 C 62 % 10.52 C
1210 10-08-2008 05:31:03 17.9 C 62 % 10.52 C
1211 10-08-2008 05:43:03 17.9 C 62 % 10.52 C
1212 10-08-2008 05:55:03 18.2 C 60 % 10.31 C
1213 10-08-2008 06:07:03 18.2 C 60 % 10.31 C
1214 10-08-2008 06:19:03 18.2 C 59 % 10.06 C
1215 10-08-2008 06:31:03 18.1 C 60 % 10.22 C
1216 10-08-2008 06:43:03 17.5 C 67 % 11.31 C
1217 10-08-2008 06:55:03 17.7 C 68 % 11.72 C
1218 10-08-2008 07:07:04 17.9 C 66 % 11.46 C
1219 10-08-2008 07:19:04 18.1 C 64 % 11.19 C
1220 10-08-2008 07:31:04 18.1 C 64 % 11.19 C
1221 10-08-2008 07:43:04 18.4 C 62 % 10.99 C
1222 10-08-2008 07:55:04 18.8 C 60 % 10.88 C
1223 10-08-2008 08:07:04 19.2 C 55 % 9.95 C
1224 10-08-2008 08:19:04 19.4 C 54 % 9.86 C
1225 10-08-2008 08:31:04 19.5 C 54 % 9.95 C
Sensor: Nr:Datum:Temp:Feuchte:Taupunkt:
Aussen-T/F 1226 10-08-2008 08:43:04 19.7 C 53 % 9.86 C
1227 10-08-2008 08:55:04 19.9 C 52 % 9.76 C
1228 10-08-2008 09:07:02 19.9 C 53 % 10.04 C
1229 10-08-2008 09:19:02 20.2 C 52 % 10.04 C
1230 10-08-2008 09:31:02 20.2 C 51 % 9.75 C
1231 10-08-2008 09:43:02 20.3 C 51 % 9.84 C
1232 10-08-2008 09:55:02 20.1 C 52 % 9.94 C
1233 10-08-2008 10:07:02 20 C 53 % 10.14 C
1234 10-08-2008 10:19:02 19.9 C 57 % 11.14 C
1235 10-08-2008 10:31:02 19.5 C 59 % 11.28 C
1236 10-08-2008 10:43:02 19.6 C 60 % 11.63 C
1237 10-08-2008 10:55:02 20 C 58 % 11.49 C
1238 10-08-2008 11:07:02 20 C 56 % 10.96 C
1239 10-08-2008 11:19:02 19 C 63 % 11.8 C
1240 10-08-2008 11:31:02 18.8 C 67 % 12.55 C
1241 10-08-2008 11:43:02 18.5 C 66 % 12.03 C
1242 10-08-2008 11:58:02 19.3 C 61 % 11.6 C
1243 10-08-2008 12:10:01 19.6 C 59 % 11.37 C
1244 10-08-2008 12:22:02 20 C 56 % 10.96 C
1245 10-08-2008 12:34:01 20.7 C 55 % 11.34 C
1246 10-08-2008 12:46:02 20.9 C 51 % 10.39 C
1247 10-08-2008 12:58:02 21.2 C 50 % 10.37 C
1248 10-08-2008 13:10:02 21.5 C 47 % 9.72 C
1249 10-08-2008 13:22:02 21.1 C 49 % 9.98 C
1250 10-08-2008 13:34:02 21.5 C 48 % 10.04 C
Sensor: Nr:Datum:Temp:Feuchte:Taupunkt:
Aussen-T/F 1251 10-08-2008 13:46:02 22.3 C 43 % 9.13 C
1252 10-08-2008 13:58:02 22.8 C 41 % 8.87 C
1253 10-08-2008 14:10:02 22.6 C 41 % 8.69 C
1254 10-08-2008 14:22:02 22.4 C 41 % 8.51 C
1255 10-08-2008 14:34:02 21.6 C 47 % 9.81 C
1256 10-08-2008 14:46:02 20.7 C 53 % 10.78 C
1257 10-08-2008 14:58:02 21.5 C 54 % 11.81 C
1258 10-08-2008 15:10:01 22.6 C 46 % 10.4 C
1259 10-08-2008 15:22:02 22.7 C 47 % 10.81 C
1260 10-08-2008 15:34:01 22.6 C 49 % 11.35 C
1261 10-08-2008 15:46:02 22.2 C 45 % 9.71 C
1262 10-08-2008 15:58:02 22.6 C 41 % 8.69 C
1263 10-08-2008 16:10:02 23.2 C 39 % 8.49 C
1264 10-08-2008 16:22:02 24.5 C 36 % 8.46 C
1265 10-08-2008 16:34:02 24 C 35 % 7.61 C
1266 10-08-2008 16:46:02 23.8 C 36 % 7.84 C
1267 10-08-2008 16:58:02 24 C 34 % 7.18 C
1268 10-08-2008 17:10:02 23.8 C 36 % 7.84 C
1269 10-08-2008 17:22:02 23.9 C 36 % 7.93 C
1270 10-08-2008 17:34:01 24 C 34 % 7.18 C
1271 10-08-2008 17:46:02 23.8 C 35 % 7.43 C
1272 10-08-2008 17:58:02 23.7 C 37 % 8.16 C
1273 10-08-2008 18:10:02 23.5 C 36 % 7.58 C
1274 10-08-2008 18:22:01 23.7 C 37 % 8.16 C
1275 10-08-2008 18:34:03 23.9 C 36 % 7.93 C
Sensor: Nr:Datum:Temp:Feuchte:Taupunkt:
Aussen-T/F 1276 10-08-2008 18:46:03 23.6 C 37 % 8.07 C
1277 10-08-2008 18:58:03 23.3 C 40 % 8.95 C
1278 10-08-2008 19:10:02 23.3 C 40 % 8.95 C
1279 10-08-2008 19:22:03 22.9 C 42 % 9.32 C
1280 10-08-2008 19:34:02 22.5 C 42 % 8.96 C
1281 10-08-2008 19:46:02 22.2 C 43 % 9.04 C
1282 10-08-2008 19:58:02 21.9 C 47 % 10.09 C
1283 10-08-2008 20:10:02 21.7 C 47 % 9.9 C
1284 10-08-2008 20:22:02 21.3 C 49 % 10.16 C
1285 10-08-2008 20:34:02 21 C 49 % 9.89 C
1286 10-08-2008 20:46:02 21 C 50 % 10.19 C
1287 10-08-2008 20:58:02 20.8 C 52 % 10.59 C
1288 10-08-2008 21:10:03 20.6 C 52 % 10.41 C
1289 10-08-2008 21:22:02 20.6 C 52 % 10.41 C
1290 10-08-2008 21:34:03 20.4 C 54 % 10.79 C
1291 10-08-2008 21:46:02 20.2 C 54 % 10.6 C
1292 10-08-2008 21:58:03 20 C 55 % 10.69 C
1293 10-08-2008 22:10:01 19.6 C 58 % 11.12 C
1294 10-08-2008 22:23:02 19.4 C 59 % 11.19 C
1295 10-08-2008 22:35:02 19.1 C 60 % 11.16 C
1296 10-08-2008 22:47:02 19.1 C 61 % 11.41 C
1297 10-08-2008 22:59:02 19 C 60 % 11.07 C
1298 10-08-2008 23:11:02 18.8 C 61 % 11.13 C
1299 10-08-2008 23:23:02 18.7 C 61 % 11.03 C
1300 10-08-2008 23:35:03 18.5 C 61 % 10.84 C
Sensor: Nr:Datum:Temp:Feuchte:Taupunkt:
Aussen-T/F 1301 10-08-2008 23:47:03 18.4 C 60 % 10.5 C
1302 10-08-2008 23:59:03 18.3 C 58 % 9.9 C
1303 11-08-2008 00:11:03 18.1 C 59 % 9.97 C
1304 11-08-2008 00:23:03 18.1 C 60 % 10.22 C
1305 11-08-2008 00:35:03 18.1 C 60 % 10.22 C
1306 11-08-2008 00:47:03 18.1 C 60 % 10.22 C
1307 11-08-2008 00:59:03 18.2 C 60 % 10.31 C
1308 11-08-2008 01:11:03 18.4 C 59 % 10.25 C
1309 11-08-2008 01:23:03 18.6 C 59 % 10.44 C
1310 11-08-2008 01:35:03 18.7 C 59 % 10.53 C
1311 11-08-2008 01:47:03 18.5 C 61 % 10.84 C
1312 11-08-2008 01:59:03 18.3 C 62 % 10.9 C
1313 11-08-2008 02:11:03 18 C 63 % 10.86 C
1314 11-08-2008 02:23:03 17.6 C 66 % 11.18 C
1315 11-08-2008 02:35:03 17.3 C 68 % 11.34 C
1316 11-08-2008 02:47:03 17.4 C 69 % 11.66 C
1317 11-08-2008 02:59:03 17.5 C 70 % 11.97 C
1318 11-08-2008 03:11:03 17.5 C 71 % 12.19 C
1319 11-08-2008 03:23:03 17.5 C 71 % 12.19 C
1320 11-08-2008 03:35:04 17.7 C 70 % 12.16 C
1321 11-08-2008 03:47:04 17.7 C 70 % 12.16 C
1322 11-08-2008 03:59:04 17.5 C 70 % 11.97 C
1323 11-08-2008 04:11:04 17.4 C 70 % 11.88 C
1324 11-08-2008 04:23:04 17.1 C 70 % 11.59 C
1325 11-08-2008 04:35:04 16.8 C 71 % 11.52 C
Sensor: Nr:Datum:Temp:Feuchte:Taupunkt:
Aussen-T/F 1326 11-08-2008 04:47:04 16.6 C 71 % 11.32 C
1327 11-08-2008 04:59:04 16 C 71 % 10.75 C
1328 11-08-2008 05:11:04 15.7 C 72 % 10.67 C
1329 11-08-2008 05:23:04 15.6 C 73 % 10.78 C
1330 11-08-2008 05:35:04 15.9 C 71 % 10.65 C
1331 11-08-2008 05:47:04 15.8 C 72 % 10.77 C
1332 11-08-2008 05:59:04 15.4 C 73 % 10.59 C
1333 11-08-2008 06:11:02 15.1 C 75 % 10.71 C
1334 11-08-2008 06:23:02 14.8 C 78 % 11 C
1335 11-08-2008 06:35:02 15 C 79 % 11.39 C
1336 11-08-2008 06:47:02 15.2 C 78 % 11.39 C
1337 11-08-2008 06:59:02 15 C 78 % 11.2 C
1338 11-08-2008 07:11:02 14.9 C 80 % 11.48 C
1339 11-08-2008 07:23:02 14.9 C 80 % 11.48 C
1340 11-08-2008 07:35:02 15 C 80 % 11.58 C
1341 11-08-2008 07:47:02 15.4 C 80 % 11.97 C
1342 11-08-2008 07:59:02 15.6 C 78 % 11.78 C
1343 11-08-2008 08:11:01 15.5 C 78 % 11.68 C
1344 11-08-2008 08:23:02 15.9 C 78 % 12.07 C
1345 11-08-2008 08:35:01 16.3 C 75 % 11.86 C
1346 11-08-2008 08:47:02 16.7 C 73 % 11.84 C
1347 11-08-2008 08:59:02 17.5 C 68 % 11.53 C
1348 11-08-2008 09:11:01 18.2 C 67 % 11.98 C
1349 11-08-2008 09:23:02 19.1 C 62 % 11.65 C
1350 11-08-2008 09:35:02 19.6 C 60 % 11.63 C
Sensor: Nr:Datum:Temp:Feuchte:Taupunkt:
Aussen-T/F 1351 11-08-2008 09:47:02 20.2 C 57 % 11.42 C
1352 11-08-2008 09:59:03 20.8 C 54 % 11.16 C
1353 11-08-2008 10:11:02 20.9 C 52 % 10.68 C
1354 11-08-2008 10:23:02 21 C 52 % 10.78 C
1355 11-08-2008 10:35:01 21.3 C 51 % 10.76 C
1356 11-08-2008 10:47:02 21.6 C 46 % 9.49 C
1357 11-08-2008 10:59:02 21.9 C 42 % 8.42 C
1358 11-08-2008 11:11:01 22.4 C 41 % 8.51 C
1359 11-08-2008 11:23:02 22.5 C 40 % 8.24 C
1360 11-08-2008 11:35:01 22.1 C 42 % 8.6 C
1361 11-08-2008 11:47:01 22.6 C 44 % 9.74 C
1362 11-08-2008 11:59:01 22 C 45 % 9.53 C
1363 11-08-2008 12:11:02 22.7 C 42 % 9.14 C
1364 11-08-2008 12:23:01 23.4 C 40 % 9.04 C
1365 11-08-2008 12:35:02 23.7 C 37 % 8.16 C
1366 11-08-2008 12:47:02 24.2 C 33 % 6.92 C
1367 11-08-2008 12:59:02 24.1 C 32 % 6.39 C
1368 11-08-2008 13:11:03 25.2 C 31 % 6.88 C
1369 11-08-2008 13:23:02 25.9 C 28 % 6.01 C
1370 11-08-2008 13:35:02 26 C 26 % 5.03 C
1371 11-08-2008 13:47:02 25.8 C 27 % 5.4 C
1372 11-08-2008 13:59:02 26.4 C 25 % 4.8 C
1373 11-08-2008 14:11:02 26.2 C 24 % 4.05 C
1374 11-08-2008 14:23:02 26.5 C 25 % 4.89 C
1375 11-08-2008 14:35:02 27.1 C 25 % 5.39 C
Sensor: Nr:Datum:Temp:Feuchte:Taupunkt:
Aussen-T/F 1376 11-08-2008 14:47:01 27.2 C 24 % 4.89 C
1377 11-08-2008 14:59:01 27 C 22 % 3.49 C
1378 11-08-2008 15:11:02 27.8 C 25 % 5.98 C
1379 11-08-2008 15:23:01 27.4 C 20 % 2.47 C
1380 11-08-2008 15:35:02 26.7 C 21 % 2.58 C
1381 11-08-2008 15:47:02 26.7 C 23 % 3.87 C
1382 11-08-2008 15:59:02 26.8 C 23 % 3.95 C
1383 11-08-2008 16:11:01 26.8 C 23 % 3.95 C
1384 11-08-2008 16:23:02 26.2 C 24 % 4.05 C
1385 11-08-2008 16:35:02 26.2 C 25 % 4.63 C
1386 11-08-2008 16:47:02 25.7 C 27 % 5.31 C
1387 11-08-2008 16:59:02 25 C 27 % 4.72 C
1388 11-08-2008 17:11:01 25 C 27 % 4.72 C
1389 11-08-2008 17:23:02 24.5 C 29 % 5.31 C
1390 11-08-2008 17:35:01 24.3 C 31 % 6.1 C
1391 11-08-2008 17:47:02 23.9 C 31 % 5.76 C
1392 11-08-2008 17:59:03 23.9 C 30 % 5.28 C
1393 11-08-2008 18:11:02 23.9 C 32 % 6.21 C
1394 11-08-2008 18:23:02 22.9 C 39 % 8.22 C
1395 11-08-2008 18:35:02 23.3 C 38 % 8.19 C
1396 11-08-2008 18:47:02 23.2 C 39 % 8.49 C
1397 11-08-2008 18:59:02 22.6 C 43 % 9.4 C
1398 11-08-2008 19:11:02 22.7 C 41 % 8.78 C
1399 11-08-2008 19:23:02 22.9 C 43 % 9.67 C
1400 11-08-2008 19:35:01 22.9 C 43 % 9.67 C
Sensor: Nr:Datum:Temp:Feuchte:Taupunkt:
Aussen-T/F 1401 11-08-2008 19:47:02 22.5 C 46 % 10.31 C
1402 11-08-2008 19:59:02 22.1 C 46 % 9.95 C
1403 11-08-2008 20:11:02 21.9 C 49 % 10.71 C
1404 11-08-2008 20:23:01 21.5 C 50 % 10.65 C
1405 11-08-2008 20:35:02 21.2 C 51 % 10.67 C
1406 11-08-2008 20:47:02 21.1 C 51 % 10.58 C
1407 11-08-2008 20:59:02 20.6 C 55 % 11.25 C
1408 11-08-2008 21:11:02 20.1 C 57 % 11.32 C
1409 11-08-2008 21:23:02 19.9 C 60 % 11.91 C
1410 11-08-2008 21:35:02 19.7 C 60 % 11.72 C
1411 11-08-2008 21:47:02 19.9 C 59 % 11.66 C
1412 11-08-2008 21:59:02 20.1 C 58 % 11.58 C
1413 11-08-2008 22:11:03 19.8 C 60 % 11.82 C
1414 11-08-2008 22:24:33 19.9 C 62 % 12.41 C
1415 11-08-2008 22:36:33 20 C 62 % 12.5 C
1416 11-08-2008 22:48:33 20 C 63 % 12.75 C
1417 11-08-2008 23:00:33 19.8 C 64 % 12.8 C
1418 11-08-2008 23:12:33 19.9 C 65 % 13.13 C
1419 11-08-2008 23:24:34 19.7 C 65 % 12.94 C
1420 11-08-2008 23:36:34 19.5 C 67 % 13.21 C
1421 11-08-2008 23:48:34 19.1 C 71 % 13.72 C
1422 12-08-2008 00:00:34 18.6 C 74 % 13.88 C
1423 12-08-2008 00:12:34 18.3 C 76 % 14 C
1424 12-08-2008 00:24:34 18.2 C 78 % 14.3 C
1425 12-08-2008 00:36:34 17.9 C 81 % 14.59 C
Sensor: Nr:Datum:Temp:Feuchte:Taupunkt:
Aussen-T/F 1426 12-08-2008 00:48:34 17.7 C 83 % 14.78 C
1427 12-08-2008 01:00:34 17.3 C 84 % 14.57 C
1428 12-08-2008 01:12:34 17 C 85 % 14.46 C
1429 12-08-2008 01:24:34 17.2 C 86 % 14.84 C
1430 12-08-2008 01:36:34 17.5 C 86 % 15.13 C
1431 12-08-2008 01:48:34 17.2 C 86 % 14.84 C
1432 12-08-2008 02:00:34 17.1 C 87 % 14.92 C
1433 12-08-2008 02:12:34 17 C 87 % 14.82 C
1434 12-08-2008 02:24:34 16.8 C 88 % 14.8 C
1435 12-08-2008 02:36:34 16.8 C 89 % 14.98 C
1436 12-08-2008 02:48:34 16.6 C 89 % 14.78 C
1437 12-08-2008 03:00:34 16.7 C 89 % 14.88 C
1438 12-08-2008 03:12:34 16.8 C 89 % 14.98 C
1439 12-08-2008 03:24:34 16.9 C 89 % 15.08 C
1440 12-08-2008 03:36:35 16.8 C 88 % 14.8 C
1441 12-08-2008 03:48:35 16.4 C 88 % 14.41 C
1442 12-08-2008 04:00:35 16.2 C 88 % 14.21 C
1443 12-08-2008 04:12:35 16 C 87 % 13.84 C
1444 12-08-2008 04:24:35 15.8 C 88 % 13.82 C
1445 12-08-2008 04:36:35 16 C 88 % 14.01 C
1446 12-08-2008 04:48:35 15.8 C 89 % 13.99 C
1447 12-08-2008 05:00:35 16 C 88 % 14.01 C
1448 12-08-2008 05:12:35 16.3 C 88 % 14.31 C
1449 12-08-2008 05:24:35 16.2 C 88 % 14.21 C
1450 12-08-2008 05:36:35 16.2 C 87 % 14.03 C
Sensor: Nr:Datum:Temp:Feuchte:Taupunkt:
Aussen-T/F 1451 12-08-2008 05:48:35 16.2 C 87 % 14.03 C
1452 12-08-2008 06:00:35 16.1 C 87 % 13.94 C
1453 12-08-2008 06:12:35 16 C 87 % 13.84 C
1454 12-08-2008 06:24:35 16 C 87 % 13.84 C
1455 12-08-2008 06:36:35 16.1 C 88 % 14.11 C
1456 12-08-2008 06:48:35 16 C 87 % 13.84 C
1457 12-08-2008 07:00:35 16.1 C 88 % 14.11 C
1458 12-08-2008 07:12:04 16.1 C 88 % 14.11 C
1459 12-08-2008 07:24:03 16.1 C 88 % 14.11 C
1460 12-08-2008 07:36:03 16.2 C 88 % 14.21 C
1461 12-08-2008 07:48:02 16.2 C 89 % 14.39 C
1462 12-08-2008 08:00:02 16.2 C 89 % 14.39 C
1463 12-08-2008 08:12:02 16.6 C 90 % 14.95 C
1464 12-08-2008 08:24:02 16.8 C 90 % 15.15 C
1465 12-08-2008 08:36:02 16.8 C 89 % 14.98 C
1466 12-08-2008 08:48:02 16.9 C 89 % 15.08 C
1467 12-08-2008 09:00:02 16.6 C 89 % 14.78 C
1468 12-08-2008 09:12:02 16.6 C 90 % 14.95 C
1469 12-08-2008 09:24:02 16.9 C 90 % 15.25 C
1470 12-08-2008 09:36:03 17 C 89 % 15.17 C
1471 12-08-2008 09:48:02 17.2 C 89 % 15.37 C
1472 12-08-2008 10:00:02 17.2 C 89 % 15.37 C
1473 12-08-2008 10:12:02 17.3 C 88 % 15.29 C
1474 12-08-2008 10:24:02 17.4 C 88 % 15.39 C
1475 12-08-2008 10:36:02 17.6 C 88 % 15.59 C
Sensor: Nr:Datum:Temp:Feuchte:Taupunkt:
Aussen-T/F 1476 12-08-2008 10:48:02 17.6 C 89 % 15.77 C
1477 12-08-2008 11:00:02 17.9 C 89 % 16.06 C
1478 12-08-2008 11:12:02 18 C 88 % 15.98 C
1479 12-08-2008 11:24:02 18.2 C 88 % 16.18 C
1480 12-08-2008 11:36:02 18.4 C 88 % 16.38 C
1481 12-08-2008 11:48:02 18.9 C 88 % 16.87 C
1482 12-08-2008 12:00:02 19.5 C 85 % 16.91 C
1483 12-08-2008 12:12:01 19.7 C 83 % 16.73 C
1484 12-08-2008 12:24:02 20.5 C 81 % 17.13 C
1485 12-08-2008 12:36:01 21.1 C 77 % 16.91 C
1486 12-08-2008 12:48:01 21.9 C 73 % 16.84 C
1487 12-08-2008 13:00:01 22.4 C 69 % 16.43 C
1488 12-08-2008 13:12:02 22.1 C 68 % 15.92 C
1489 12-08-2008 13:24:01 22.4 C 67 % 15.97 C
1490 12-08-2008 13:36:02 21.8 C 69 % 15.86 C
1491 12-08-2008 13:48:02 21.3 C 72 % 16.05 C
1492 12-08-2008 14:00:02 20.7 C 76 % 16.32 C
1493 12-08-2008 14:12:02 21.2 C 75 % 16.59 C
1494 12-08-2008 14:24:02 22.2 C 69 % 16.24 C
1495 12-08-2008 14:36:02 23.4 C 64 % 16.2 C
1496 12-08-2008 14:48:02 23.5 C 62 % 15.8 C
1497 12-08-2008 15:00:02 22.8 C 61 % 14.89 C
1498 12-08-2008 15:12:02 22.9 C 61 % 14.98 C
1499 12-08-2008 15:24:02 22.2 C 62 % 14.58 C
1500 12-08-2008 15:36:03 21.4 C 68 % 15.25 C
Sensor: Nr:Datum:Temp:Feuchte:Taupunkt:
Aussen-T/F 1501 12-08-2008 15:48:02 20.6 C 73 % 15.59 C
1502 12-08-2008 16:00:02 19.7 C 82 % 16.54 C
1503 12-08-2008 16:12:03 19.9 C 84 % 17.12 C
1504 12-08-2008 16:24:02 20.9 C 82 % 17.71 C
1505 12-08-2008 16:36:03 21.5 C 79 % 17.7 C
1506 12-08-2008 16:48:02 21.2 C 70 % 15.51 C
1507 12-08-2008 17:00:02 21.6 C 66 % 14.98 C
1508 12-08-2008 17:12:02 21.5 C 66 % 14.88 C
1509 12-08-2008 17:24:02 21.5 C 64 % 14.41 C
1510 12-08-2008 17:36:02 21.3 C 69 % 15.38 C
1511 12-08-2008 17:48:02 21.4 C 66 % 14.79 C
1512 12-08-2008 18:00:02 21.4 C 64 % 14.31 C
1513 12-08-2008 18:12:02 21.3 C 64 % 14.22 C
1514 12-08-2008 18:24:02 21.5 C 65 % 14.65 C
1515 12-08-2008 18:36:03 21.9 C 63 % 14.54 C
1516 12-08-2008 18:48:02 21.8 C 59 % 13.44 C
1517 12-08-2008 19:00:02 21.9 C 59 % 13.53 C
1518 12-08-2008 19:12:02 22.3 C 59 % 13.9 C
1519 12-08-2008 19:24:02 22.6 C 55 % 13.11 C
1520 12-08-2008 19:36:02 22.5 C 54 % 12.73 C
1521 12-08-2008 19:48:02 22.6 C 53 % 12.54 C
1522 12-08-2008 20:00:02 22.5 C 52 % 12.16 C
1523 12-08-2008 20:12:01 22.8 C 51 % 12.14 C
1524 12-08-2008 20:24:02 22.5 C 52 % 12.16 C
1525 12-08-2008 20:36:01 21.8 C 55 % 12.36 C
Sensor: Nr:Datum:Temp:Feuchte:Taupunkt:
Aussen-T/F 1526 12-08-2008 20:48:01 21.2 C 57 % 12.35 C
1527 12-08-2008 21:00:01 20.7 C 59 % 12.41 C
1528 12-08-2008 21:12:02 20.2 C 62 % 12.69 C
1529 12-08-2008 21:24:02 20 C 64 % 12.99 C
1530 12-08-2008 21:36:02 19.7 C 67 % 13.4 C
1531 12-08-2008 21:48:03 19.4 C 70 % 13.79 C
1532 12-08-2008 22:00:03 19.1 C 72 % 13.94 C
1533 12-08-2008 22:12:02 19 C 71 % 13.63 C
1534 12-08-2008 22:24:02 18.9 C 73 % 13.96 C
1535 12-08-2008 22:36:02 18.6 C 73 % 13.67 C
1536 12-08-2008 22:48:02 18.4 C 73 % 13.48 C
1537 12-08-2008 23:00:03 18.6 C 72 % 13.46 C
1538 12-08-2008 23:12:02 18.9 C 69 % 13.09 C
1539 12-08-2008 23:25:03 19.3 C 67 % 13.02 C
1540 12-08-2008 23:37:03 16.6 C 70 % 11.11 C
1541 12-08-2008 23:49:03 15.6 C 75 % 11.19 C
1542 13-08-2008 00:01:03 15.2 C 77 % 11.2 C
1543 13-08-2008 00:13:03 15 C 80 % 11.58 C
1544 13-08-2008 00:25:03 14.7 C 81 % 11.48 C
1545 13-08-2008 00:37:03 14.4 C 82 % 11.37 C
1546 13-08-2008 00:49:04 14.2 C 83 % 11.36 C
1547 13-08-2008 01:01:04 14.2 C 84 % 11.54 C
1548 13-08-2008 01:13:04 14.3 C 85 % 11.81 C
1549 13-08-2008 01:25:04 14.3 C 86 % 11.99 C
1550 13-08-2008 01:37:04 14.3 C 86 % 11.99 C
Sensor: Nr:Datum:Temp:Feuchte:Taupunkt:
Aussen-T/F 1551 13-08-2008 01:49:04 14.6 C 86 % 12.29 C
1552 13-08-2008 02:01:04 14.6 C 86 % 12.29 C
1553 13-08-2008 02:13:04 14.7 C 86 % 12.38 C
1554 13-08-2008 02:25:04 14.5 C 86 % 12.19 C
1555 13-08-2008 02:37:04 14.3 C 86 % 11.99 C
1556 13-08-2008 02:49:04 14.2 C 86 % 11.89 C
1557 13-08-2008 03:01:04 14.2 C 87 % 12.07 C
1558 13-08-2008 03:13:04 14.3 C 88 % 12.34 C
1559 13-08-2008 03:25:04 14.3 C 88 % 12.34 C
1560 13-08-2008 03:37:04 14.3 C 87 % 12.17 C
1561 13-08-2008 03:49:04 14.2 C 87 % 12.07 C
1562 13-08-2008 04:01:04 14.1 C 87 % 11.97 C
1563 13-08-2008 04:13:04 14.4 C 84 % 11.73 C
1564 13-08-2008 04:25:04 14.7 C 80 % 11.29 C
1565 13-08-2008 04:37:04 15 C 74 % 10.41 C
1566 13-08-2008 04:49:05 15.4 C 70 % 9.96 C
1567 13-08-2008 05:01:05 15.2 C 70 % 9.77 C
1568 13-08-2008 05:13:05 15.4 C 68 % 9.53 C
1569 13-08-2008 05:25:05 15.4 C 68 % 9.53 C
1570 13-08-2008 05:37:05 15.6 C 66 % 9.28 C
1571 13-08-2008 05:49:05 15.8 C 64 % 9.01 C
1572 13-08-2008 06:01:05 15.8 C 64 % 9.01 C
1573 13-08-2008 06:13:05 15.9 C 63 % 8.87 C
1574 13-08-2008 06:25:05 15.9 C 63 % 8.87 C
1575 13-08-2008 06:37:03 15.9 C 63 % 8.87 C
Sensor: Nr:Datum:Temp:Feuchte:Taupunkt:
Aussen-T/F 1576 13-08-2008 06:49:02 15.7 C 63 % 8.68 C
1577 13-08-2008 07:01:02 15.8 C 63 % 8.78 C
1578 13-08-2008 07:13:02 15.9 C 63 % 8.87 C
1579 13-08-2008 07:25:03 15.9 C 63 % 8.87 C
1580 13-08-2008 07:37:02 16.4 C 61 % 8.87 C
1581 13-08-2008 07:49:02 16.6 C 59 % 8.56 C
1582 13-08-2008 08:01:02 16.5 C 60 % 8.72 C
1583 13-08-2008 08:13:02 16.6 C 59 % 8.56 C
1584 13-08-2008 08:25:02 16.8 C 59 % 8.75 C
1585 13-08-2008 08:37:02 16.9 C 57 % 8.34 C
1586 13-08-2008 08:49:01 16.8 C 57 % 8.24 C
1587 13-08-2008 09:01:02 17.1 C 55 % 8 C
1588 13-08-2008 09:13:02 17.4 C 55 % 8.28 C
1589 13-08-2008 09:25:02 17.7 C 53 % 8.01 C
1590 13-08-2008 09:37:02 17.6 C 54 % 8.19 C
1591 13-08-2008 09:49:02 17.6 C 53 % 7.92 C
1592 13-08-2008 10:01:02 18.1 C 51 % 7.81 C
1593 13-08-2008 10:13:03 18.3 C 50 % 7.71 C
1594 13-08-2008 10:25:02 18.3 C 51 % 8 C
1595 13-08-2008 10:37:02 18.5 C 50 % 7.89 C
1596 13-08-2008 10:49:02 17 C 59 % 8.94 C
1597 13-08-2008 11:01:03 17.2 C 62 % 9.86 C
1598 13-08-2008 11:13:03 18.1 C 59 % 9.97 C
1599 13-08-2008 11:25:02 18.3 C 55 % 9.11 C
1600 13-08-2008 11:37:03 19.3 C 51 % 8.92 C
Sensor: Nr:Datum:Temp:Feuchte:Taupunkt:
Aussen-T/F 1601 13-08-2008 11:49:02 19.7 C 48 % 8.39 C
1602 13-08-2008 12:01:02 20 C 47 % 8.35 C
1603 13-08-2008 12:13:02 20 C 45 % 7.72 C
1604 13-08-2008 12:25:02 19.7 C 44 % 7.12 C
1605 13-08-2008 12:37:02 20.7 C 43 % 7.68 C
1606 13-08-2008 12:49:03 21.3 C 40 % 7.16 C
1607 13-08-2008 13:01:02 20.8 C 40 % 6.72 C
1608 13-08-2008 13:13:02 21.2 C 40 % 7.08 C
1609 13-08-2008 13:25:02 21.4 C 40 % 7.25 C
1610 13-08-2008 13:37:02 21.2 C 40 % 7.08 C
1611 13-08-2008 13:49:02 21.2 C 40 % 7.08 C
1612 13-08-2008 14:01:02 21.6 C 40 % 7.43 C
1613 13-08-2008 14:13:02 21.7 C 41 % 7.88 C
1614 13-08-2008 14:25:02 22.5 C 38 % 7.48 C
1615 13-08-2008 14:37:02 22 C 38 % 7.04 C
1616 13-08-2008 14:49:02 21.6 C 40 % 7.43 C
1617 13-08-2008 15:01:02 19.1 C 40 % 5.2 C
1618 13-08-2008 15:13:02 19.1 C 67 % 12.83 C
1619 13-08-2008 15:25:02 20.5 C 58 % 11.96 C
1620 13-08-2008 15:37:02 20.4 C 53 % 10.51 C
1621 13-08-2008 15:49:02 22.2 C 45 % 9.71 C
1622 13-08-2008 16:01:02 22.6 C 41 % 8.69 C
1623 13-08-2008 16:13:02 23.6 C 37 % 8.07 C
1624 13-08-2008 16:25:02 23.5 C 33 % 6.31 C
1625 13-08-2008 16:37:02 23.8 C 32 % 6.13 C
Sensor: Nr:Datum:Temp:Feuchte:Taupunkt:
Aussen-T/F 1626 13-08-2008 16:49:02 24.3 C 31 % 6.1 C
1627 13-08-2008 17:01:02 24.1 C 29 % 4.97 C
1628 13-08-2008 17:13:02 23.5 C 31 % 5.41 C
1629 13-08-2008 17:25:02 24.3 C 30 % 5.63 C
1630 13-08-2008 17:37:02 23.8 C 30 % 5.2 C
1631 13-08-2008 17:49:02 23.4 C 31 % 5.32 C
1632 13-08-2008 18:01:02 23.3 C 31 % 5.24 C
1633 13-08-2008 18:13:02 23.6 C 31 % 5.5 C
1634 13-08-2008 18:25:02 23.5 C 31 % 5.41 C
1635 13-08-2008 18:37:02 22.6 C 33 % 5.53 C
1636 13-08-2008 18:49:02 22 C 35 % 5.85 C
1637 13-08-2008 19:01:02 21.6 C 40 % 7.43 C
1638 13-08-2008 19:13:02 21.7 C 38 % 6.77 C
1639 13-08-2008 19:25:02 21.6 C 36 % 5.9 C
1640 13-08-2008 19:37:02 21.3 C 37 % 6.03 C
1641 13-08-2008 19:49:01 21.2 C 38 % 6.33 C
1642 13-08-2008 20:01:02 19.4 C 48 % 8.12 C
1643 13-08-2008 20:13:02 19.5 C 50 % 8.81 C
1644 13-08-2008 20:25:01 19.5 C 51 % 9.1 C
1645 13-08-2008 20:37:02 19.6 C 50 % 8.9 C
1646 13-08-2008 20:49:02 19.5 C 50 % 8.81 C
1647 13-08-2008 21:01:02 19.7 C 41 % 6.09 C
1648 13-08-2008 21:13:02 19.8 C 40 % 5.82 C
1649 13-08-2008 21:25:02 19.5 C 41 % 5.91 C
1650 13-08-2008 21:37:03 18.8 C 46 % 6.95 C
Sensor: Nr:Datum:Temp:Feuchte:Taupunkt:
Aussen-T/F 1651 13-08-2008 21:50:04 18.7 C 47 % 7.17 C
1652 13-08-2008 22:02:04 18.3 C 49 % 7.41 C
1653 13-08-2008 22:14:04 18.3 C 49 % 7.41 C
1654 13-08-2008 22:26:04 18.4 C 48 % 7.2 C
1655 13-08-2008 22:38:04 18 C 50 % 7.43 C
1656 13-08-2008 22:50:04 17.8 C 52 % 7.82 C
1657 13-08-2008 23:02:04 17.8 C 51 % 7.54 C
1658 13-08-2008 23:14:04 17.4 C 53 % 7.73 C
1659 13-08-2008 23:26:04 17.3 C 54 % 7.91 C
1660 13-08-2008 23:38:04 17.1 C 55 % 8 C
1661 13-08-2008 23:50:04 17 C 57 % 8.43 C
1662 14-08-2008 00:02:04 17.1 C 57 % 8.52 C
1663 14-08-2008 00:14:04 16.8 C 58 % 8.5 C
1664 14-08-2008 00:26:04 16.4 C 59 % 8.38 C
1665 14-08-2008 00:38:04 16.2 C 60 % 8.43 C
1666 14-08-2008 00:50:04 16.4 C 61 % 8.87 C
1667 14-08-2008 01:02:04 16.4 C 61 % 8.87 C
1668 14-08-2008 01:14:04 16.4 C 62 % 9.11 C
1669 14-08-2008 01:26:05 16.1 C 62 % 8.82 C
1670 14-08-2008 01:38:05 15.9 C 64 % 9.11 C
1671 14-08-2008 01:50:05 15.8 C 64 % 9.01 C
1672 14-08-2008 02:02:05 16 C 63 % 8.97 C
1673 14-08-2008 02:14:05 16 C 63 % 8.97 C
1674 14-08-2008 02:26:05 15.8 C 64 % 9.01 C
1675 14-08-2008 02:38:05 15.4 C 66 % 9.09 C
Sensor: Nr:Datum:Temp:Feuchte:Taupunkt:
Aussen-T/F 1676 14-08-2008 02:50:05 15.3 C 68 % 9.43 C
1677 14-08-2008 03:02:05 15.1 C 68 % 9.24 C
1678 14-08-2008 03:14:05 15 C 69 % 9.36 C
1679 14-08-2008 03:26:05 14.9 C 70 % 9.48 C
1680 14-08-2008 03:38:05 14.8 C 71 % 9.6 C
1681 14-08-2008 03:50:05 14.7 C 71 % 9.5 C
1682 14-08-2008 04:02:05 14.5 C 72 % 9.52 C
1683 14-08-2008 04:14:05 14.5 C 73 % 9.72 C
1684 14-08-2008 04:26:05 14.3 C 73 % 9.53 C
1685 14-08-2008 04:38:05 14.1 C 74 % 9.54 C
1686 14-08-2008 04:50:05 13.9 C 75 % 9.55 C
1687 14-08-2008 05:02:05 13.9 C 76 % 9.74 C
1688 14-08-2008 05:14:05 13.8 C 77 % 9.84 C
1689 14-08-2008 05:26:05 13.6 C 77 % 9.65 C
1690 14-08-2008 05:38:06 13.6 C 77 % 9.65 C
1691 14-08-2008 05:50:06 13.5 C 78 % 9.74 C
1692 14-08-2008 06:02:06 13.6 C 77 % 9.65 C
1693 14-08-2008 06:14:06 13.6 C 77 % 9.65 C
1694 14-08-2008 06:26:03 13.7 C 77 % 9.75 C
1695 14-08-2008 06:38:04 13.7 C 77 % 9.75 C
1696 14-08-2008 06:50:02 13.7 C 77 % 9.75 C
1697 14-08-2008 07:02:02 13.8 C 76 % 9.65 C
1698 14-08-2008 07:14:02 13.8 C 76 % 9.65 C
1699 14-08-2008 07:26:02 13.8 C 76 % 9.65 C
1700 14-08-2008 07:38:01 14 C 75 % 9.64 C
Sensor: Nr:Datum:Temp:Feuchte:Taupunkt:
Aussen-T/F 1701 14-08-2008 07:50:02 14.1 C 75 % 9.74 C
1702 14-08-2008 08:02:01 14.3 C 73 % 9.53 C
1703 14-08-2008 08:14:01 14.5 C 73 % 9.72 C
1704 14-08-2008 08:26:02 14.6 C 73 % 9.82 C
1705 14-08-2008 08:38:01 14.9 C 71 % 9.69 C
1706 14-08-2008 08:50:02 15.4 C 64 % 8.63 C
1707 14-08-2008 09:02:01 15.8 C 61 % 8.3 C
1708 14-08-2008 09:14:01 16.1 C 58 % 7.84 C
1709 14-08-2008 09:26:02 16.4 C 56 % 7.61 C
1710 14-08-2008 09:38:02 16.8 C 50 % 6.33 C
1711 14-08-2008 09:50:02 17.1 C 49 % 6.31 C
1712 14-08-2008 10:02:02 17.4 C 48 % 6.29 C
1713 14-08-2008 10:14:02 17.8 C 47 % 6.35 C
1714 14-08-2008 10:26:01 18.1 C 46 % 6.31 C
1715 14-08-2008 10:38:02 18.3 C 44 % 5.85 C
1716 14-08-2008 10:50:02 18.8 C 44 % 6.3 C
1717 14-08-2008 11:02:02 19.1 C 43 % 6.24 C
1718 14-08-2008 11:14:02 19.5 C 42 % 6.26 C
1719 14-08-2008 11:26:02 19.8 C 41 % 6.18 C
1720 14-08-2008 11:38:02 20.3 C 40 % 6.27 C
1721 14-08-2008 11:50:02 20.4 C 38 % 5.62 C
1722 14-08-2008 12:02:02 20.8 C 35 % 4.79 C
1723 14-08-2008 12:14:02 21.2 C 33 % 4.3 C
1724 14-08-2008 12:26:01 22 C 31 % 4.11 C
1725 14-08-2008 12:38:02 21.9 C 30 % 3.56 C
Sensor: Nr:Datum:Temp:Feuchte:Taupunkt:
Aussen-T/F 1726 14-08-2008 12:50:02 22 C 28 % 2.67 C
1727 14-08-2008 13:02:02 22.9 C 30 % 4.42 C
1728 14-08-2008 13:14:02 23.2 C 29 % 4.2 C
1729 14-08-2008 13:26:02 23.4 C 30 % 4.85 C
1730 14-08-2008 13:38:02 24 C 28 % 4.38 C
1731 14-08-2008 13:50:02 23.4 C 30 % 4.85 C
1732 14-08-2008 14:02:01 23.4 C 28 % 3.87 C
1733 14-08-2008 14:14:01 23.1 C 28 % 3.61 C
1734 14-08-2008 14:26:02 23 C 28 % 3.53 C
1735 14-08-2008 14:38:01 23.4 C 29 % 4.37 C
1736 14-08-2008 14:50:02 24.1 C 26 % 3.42 C
1737 14-08-2008 15:02:01 24.3 C 25 % 3.03 C
1738 14-08-2008 15:14:01 24.2 C 25 % 2.95 C
1739 14-08-2008 15:26:02 24.4 C 25 % 3.12 C
1740 14-08-2008 15:38:01 24.5 C 25 % 3.2 C
1741 14-08-2008 15:50:01 24.8 C 24 % 2.88 C
1742 14-08-2008 16:02:01 25.2 C 23 % 2.61 C
1743 14-08-2008 16:14:01 25.1 C 24 % 3.13 C
1744 14-08-2008 16:26:01 25.5 C 22 % 2.24 C
1745 14-08-2008 16:38:01 25.6 C 21 % 1.67 C
1746 14-08-2008 16:50:01 26.2 C 21 % 2.17 C
1747 14-08-2008 17:02:02 25.1 C 22 % 1.91 C
1748 14-08-2008 17:14:03 26.7 C 20 % 1.9 C
1749 14-08-2008 17:26:01 26.5 C 20 % 1.74 C
1750 14-08-2008 17:38:02 26.7 C 20 % 1.9 C
Sensor: Nr:Datum:Temp:Feuchte:Taupunkt:
Aussen-T/F 1751 14-08-2008 17:50:01 26.6 C 20 % 1.82 C
1752 14-08-2008 18:02:02 26.7 C 20 % 1.9 C
1753 14-08-2008 18:14:02 26.8 C 20 % 1.98 C
1754 14-08-2008 18:26:01 26.8 C 20 % 1.98 C
1755 14-08-2008 18:38:02 26.2 C 20 % 1.49 C
1756 14-08-2008 18:50:02 26.4 C 20 % 1.65 C
1757 14-08-2008 19:02:02 25.8 C 20 % 1.16 C
1758 14-08-2008 19:14:02 25.1 C 22 % 1.91 C
1759 14-08-2008 19:26:02 23.8 C 26 % 3.16 C
1760 14-08-2008 19:38:02 23.7 C 26 % 3.08 C
1761 14-08-2008 19:50:01 23.6 C 28 % 4.04 C
1762 14-08-2008 20:02:02 22.8 C 28 % 3.36 C
1763 14-08-2008 20:14:02 22.6 C 30 % 4.16 C
1764 14-08-2008 20:26:01 21.8 C 31 % 3.94 C
1765 14-08-2008 20:38:02 20.9 C 34 % 4.47 C
1766 14-08-2008 20:50:02 20.5 C 35 % 4.53 C
1767 14-08-2008 21:02:02 19.9 C 36 % 4.4 C
1768 14-08-2008 21:14:02 19.4 C 37 % 4.35 C
1769 14-08-2008 21:26:02 19 C 37 % 4 C
1770 14-08-2008 21:38:01 18.8 C 41 % 5.28 C
1771 14-08-2008 21:51:03 18.6 C 42 % 5.45 C
1772 14-08-2008 22:03:03 18.3 C 44 % 5.85 C
1773 14-08-2008 22:15:03 18.1 C 44 % 5.67 C
1774 14-08-2008 22:27:03 18.1 C 43 % 5.34 C
1775 14-08-2008 22:39:03 17.9 C 45 % 5.81 C
Sensor: Nr:Datum:Temp:Feuchte:Taupunkt:
Aussen-T/F 1776 14-08-2008 22:51:03 17.5 C 47 % 6.07 C
1777 14-08-2008 23:03:03 17.5 C 47 % 6.07 C
1778 14-08-2008 23:15:03 17.4 C 50 % 6.88 C
1779 14-08-2008 23:27:03 17.2 C 51 % 6.98 C
1780 14-08-2008 23:39:03 17 C 51 % 6.8 C
1781 14-08-2008 23:51:03 17.1 C 51 % 6.89 C
1782 15-08-2008 00:03:03 17 C 51 % 6.8 C
1783 15-08-2008 00:15:03 17 C 52 % 7.08 C
1784 15-08-2008 00:27:03 16.8 C 54 % 7.45 C
1785 15-08-2008 00:39:03 16.8 C 53 % 7.18 C
1786 15-08-2008 00:51:03 16.7 C 54 % 7.36 C
1787 15-08-2008 01:03:03 16.6 C 54 % 7.26 C
1788 15-08-2008 01:15:04 16.7 C 54 % 7.36 C
1789 15-08-2008 01:27:04 16.5 C 55 % 7.44 C
1790 15-08-2008 01:39:04 16.3 C 56 % 7.52 C
1791 15-08-2008 01:51:04 16.1 C 56 % 7.33 C
1792 15-08-2008 02:03:04 16.1 C 56 % 7.33 C
1793 15-08-2008 02:15:04 16 C 57 % 7.49 C
1794 15-08-2008 02:27:04 15.9 C 59 % 7.91 C
1795 15-08-2008 02:39:04 15.7 C 59 % 7.72 C
1796 15-08-2008 02:51:04 15.6 C 59 % 7.62 C
1797 15-08-2008 03:03:04 15.6 C 60 % 7.87 C
1798 15-08-2008 03:15:04 15.5 C 61 % 8.02 C
1799 15-08-2008 03:27:04 15.5 C 61 % 8.02 C
1800 15-08-2008 03:39:04 15.2 C 62 % 7.98 C
Sensor: Nr:Datum:Temp:Feuchte:Taupunkt:
Aussen-T/F 1801 15-08-2008 03:51:04 15.2 C 63 % 8.21 C
1802 15-08-2008 04:03:04 14.9 C 65 % 8.39 C
1803 15-08-2008 04:15:04 14.7 C 66 % 8.42 C
1804 15-08-2008 04:27:04 14.5 C 67 % 8.45 C
1805 15-08-2008 04:39:04 14.6 C 67 % 8.55 C
1806 15-08-2008 04:51:04 14.6 C 67 % 8.55 C
1807 15-08-2008 05:03:05 14.5 C 67 % 8.45 C
1808 15-08-2008 05:15:05 14.3 C 68 % 8.48 C
1809 15-08-2008 05:27:05 14 C 69 % 8.41 C
1810 15-08-2008 05:39:05 13.8 C 71 % 8.64 C
1811 15-08-2008 05:51:05 13.8 C 71 % 8.64 C
1812 15-08-2008 06:03:05 13.7 C 72 % 8.75 C
1813 15-08-2008 06:15:05 13.6 C 72 % 8.65 C
1814 15-08-2008 06:27:05 13.6 C 72 % 8.65 C
1815 15-08-2008 06:39:05 13.5 C 73 % 8.76 C
1816 15-08-2008 06:51:01 13.5 C 73 % 8.76 C
1817 15-08-2008 07:03:02 13.4 C 74 % 8.87 C
1818 15-08-2008 07:15:01 13.3 C 74 % 8.77 C
1819 15-08-2008 07:27:01 13 C 75 % 8.68 C
1820 15-08-2008 07:39:02 12.8 C 77 % 8.87 C
1821 15-08-2008 07:51:02 12.8 C 78 % 9.06 C
1822 15-08-2008 08:03:02 12.9 C 78 % 9.16 C
1823 15-08-2008 08:15:02 13 C 77 % 9.07 C
1824 15-08-2008 08:27:02 13.3 C 77 % 9.36 C
1825 15-08-2008 08:39:02 13.5 C 75 % 9.16 C
Sensor: Nr:Datum:Temp:Feuchte:Taupunkt:
Aussen-T/F 1826 15-08-2008 08:51:02 13.8 C 74 % 9.25 C
1827 15-08-2008 09:03:03 14.1 C 73 % 9.34 C
1828 15-08-2008 09:15:02 14.4 C 70 % 9 C
1829 15-08-2008 09:27:03 15 C 70 % 9.58 C
1830 15-08-2008 09:39:02 16 C 65 % 9.43 C
1831 15-08-2008 09:51:02 16.8 C 61 % 9.24 C
1832 15-08-2008 10:03:02 17.2 C 55 % 8.09 C
1833 15-08-2008 10:15:02 17.7 C 54 % 8.28 C
1834 15-08-2008 10:27:02 18.1 C 53 % 8.38 C
1835 15-08-2008 10:39:02 18.4 C 51 % 8.09 C
1836 15-08-2008 10:51:01 18.9 C 49 % 7.96 C
1837 15-08-2008 11:03:02 19.3 C 44 % 6.75 C
1838 15-08-2008 11:15:01 19.9 C 44 % 7.3 C
1839 15-08-2008 11:27:01 20.6 C 42 % 7.25 C
1840 15-08-2008 11:39:01 20.8 C 41 % 7.08 C
1841 15-08-2008 11:51:02 20.5 C 41 % 6.81 C
1842 15-08-2008 12:03:02 21.2 C 39 % 6.71 C
1843 15-08-2008 12:15:02 22.1 C 37 % 6.74 C
1844 15-08-2008 12:27:02 22.8 C 37 % 7.36 C
1845 15-08-2008 12:39:02 23 C 34 % 6.31 C
1846 15-08-2008 12:51:02 22.7 C 35 % 6.46 C
1847 15-08-2008 13:03:03 21.6 C 38 % 6.69 C
1848 15-08-2008 13:15:02 22 C 35 % 5.85 C
1849 15-08-2008 13:27:02 21.7 C 36 % 5.99 C
1850 15-08-2008 13:39:03 22.1 C 35 % 5.94 C
Sensor: Nr:Datum:Temp:Feuchte:Taupunkt:
Aussen-T/F 1851 15-08-2008 13:51:02 22.7 C 33 % 5.61 C
1852 15-08-2008 14:03:01 22.3 C 39 % 7.69 C
1853 15-08-2008 14:15:02 19.6 C 51 % 9.2 C
1854 15-08-2008 14:27:02 19.2 C 49 % 8.24 C
1855 15-08-2008 14:39:01 19.7 C 46 % 7.77 C
1856 15-08-2008 14:51:02 20.5 C 47 % 8.81 C
1857 15-08-2008 15:03:01 22.7 C 35 % 6.46 C
1858 15-08-2008 15:21:02 20.6 C 44 % 7.93 C
1859 15-08-2008 15:33:01 20.7 C 45 % 8.35 C
1860 15-08-2008 15:45:02 22 C 42 % 8.51 C
1861 15-08-2008 15:57:02 22.6 C 36 % 6.78 C
1862 15-08-2008 16:09:01 22.9 C 37 % 7.45 C
1863 15-08-2008 16:21:02 23.6 C 33 % 6.4 C
1864 15-08-2008 16:33:01 24.8 C 30 % 6.06 C
1865 15-08-2008 16:45:01 26.1 C 25 % 4.55 C
1866 15-08-2008 16:57:01 24.8 C 27 % 4.55 C
1867 15-08-2008 17:09:01 23.8 C 31 % 5.67 C
1868 15-08-2008 17:21:01 24.4 C 31 % 6.19 C
1869 15-08-2008 17:33:01 25.3 C 28 % 5.49 C
1870 15-08-2008 17:45:01 24.3 C 32 % 6.56 C
1871 15-08-2008 17:57:01 23.6 C 35 % 7.25 C
1872 15-08-2008 18:09:02 24 C 31 % 5.84 C
1873 15-08-2008 18:21:01 24 C 32 % 6.3 C
1874 15-08-2008 18:33:02 23.4 C 33 % 6.22 C
1875 15-08-2008 18:45:03 23.8 C 32 % 6.13 C
Sensor: Nr:Datum:Temp:Feuchte:Taupunkt:
Aussen-T/F 1876 15-08-2008 18:57:03 24.1 C 32 % 6.39 C
1877 15-08-2008 19:09:02 24.6 C 31 % 6.36 C
1878 15-08-2008 19:21:02 24.6 C 30 % 5.89 C
1879 15-08-2008 19:33:02 24.7 C 31 % 6.45 C
1880 15-08-2008 19:45:01 24.2 C 33 % 6.92 C
1881 15-08-2008 19:57:01 22 C 38 % 7.04 C
1882 15-08-2008 20:09:02 20.6 C 42 % 7.25 C
1883 15-08-2008 20:21:01 19.9 C 44 % 7.3 C
1884 15-08-2008 20:33:02 19.4 C 45 % 7.17 C
1885 15-08-2008 20:45:03 19.1 C 46 % 7.22 C
1886 15-08-2008 20:57:03 18.9 C 48 % 7.66 C
1887 15-08-2008 21:09:02 18.4 C 50 % 7.8 C
1888 15-08-2008 21:21:02 18.1 C 49 % 7.23 C
1889 15-08-2008 21:33:02 18.2 C 52 % 8.19 C
1890 15-08-2008 21:45:01 18 C 52 % 8.01 C
1891 15-08-2008 21:57:01 17.7 C 57 % 9.08 C
1892 15-08-2008 22:10:03 17.1 C 62 % 9.77 C
1893 15-08-2008 22:22:03 17.1 C 61 % 9.53 C
1894 15-08-2008 22:34:03 16.8 C 61 % 9.24 C
1895 15-08-2008 22:46:03 16.7 C 61 % 9.15 C
1896 15-08-2008 22:58:03 17 C 57 % 8.43 C
1897 15-08-2008 23:10:03 17 C 57 % 8.43 C
1898 15-08-2008 23:22:03 16.7 C 59 % 8.66 C
1899 15-08-2008 23:34:03 16.3 C 60 % 8.53 C
1900 15-08-2008 23:46:04 16 C 61 % 8.49 C
Sensor: Nr:Datum:Temp:Feuchte:Taupunkt:
Aussen-T/F 1901 15-08-2008 23:58:04 15.8 C 62 % 8.54 C
1902 16-08-2008 00:10:04 15.4 C 64 % 8.63 C
1903 16-08-2008 00:22:04 15.4 C 64 % 8.63 C
1904 16-08-2008 00:34:04 15.1 C 66 % 8.8 C
1905 16-08-2008 00:46:04 14.8 C 66 % 8.52 C
1906 16-08-2008 00:58:04 14.7 C 68 % 8.86 C
1907 16-08-2008 01:10:04 14.4 C 70 % 9 C
1908 16-08-2008 01:22:04 14.1 C 70 % 8.72 C
1909 16-08-2008 01:34:04 14.1 C 71 % 8.93 C
1910 16-08-2008 01:46:04 13.9 C 72 % 8.94 C
1911 16-08-2008 01:58:04 13.9 C 73 % 9.15 C
1912 16-08-2008 02:10:04 13.7 C 73 % 8.95 C
1913 16-08-2008 02:22:04 13.5 C 74 % 8.96 C
1914 16-08-2008 02:34:04 13.4 C 74 % 8.87 C
1915 16-08-2008 02:46:04 13.2 C 74 % 8.67 C
1916 16-08-2008 02:58:04 13.1 C 75 % 8.77 C
1917 16-08-2008 03:10:04 12.9 C 76 % 8.78 C
1918 16-08-2008 03:22:04 12.7 C 78 % 8.97 C
1919 16-08-2008 03:34:04 12.5 C 78 % 8.77 C
1920 16-08-2008 03:46:04 12.4 C 78 % 8.68 C
1921 16-08-2008 03:58:05 12.4 C 79 % 8.86 C
1922 16-08-2008 04:10:05 12.1 C 79 % 8.57 C
1923 16-08-2008 04:22:05 12 C 81 % 8.84 C
1924 16-08-2008 04:34:05 11.8 C 82 % 8.83 C
1925 16-08-2008 04:46:05 11.6 C 83 % 8.81 C
Sensor: Nr:Datum:Temp:Feuchte:Taupunkt:
Aussen-T/F 1926 16-08-2008 04:58:05 11.5 C 83 % 8.72 C
1927 16-08-2008 05:10:05 11.4 C 83 % 8.62 C
1928 16-08-2008 05:22:05 11.2 C 83 % 8.42 C
1929 16-08-2008 05:34:05 11.1 C 83 % 8.33 C
1930 16-08-2008 05:46:05 11 C 84 % 8.4 C
1931 16-08-2008 05:58:05 10.8 C 84 % 8.21 C
1932 16-08-2008 06:10:05 10.8 C 84 % 8.21 C
1933 16-08-2008 06:22:05 10.7 C 84 % 8.11 C
1934 16-08-2008 06:34:05 10.6 C 84 % 8.01 C
1935 16-08-2008 06:46:05 10.5 C 85 % 8.09 C
1936 16-08-2008 06:58:05 10.5 C 85 % 8.09 C
1937 16-08-2008 07:10:05 10.6 C 85 % 8.19 C
1938 16-08-2008 07:22:02 10.7 C 84 % 8.11 C
1939 16-08-2008 07:34:03 10.8 C 84 % 8.21 C
1940 16-08-2008 07:46:02 10.9 C 84 % 8.31 C
1941 16-08-2008 07:58:02 11 C 84 % 8.4 C
1942 16-08-2008 08:10:02 11.1 C 84 % 8.5 C
1943 16-08-2008 08:22:02 11.4 C 84 % 8.8 C
1944 16-08-2008 08:34:02 11.6 C 84 % 8.99 C
1945 16-08-2008 08:46:03 12 C 82 % 9.03 C
1946 16-08-2008 08:58:03 12.2 C 80 % 8.86 C
1947 16-08-2008 09:10:02 12.6 C 79 % 9.06 C
1948 16-08-2008 09:22:03 13 C 76 % 8.87 C
1949 16-08-2008 09:34:02 13.5 C 75 % 9.16 C
1950 16-08-2008 09:46:02 14.1 C 72 % 9.13 C
Sensor: Nr:Datum:Temp:Feuchte:Taupunkt:
Aussen-T/F 1951 16-08-2008 09:58:02 14.7 C 69 % 9.08 C
1952 16-08-2008 10:10:02 15.3 C 67 % 9.21 C
1953 16-08-2008 10:22:02 16.1 C 64 % 9.29 C
1954 16-08-2008 10:34:02 16.7 C 62 % 9.39 C
1955 16-08-2008 10:46:02 17.4 C 59 % 9.31 C
1956 16-08-2008 10:58:02 18.1 C 55 % 8.93 C
1957 16-08-2008 11:10:01 18.9 C 53 % 9.12 C
1958 16-08-2008 11:22:02 20 C 50 % 9.27 C
1959 16-08-2008 11:34:01 20.7 C 46 % 8.67 C
1960 16-08-2008 11:46:01 20.4 C 44 % 7.75 C
1961 16-08-2008 11:58:01 20.8 C 44 % 8.11 C
1962 16-08-2008 12:10:01 21.4 C 39 % 6.89 C
1963 16-08-2008 12:22:01 22.1 C 35 % 5.94 C
1964 16-08-2008 12:34:01 22.5 C 35 % 6.29 C
1965 16-08-2008 12:46:01 22.4 C 31 % 4.46 C
1966 16-08-2008 12:58:01 22.5 C 29 % 3.6 C
1967 16-08-2008 13:10:02 22.7 C 28 % 3.27 C
1968 16-08-2008 13:22:01 23.5 C 26 % 2.91 C
1969 16-08-2008 13:34:02 24.8 C 26 % 4.01 C
1970 16-08-2008 13:46:02 25.1 C 23 % 2.53 C
1971 16-08-2008 13:58:03 25.2 C 21 % 1.34 C
1972 16-08-2008 14:10:02 24.8 C 22 % 1.66 C
1973 16-08-2008 14:22:02 25.7 C 23 % 3.03 C
1974 16-08-2008 14:34:01 26.7 C 20 % 1.9 C
1975 16-08-2008 14:46:02 26.8 C 20 % 1.98 C
Sensor: Nr:Datum:Temp:Feuchte:Taupunkt:
Aussen-T/F 1976 16-08-2008 14:58:02 27.2 C 20 % 2.31 C
1977 16-08-2008 15:10:02 27.8 C 20 % 2.8 C
1978 16-08-2008 15:22:02 28.3 C 20 % 3.21 C
1979 16-08-2008 15:34:02 28.8 C 20 % 3.62 C
1980 16-08-2008 15:46:01 29.4 C 20 % 4.11 C
1981 16-08-2008 15:58:01 29.9 C 20 % 4.52 C
1982 16-08-2008 16:10:02 30.2 C 20 % 4.77 C
1983 16-08-2008 16:22:01 29.8 C 20 % 4.44 C
1984 16-08-2008 16:34:02 29.8 C 20 % 4.44 C
1985 16-08-2008 16:46:02 30.2 C 20 % 4.77 C
1986 16-08-2008 16:58:02 30.6 C 20 % 5.1 C
1987 16-08-2008 17:10:02 30.9 C 20 % 5.34 C
1988 16-08-2008 17:22:02 29.2 C 20 % 3.95 C
1989 16-08-2008 17:34:02 28.6 C 20 % 3.46 C
1990 16-08-2008 17:46:02 29 C 20 % 3.79 C
1991 16-08-2008 17:58:02 29.5 C 20 % 4.2 C
1992 16-08-2008 18:10:01 30.3 C 20 % 4.85 C
1993 16-08-2008 18:22:02 30.3 C 20 % 4.85 C
1994 16-08-2008 18:34:01 30.3 C 20 % 4.85 C
1995 16-08-2008 18:46:01 30.1 C 20 % 4.69 C
1996 16-08-2008 18:58:01 29.7 C 20 % 4.36 C
1997 16-08-2008 19:10:02 28.4 C 20 % 3.29 C
1998 16-08-2008 19:22:01 26.5 C 25 % 4.89 C
1999 16-08-2008 19:34:02 24.9 C 27 % 4.63 C
2000 16-08-2008 19:46:01 23.6 C 30 % 5.03 C
Sensor: Nr:Datum:Temp:Feuchte:Taupunkt:
Aussen-T/F 2001 16-08-2008 19:58:01 22.8 C 31 % 4.8 C
2002 16-08-2008 20:10:02 22 C 33 % 5 C
2003 16-08-2008 20:22:02 21.3 C 35 % 5.23 C
2004 16-08-2008 20:34:02 20.8 C 37 % 5.59 C
2005 16-08-2008 20:46:02 20.6 C 38 % 5.8 C
2006 16-08-2008 20:58:02 19.6 C 41 % 6 C
2007 16-08-2008 21:10:02 19.2 C 41 % 5.64 C
2008 16-08-2008 21:22:01 19 C 42 % 5.81 C
2009 16-08-2008 21:34:02 18.9 C 43 % 6.06 C
2010 16-08-2008 21:46:02 18.7 C 44 % 6.21 C
2011 16-08-2008 21:58:02 18.6 C 45 % 6.45 C
2012 16-08-2008 22:10:02 18.5 C 46 % 6.67 C
2013 16-08-2008 22:23:02 18.5 C 46 % 6.67 C
2014 16-08-2008 22:35:02 18.2 C 46 % 6.4 C
2015 16-08-2008 22:47:02 18.2 C 46 % 6.4 C
2016 16-08-2008 22:59:02 18 C 46 % 6.22 C
2017 16-08-2008 23:11:02 17.8 C 50 % 7.25 C
2018 16-08-2008 23:23:02 17.5 C 52 % 7.54 C
2019 16-08-2008 23:35:02 17.3 C 50 % 6.79 C
2020 16-08-2008 23:47:02 17.1 C 51 % 6.89 C
2021 16-08-2008 23:59:03 16.9 C 50 % 6.42 C
2022 17-08-2008 00:11:03 16.6 C 50 % 6.15 C
2023 17-08-2008 00:23:03 16.2 C 51 % 6.06 C
2024 17-08-2008 00:35:03 16.1 C 53 % 6.53 C
2025 17-08-2008 00:47:03 15.9 C 54 % 6.61 C
Sensor: Nr:Datum:Temp:Feuchte:Taupunkt:
Aussen-T/F 2026 17-08-2008 00:59:03 15.8 C 55 % 6.79 C
2027 17-08-2008 01:11:03 15.6 C 56 % 6.86 C
2028 17-08-2008 01:23:03 15.3 C 57 % 6.84 C
2029 17-08-2008 01:35:03 15.1 C 58 % 6.91 C
2030 17-08-2008 01:47:03 14.9 C 59 % 6.97 C
2031 17-08-2008 01:59:03 14.8 C 60 % 7.12 C
2032 17-08-2008 02:11:03 14.7 C 60 % 7.03 C
2033 17-08-2008 02:23:03 14.4 C 61 % 6.98 C
2034 17-08-2008 02:35:03 14.4 C 62 % 7.22 C
2035 17-08-2008 02:47:03 14.3 C 62 % 7.13 C
2036 17-08-2008 02:59:03 14.1 C 63 % 7.17 C
2037 17-08-2008 03:11:03 13.8 C 66 % 7.57 C
2038 17-08-2008 03:23:03 13.7 C 66 % 7.47 C
2039 17-08-2008 03:35:03 13.7 C 66 % 7.47 C
2040 17-08-2008 03:47:03 13.5 C 66 % 7.28 C
2041 17-08-2008 03:59:03 13.6 C 66 % 7.38 C
2042 17-08-2008 04:11:04 13.4 C 67 % 7.4 C
2043 17-08-2008 04:23:04 13.1 C 68 % 7.34 C
2044 17-08-2008 04:35:04 13.1 C 69 % 7.55 C
2045 17-08-2008 04:47:04 12.9 C 70 % 7.57 C
2046 17-08-2008 04:59:04 12.9 C 70 % 7.57 C
2047 17-08-2008 05:11:04 12.8 C 71 % 7.68 C
2048 17-08-2008 05:23:04 12.7 C 71 % 7.58 C
2049 17-08-2008 05:35:04 12.5 C 72 % 7.6 C
2050 17-08-2008 05:47:04 12.3 C 72 % 7.4 C
Sensor: Nr:Datum:Temp:Feuchte:Taupunkt:
Aussen-T/F 2051 17-08-2008 05:59:04 12.4 C 73 % 7.7 C
2052 17-08-2008 06:11:04 12.2 C 73 % 7.51 C
2053 17-08-2008 06:23:04 12.1 C 74 % 7.61 C
2054 17-08-2008 06:35:04 11.9 C 76 % 7.81 C
2055 17-08-2008 06:47:04 11.9 C 76 % 7.81 C
2056 17-08-2008 06:59:04 12 C 75 % 7.71 C
2057 17-08-2008 07:11:04 12 C 75 % 7.71 C
2058 17-08-2008 07:23:04 12 C 76 % 7.91 C
2059 17-08-2008 07:35:04 12 C 76 % 7.91 C
2060 17-08-2008 07:47:04 12.1 C 76 % 8 C
2061 17-08-2008 07:59:04 12.5 C 76 % 8.39 C
2062 17-08-2008 08:11:05 12.5 C 76 % 8.39 C
2063 17-08-2008 08:23:05 12.6 C 75 % 8.29 C
2064 17-08-2008 08:35:05 12.9 C 75 % 8.58 C
2065 17-08-2008 08:47:05 13.2 C 73 % 8.47 C
2066 17-08-2008 08:59:05 13.6 C 72 % 8.65 C
2067 17-08-2008 09:11:02 13.9 C 71 % 8.73 C
2068 17-08-2008 09:23:03 14.6 C 68 % 8.77 C
2069 17-08-2008 09:35:03 15.1 C 65 % 8.58 C
2070 17-08-2008 09:47:01 15.5 C 64 % 8.73 C
2071 17-08-2008 09:59:01 16.2 C 63 % 9.16 C
2072 17-08-2008 10:11:03 17.1 C 61 % 9.53 C
2073 17-08-2008 10:23:02 17.8 C 59 % 9.69 C
2074 17-08-2008 10:35:02 18.7 C 57 % 10.02 C
2075 17-08-2008 10:47:02 19.6 C 53 % 9.77 C
Sensor: Nr:Datum:Temp:Feuchte:Taupunkt:
Aussen-T/F 2076 17-08-2008 10:59:02 20.2 C 51 % 9.75 C
2077 17-08-2008 11:11:03 21 C 47 % 9.27 C
2078 17-08-2008 11:23:03 21.8 C 46 % 9.67 C
2079 17-08-2008 11:35:03 22.5 C 41 % 8.6 C
2080 17-08-2008 11:47:02 22.9 C 38 % 7.84 C
2081 17-08-2008 11:59:02 23.1 C 35 % 6.82 C
2082 17-08-2008 12:11:02 23.7 C 32 % 6.04 C
2083 17-08-2008 12:23:02 24.3 C 30 % 5.63 C
2084 17-08-2008 12:35:02 24.1 C 26 % 3.42 C
2085 17-08-2008 12:47:03 24.5 C 25 % 3.2 C
2086 17-08-2008 12:59:03 24.5 C 21 % 0.76 C
2087 17-08-2008 13:11:02 25 C 21 % 1.18 C
2088 17-08-2008 13:23:02 25.5 C 20 % 0.91 C
2089 17-08-2008 13:35:02 26.4 C 20 % 1.65 C
2090 17-08-2008 13:47:02 26.1 C 20 % 1.41 C
2091 17-08-2008 13:59:02 26.6 C 20 % 1.82 C
2092 17-08-2008 14:11:02 26.3 C 20 % 1.57 C
2093 17-08-2008 14:23:01 26.2 C 21 % 2.17 C
2094 17-08-2008 14:35:01 26.8 C 21 % 2.67 C
2095 17-08-2008 14:47:01 26.8 C 22 % 3.32 C
2096 17-08-2008 14:59:01 25.9 C 23 % 3.2 C
2097 17-08-2008 15:11:02 25.1 C 24 % 3.13 C
2098 17-08-2008 15:23:01 25.3 C 24 % 3.3 C
2099 17-08-2008 15:35:01 25.7 C 25 % 4.21 C
2100 17-08-2008 15:47:02 27.6 C 21 % 3.33 C
Sensor: Nr:Datum:Temp:Feuchte:Taupunkt:
Aussen-T/F 2101 17-08-2008 15:59:02 28.5 C 21 % 4.07 C
2102 17-08-2008 16:11:02 27.9 C 21 % 3.57 C
2103 17-08-2008 16:23:02 27.1 C 22 % 3.57 C
2104 17-08-2008 16:35:01 27.1 C 21 % 2.91 C
2105 17-08-2008 16:47:02 26.3 C 22 % 2.91 C
2106 17-08-2008 16:59:02 26.6 C 22 % 3.15 C
2107 17-08-2008 17:11:01 26.3 C 23 % 3.53 C
2108 17-08-2008 17:23:02 26 C 24 % 3.89 C
2109 17-08-2008 17:35:01 25.9 C 27 % 5.48 C
2110 17-08-2008 17:47:01 25.4 C 26 % 4.52 C
2111 17-08-2008 17:59:01 25.4 C 29 % 6.09 C
2112 17-08-2008 18:11:02 25.2 C 30 % 6.41 C
2113 17-08-2008 18:23:01 25.2 C 28 % 5.41 C
2114 17-08-2008 18:35:02 24.9 C 30 % 6.15 C
2115 17-08-2008 18:47:02 24.6 C 30 % 5.89 C
2116 17-08-2008 18:59:02 24.6 C 31 % 6.36 C
2117 17-08-2008 19:11:02 25.4 C 30 % 6.58 C
2118 17-08-2008 19:23:02 24.8 C 32 % 7 C
2119 17-08-2008 19:35:02 23.9 C 36 % 7.93 C
2120 17-08-2008 19:47:01 23.7 C 36 % 7.75 C
2121 17-08-2008 19:59:01 24.1 C 36 % 8.11 C
2122 17-08-2008 20:11:01 23.3 C 38 % 8.19 C
2123 17-08-2008 20:23:01 22.1 C 40 % 7.88 C
2124 17-08-2008 20:35:02 21.4 C 43 % 8.31 C
2125 17-08-2008 20:47:02 21.1 C 43 % 8.04 C
Sensor: Nr:Datum:Temp:Feuchte:Taupunkt:
Aussen-T/F 2126 17-08-2008 20:59:02 20.8 C 46 % 8.77 C
2127 17-08-2008 21:11:02 20.8 C 45 % 8.44 C
2128 17-08-2008 21:23:02 21 C 44 % 8.29 C
2129 17-08-2008 21:35:02 20.1 C 55 % 10.78 C
2130 17-08-2008 21:47:02 17.7 C 75 % 13.22 C
2131 17-08-2008 21:59:02 17.3 C 81 % 14.01 C
2132 17-08-2008 22:11:01 17.4 C 83 % 14.48 C
2133 17-08-2008 22:23:02 17.6 C 84 % 14.87 C
2134 17-08-2008 22:36:02 17.3 C 82 % 14.2 C
2135 17-08-2008 22:48:02 17.2 C 81 % 13.91 C
2136 17-08-2008 23:00:02 17 C 81 % 13.72 C
2137 17-08-2008 23:12:02 16.8 C 81 % 13.52 C
2138 17-08-2008 23:24:02 16.5 C 81 % 13.23 C
2139 17-08-2008 23:36:02 16.3 C 82 % 13.22 C
2140 17-08-2008 23:48:02 16.1 C 82 % 13.03 C
2141 18-08-2008 00:00:02 16.1 C 82 % 13.03 C
2142 18-08-2008 00:12:02 16 C 82 % 12.93 C
2143 18-08-2008 00:24:02 16.1 C 82 % 13.03 C
2144 18-08-2008 00:36:03 16.1 C 82 % 13.03 C
2145 18-08-2008 00:48:03 16.4 C 82 % 13.32 C
2146 18-08-2008 01:00:03 16.5 C 81 % 13.23 C
2147 18-08-2008 01:12:03 16.5 C 81 % 13.23 C
2148 18-08-2008 01:24:03 16.6 C 81 % 13.33 C
2149 18-08-2008 01:36:03 16.5 C 81 % 13.23 C
2150 18-08-2008 01:48:03 16.6 C 81 % 13.33 C
Sensor: Nr:Datum:Temp:Feuchte:Taupunkt:
Aussen-T/F 2151 18-08-2008 02:00:03 16.6 C 81 % 13.33 C
2152 18-08-2008 02:12:03 16.6 C 81 % 13.33 C
2153 18-08-2008 02:24:03 16.6 C 81 % 13.33 C
2154 18-08-2008 02:36:03 16.7 C 81 % 13.43 C
2155 18-08-2008 02:48:03 16.4 C 81 % 13.13 C
2156 18-08-2008 03:00:03 16.3 C 82 % 13.22 C
2157 18-08-2008 03:12:03 16.2 C 82 % 13.13 C
2158 18-08-2008 03:24:03 16 C 82 % 12.93 C
2159 18-08-2008 03:36:03 15.8 C 84 % 13.1 C
2160 18-08-2008 03:48:03 15.5 C 84 % 12.81 C
2161 18-08-2008 04:00:03 15.4 C 84 % 12.71 C
2162 18-08-2008 04:12:03 15.4 C 85 % 12.89 C
2163 18-08-2008 04:24:03 15.4 C 85 % 12.89 C
2164 18-08-2008 04:36:03 15.4 C 85 % 12.89 C
2165 18-08-2008 04:48:04 15.5 C 85 % 12.99 C
2166 18-08-2008 05:00:04 15.5 C 85 % 12.99 C
2167 18-08-2008 05:12:04 15.7 C 86 % 13.37 C
2168 18-08-2008 05:24:04 15.8 C 85 % 13.28 C
2169 18-08-2008 05:36:04 15.7 C 84 % 13.01 C
2170 18-08-2008 05:48:04 15.8 C 85 % 13.28 C
2171 18-08-2008 06:00:04 15.9 C 84 % 13.2 C
2172 18-08-2008 06:12:04 15.9 C 84 % 13.2 C
2173 18-08-2008 06:24:04 15.5 C 84 % 12.81 C
2174 18-08-2008 06:36:04 15.3 C 84 % 12.61 C
2175 18-08-2008 06:48:02 15.2 C 85 % 12.7 C
Sensor: Nr:Datum:Temp:Feuchte:Taupunkt:
Aussen-T/F 2176 18-08-2008 07:00:03 15.2 C 85 % 12.7 C
2177 18-08-2008 07:12:02 15.2 C 86 % 12.88 C
2178 18-08-2008 07:24:02 15.2 C 86 % 12.88 C
2179 18-08-2008 07:36:02 15.2 C 87 % 13.05 C
2180 18-08-2008 07:48:02 15.3 C 87 % 13.15 C
2181 18-08-2008 08:00:02 15.5 C 87 % 13.35 C
2182 18-08-2008 08:12:01 15.9 C 86 % 13.56 C
2183 18-08-2008 08:24:02 16.4 C 84 % 13.69 C
2184 18-08-2008 08:36:01 16.8 C 82 % 13.71 C
2185 18-08-2008 08:48:02 17.1 C 79 % 13.43 C
2186 18-08-2008 09:00:02 17.9 C 77 % 13.81 C
2187 18-08-2008 09:12:01 18.3 C 74 % 13.59 C
2188 18-08-2008 09:24:01 18.8 C 73 % 13.86 C
2189 18-08-2008 09:36:01 19.6 C 69 % 13.76 C
2190 18-08-2008 09:48:02 20 C 63 % 12.75 C
2191 18-08-2008 10:00:02 20.1 C 63 % 12.84 C
2192 18-08-2008 10:12:02 20.4 C 61 % 12.63 C
2193 18-08-2008 10:24:02 20.6 C 62 % 13.07 C
2194 18-08-2008 10:36:02 21 C 58 % 12.43 C
2195 18-08-2008 10:48:02 21.3 C 56 % 12.17 C
2196 18-08-2008 11:00:02 21.6 C 54 % 11.9 C
2197 18-08-2008 11:12:02 22 C 54 % 12.27 C
2198 18-08-2008 11:24:03 22.5 C 52 % 12.16 C
2199 18-08-2008 11:36:02 22.7 C 48 % 11.13 C
2200 18-08-2008 11:48:02 23.2 C 47 % 11.27 C
Sensor: Nr:Datum:Temp:Feuchte:Taupunkt:
Aussen-T/F 2201 18-08-2008 12:00:02 23.8 C 44 % 10.82 C
2202 18-08-2008 12:12:02 23.9 C 44 % 10.91 C
2203 18-08-2008 12:24:02 23.5 C 45 % 10.89 C
2204 18-08-2008 12:36:02 23.6 C 44 % 10.64 C
2205 18-08-2008 12:48:01 23.5 C 44 % 10.55 C
2206 18-08-2008 13:00:01 23.7 C 44 % 10.73 C
2207 18-08-2008 13:12:02 24.1 C 43 % 10.75 C
2208 18-08-2008 13:24:01 24.8 C 40 % 10.29 C
2209 18-08-2008 13:36:02 25.5 C 38 % 10.15 C
2210 18-08-2008 13:48:02 25.9 C 36 % 9.69 C
2211 18-08-2008 14:00:02 24.7 C 38 % 9.44 C
2212 18-08-2008 14:12:02 24.6 C 39 % 9.73 C
2213 18-08-2008 14:24:02 23.9 C 43 % 10.57 C
2214 18-08-2008 14:36:02 24.7 C 40 % 10.2 C
2215 18-08-2008 14:48:01 25.3 C 37 % 9.57 C
2216 18-08-2008 15:00:01 25.4 C 36 % 9.25 C
2217 18-08-2008 15:12:01 25.5 C 35 % 8.92 C
2218 18-08-2008 15:24:01 25.3 C 35 % 8.75 C
2219 18-08-2008 15:36:02 25.2 C 35 % 8.66 C
2220 18-08-2008 15:48:02 25.1 C 35 % 8.57 C
2221 18-08-2008 16:00:02 25.4 C 37 % 9.66 C
2222 18-08-2008 16:12:02 25.7 C 38 % 10.32 C
2223 18-08-2008 16:24:02 26.2 C 35 % 9.54 C
2224 18-08-2008 16:36:02 26.4 C 34 % 9.28 C
2225 18-08-2008 16:48:02 27.9 C 30 % 8.73 C
Sensor: Nr:Datum:Temp:Feuchte:Taupunkt:
Aussen-T/F 2226 18-08-2008 17:00:02 29 C 27 % 8.12 C
2227 18-08-2008 17:12:02 29.8 C 24 % 7.07 C
2228 18-08-2008 17:24:02 29.4 C 25 % 7.33 C
2229 18-08-2008 17:36:02 28.6 C 25 % 6.66 C
2230 18-08-2008 17:48:02 29.7 C 23 % 6.37 C
2231 18-08-2008 18:00:02 30 C 23 % 6.62 C
2232 18-08-2008 18:12:03 29.6 C 23 % 6.28 C
2233 18-08-2008 18:24:02 28.5 C 25 % 6.57 C
2234 18-08-2008 18:36:03 28.9 C 25 % 6.91 C
2235 18-08-2008 18:48:02 28 C 26 % 6.72 C
2236 18-08-2008 19:00:03 28 C 27 % 7.27 C
2237 18-08-2008 19:12:01 28 C 27 % 7.27 C
2238 18-08-2008 19:24:02 27.5 C 29 % 7.89 C
2239 18-08-2008 19:36:01 27.6 C 29 % 7.97 C
2240 18-08-2008 19:48:02 28.2 C 30 % 8.99 C
2241 18-08-2008 20:00:02 27.5 C 31 % 8.87 C
2242 18-08-2008 20:12:01 26.3 C 35 % 9.63 C
2243 18-08-2008 20:24:02 25.3 C 38 % 9.97 C
2244 18-08-2008 20:36:01 24.6 C 41 % 10.48 C
2245 18-08-2008 20:48:03 24.1 C 42 % 10.39 C
2246 18-08-2008 21:00:03 23.7 C 45 % 11.07 C
2247 18-08-2008 21:12:02 23.4 C 44 % 10.46 C
2248 18-08-2008 21:24:03 23 C 46 % 10.76 C
2249 18-08-2008 21:36:02 22.8 C 46 % 10.58 C
2250 18-08-2008 21:48:02 22.6 C 48 % 11.04 C
Sensor: Nr:Datum:Temp:Feuchte:Taupunkt:
Aussen-T/F 2251 18-08-2008 22:00:02 22.4 C 47 % 10.54 C
2252 18-08-2008 22:13:01 22.4 C 47 % 10.54 C
2253 18-08-2008 22:25:01 22.3 C 48 % 10.77 C
2254 18-08-2008 22:37:01 22.1 C 49 % 10.89 C
2255 18-08-2008 22:49:01 22 C 48 % 10.49 C
2256 18-08-2008 23:01:01 21.9 C 49 % 10.71 C
2257 18-08-2008 23:13:01 22 C 47 % 10.18 C
2258 18-08-2008 23:25:01 21.8 C 51 % 11.22 C
2259 18-08-2008 23:37:01 21.7 C 52 % 11.42 C
2260 18-08-2008 23:49:01 21.6 C 52 % 11.33 C
2261 19-08-2008 00:01:01 21.8 C 52 % 11.51 C
2262 19-08-2008 00:13:01 22 C 53 % 11.99 C
2263 19-08-2008 00:25:02 20.7 C 63 % 13.41 C
2264 19-08-2008 00:37:02 20.5 C 66 % 13.93 C
2265 19-08-2008 00:49:02 20.5 C 67 % 14.16 C
2266 19-08-2008 01:01:02 20.6 C 68 % 14.49 C
2267 19-08-2008 01:13:02 20.2 C 68 % 14.11 C
2268 19-08-2008 01:25:02 19.8 C 69 % 13.95 C
2269 19-08-2008 01:37:02 19.7 C 69 % 13.86 C
2270 19-08-2008 01:49:02 19.5 C 70 % 13.89 C
2271 19-08-2008 02:01:02 19.5 C 70 % 13.89 C
2272 19-08-2008 02:13:02 19.2 C 70 % 13.6 C
2273 19-08-2008 02:25:02 19.3 C 71 % 13.91 C
2274 19-08-2008 02:37:02 19.1 C 71 % 13.72 C
2275 19-08-2008 02:49:02 18.9 C 73 % 13.96 C
Sensor: Nr:Datum:Temp:Feuchte:Taupunkt:
Aussen-T/F 2276 19-08-2008 03:01:02 18.7 C 73 % 13.76 C
2277 19-08-2008 03:13:02 18.8 C 74 % 14.07 C
2278 19-08-2008 03:25:02 19 C 73 % 14.05 C
2279 19-08-2008 03:37:02 18.9 C 73 % 13.96 C
2280 19-08-2008 03:49:02 18.7 C 73 % 13.76 C
2281 19-08-2008 04:01:02 18.6 C 74 % 13.88 C
2282 19-08-2008 04:13:02 18.5 C 74 % 13.78 C
2283 19-08-2008 04:25:03 18.5 C 74 % 13.78 C
2284 19-08-2008 04:37:03 18.9 C 70 % 13.31 C
2285 19-08-2008 04:49:03 19.1 C 65 % 12.37 C
2286 19-08-2008 05:01:03 19.2 C 65 % 12.47 C
2287 19-08-2008 05:13:03 19 C 65 % 12.28 C
2288 19-08-2008 05:25:03 18.8 C 67 % 12.55 C
2289 19-08-2008 05:37:03 18.6 C 68 % 12.58 C
2290 19-08-2008 05:49:03 18.3 C 69 % 12.52 C
2291 19-08-2008 06:01:03 18.3 C 69 % 12.52 C
2292 19-08-2008 06:13:03 18.3 C 66 % 11.84 C
2293 19-08-2008 06:25:03 18.5 C 63 % 11.33 C
2294 19-08-2008 06:37:03 18.7 C 61 % 11.03 C
2295 19-08-2008 06:49:03 18.5 C 61 % 10.84 C
2296 19-08-2008 07:01:02 18.5 C 60 % 10.6 C
2297 19-08-2008 07:13:02 18.4 C 61 % 10.75 C
2298 19-08-2008 07:25:02 18.2 C 62 % 10.81 C
2299 19-08-2008 07:37:02 18 C 63 % 10.86 C
2300 19-08-2008 07:49:02 18.5 C 60 % 10.6 C
Sensor: Nr:Datum:Temp:Feuchte:Taupunkt:
Aussen-T/F 2301 19-08-2008 08:01:03 19 C 57 % 10.3 C
2302 19-08-2008 08:13:03 19.4 C 53 % 9.58 C
2303 19-08-2008 08:25:02 19.5 C 53 % 9.67 C
2304 19-08-2008 08:37:02 19.7 C 52 % 9.58 C
2305 19-08-2008 08:49:02 19.9 C 50 % 9.18 C
2306 19-08-2008 09:01:02 20 C 49 % 8.97 C
2307 19-08-2008 09:13:02 20.2 C 49 % 9.15 C
2308 19-08-2008 09:25:02 20.1 C 49 % 9.06 C
2309 19-08-2008 09:37:02 20 C 49 % 8.97 C
2310 19-08-2008 09:49:02 20.2 C 50 % 9.45 C
2311 19-08-2008 10:01:02 20.3 C 49 % 9.24 C
2312 19-08-2008 10:13:02 20.7 C 49 % 9.61 C
2313 19-08-2008 10:25:02 21 C 47 % 9.27 C
2314 19-08-2008 10:37:02 20.8 C 49 % 9.7 C
2315 19-08-2008 10:49:02 21.2 C 48 % 9.76 C
2316 19-08-2008 11:01:02 21.3 C 48 % 9.85 C
2317 19-08-2008 11:13:02 21.6 C 47 % 9.81 C
2318 19-08-2008 11:25:02 21.5 C 47 % 9.72 C
2319 19-08-2008 11:37:02 22.2 C 45 % 9.71 C
2320 19-08-2008 11:49:02 21.9 C 45 % 9.44 C
2321 19-08-2008 12:01:03 22.6 C 44 % 9.74 C
2322 19-08-2008 12:13:03 22.7 C 42 % 9.14 C
2323 19-08-2008 12:25:02 22.5 C 42 % 8.96 C
2324 19-08-2008 12:37:03 22.7 C 41 % 8.78 C
2325 19-08-2008 12:49:02 22.8 C 40 % 8.5 C
Sensor: Nr:Datum:Temp:Feuchte:Taupunkt:
Aussen-T/F 2326 19-08-2008 13:01:01 23 C 39 % 8.31 C
2327 19-08-2008 13:13:01 23.5 C 38 % 8.37 C
2328 19-08-2008 13:25:02 23.9 C 38 % 8.73 C
2329 19-08-2008 13:37:01 23.7 C 37 % 8.16 C
2330 19-08-2008 13:49:02 23.7 C 38 % 8.55 C
2331 19-08-2008 14:01:01 24.3 C 36 % 8.28 C
2332 19-08-2008 14:13:01 24.5 C 35 % 8.05 C
2333 19-08-2008 14:25:02 24.2 C 35 % 7.78 C
2334 19-08-2008 14:37:01 23.6 C 37 % 8.07 C
2335 19-08-2008 14:49:02 23.1 C 38 % 8.02 C
2336 19-08-2008 15:01:01 23.1 C 38 % 8.02 C
2337 19-08-2008 15:13:01 23.9 C 38 % 8.73 C
2338 19-08-2008 15:25:02 24.1 C 36 % 8.11 C
2339 19-08-2008 15:37:01 24.5 C 36 % 8.46 C
2340 19-08-2008 15:49:01 24.4 C 36 % 8.37 C
2341 19-08-2008 16:01:01 23.6 C 38 % 8.46 C
2342 19-08-2008 16:13:01 23.5 C 39 % 8.76 C
2343 19-08-2008 16:25:02 23.6 C 38 % 8.46 C
2344 19-08-2008 16:37:01 24 C 36 % 8.02 C
2345 19-08-2008 16:49:01 24.1 C 36 % 8.11 C
2346 19-08-2008 17:01:01 23.9 C 37 % 8.33 C
2347 19-08-2008 17:13:01 23.6 C 38 % 8.46 C
2348 19-08-2008 17:25:01 23.5 C 39 % 8.76 C
2349 19-08-2008 17:37:01 23.2 C 40 % 8.86 C
2350 19-08-2008 17:49:01 22.8 C 41 % 8.87 C
Sensor: Nr:Datum:Temp:Feuchte:Taupunkt:
Aussen-T/F 2351 19-08-2008 18:01:02 22.9 C 43 % 9.67 C
2352 19-08-2008 18:13:02 22.8 C 42 % 9.23 C
2353 19-08-2008 18:25:01 22.6 C 42 % 9.05 C
2354 19-08-2008 18:37:02 22.5 C 43 % 9.31 C
2355 19-08-2008 18:49:02 22.3 C 43 % 9.13 C
2356 19-08-2008 19:01:02 22.2 C 44 % 9.38 C
2357 19-08-2008 19:13:02 21.8 C 46 % 9.67 C
2358 19-08-2008 19:25:02 21.5 C 47 % 9.72 C
2359 19-08-2008 19:37:02 21.4 C 49 % 10.25 C
2360 19-08-2008 19:49:01 21.3 C 50 % 10.46 C
2361 19-08-2008 20:01:01 21.3 C 50 % 10.46 C
2362 19-08-2008 20:13:01 21.5 C 49 % 10.34 C
2363 19-08-2008 20:25:01 21.2 C 50 % 10.37 C
2364 19-08-2008 20:37:02 20.8 C 52 % 10.59 C
2365 19-08-2008 20:49:02 20.4 C 53 % 10.51 C
2366 19-08-2008 21:01:02 20 C 54 % 10.42 C
2367 19-08-2008 21:13:02 19.8 C 55 % 10.51 C
2368 19-08-2008 21:25:02 19.5 C 56 % 10.5 C
2369 19-08-2008 21:37:02 19.4 C 57 % 10.67 C
2370 19-08-2008 21:50:02 19.2 C 58 % 10.74 C
2371 19-08-2008 22:02:02 19.1 C 58 % 10.65 C
2372 19-08-2008 22:14:02 19 C 59 % 10.81 C
2373 19-08-2008 22:26:02 18.9 C 60 % 10.97 C
2374 19-08-2008 22:38:02 18.9 C 60 % 10.97 C
2375 19-08-2008 22:50:02 18.9 C 60 % 10.97 C
Sensor: Nr:Datum:Temp:Feuchte:Taupunkt:
Aussen-T/F 2376 19-08-2008 23:02:02 18.8 C 61 % 11.13 C
2377 19-08-2008 23:14:02 18.5 C 62 % 11.09 C
2378 19-08-2008 23:26:02 18.6 C 62 % 11.18 C
2379 19-08-2008 23:38:03 18.3 C 64 % 11.38 C
2380 19-08-2008 23:50:03 17.8 C 69 % 12.04 C
2381 20-08-2008 00:02:03 17.7 C 69 % 11.95 C
2382 20-08-2008 00:14:03 18.1 C 66 % 11.65 C
2383 20-08-2008 00:26:03 18.2 C 65 % 11.52 C
2384 20-08-2008 00:38:03 18.1 C 66 % 11.65 C
2385 20-08-2008 00:50:03 17.9 C 70 % 12.35 C
2386 20-08-2008 01:02:03 17.8 C 70 % 12.26 C
2387 20-08-2008 01:14:03 18.1 C 67 % 11.88 C
2388 20-08-2008 01:26:03 17 C 78 % 13.14 C
2389 20-08-2008 01:38:03 16.7 C 82 % 13.61 C
2390 20-08-2008 01:50:03 16.6 C 83 % 13.7 C
2391 20-08-2008 02:02:03 16.8 C 82 % 13.71 C
2392 20-08-2008 02:14:03 16.8 C 80 % 13.33 C
2393 20-08-2008 02:26:03 16.9 C 79 % 13.24 C
2394 20-08-2008 02:38:03 16.7 C 79 % 13.04 C
2395 20-08-2008 02:50:03 16.7 C 78 % 12.85 C
2396 20-08-2008 03:02:03 16.7 C 77 % 12.65 C
2397 20-08-2008 03:14:03 16.6 C 76 % 12.36 C
2398 20-08-2008 03:26:04 16.5 C 76 % 12.26 C
2399 20-08-2008 03:38:04 16.4 C 77 % 12.36 C
2400 20-08-2008 03:50:04 16.3 C 78 % 12.46 C
Sensor: Nr:Datum:Temp:Feuchte:Taupunkt:
Aussen-T/F 2401 20-08-2008 04:02:04 16.5 C 77 % 12.46 C
2402 20-08-2008 04:14:04 16.6 C 76 % 12.36 C
2403 20-08-2008 04:26:04 16.5 C 76 % 12.26 C
2404 20-08-2008 04:38:04 16.4 C 76 % 12.16 C
2405 20-08-2008 04:50:04 16.3 C 76 % 12.07 C
2406 20-08-2008 05:02:04 16.4 C 76 % 12.16 C
2407 20-08-2008 05:14:04 16.4 C 76 % 12.16 C
2408 20-08-2008 05:26:04 16.2 C 76 % 11.97 C
2409 20-08-2008 05:38:04 16.2 C 76 % 11.97 C
2410 20-08-2008 05:50:04 16.1 C 75 % 11.67 C
2411 20-08-2008 06:02:04 16 C 75 % 11.57 C
2412 20-08-2008 06:14:04 16.1 C 76 % 11.87 C
2413 20-08-2008 06:26:04 16 C 76 % 11.77 C
2414 20-08-2008 06:38:04 15.8 C 77 % 11.78 C
2415 20-08-2008 06:50:04 15.8 C 77 % 11.78 C
2416 20-08-2008 07:02:02 15.8 C 77 % 11.78 C
2417 20-08-2008 07:14:02 16 C 75 % 11.57 C
2418 20-08-2008 07:26:02 16.2 C 74 % 11.56 C
2419 20-08-2008 07:38:02 16.2 C 73 % 11.36 C
2420 20-08-2008 07:50:02 16.2 C 71 % 10.94 C
2421 20-08-2008 08:02:03 16.2 C 72 % 11.15 C
2422 20-08-2008 08:14:03 16.3 C 71 % 11.04 C
2423 20-08-2008 08:26:02 16.5 C 69 % 10.8 C
2424 20-08-2008 08:38:02 16.6 C 68 % 10.67 C
2425 20-08-2008 08:50:02 16.7 C 67 % 10.55 C
Sensor: Nr:Datum:Temp:Feuchte:Taupunkt:
Aussen-T/F 2426 20-08-2008 09:02:02 16.9 C 65 % 10.28 C
2427 20-08-2008 09:14:02 17 C 62 % 9.67 C
2428 20-08-2008 09:26:02 17.5 C 62 % 10.15 C
2429 20-08-2008 09:38:02 18 C 60 % 10.13 C
2430 20-08-2008 09:50:02 18.2 C 58 % 9.81 C
2431 20-08-2008 10:02:03 18.9 C 57 % 10.2 C
2432 20-08-2008 10:14:03 18.8 C 57 % 10.11 C
2433 20-08-2008 10:26:02 18.7 C 57 % 10.02 C
2434 20-08-2008 10:38:02 19.4 C 54 % 9.86 C
2435 20-08-2008 10:50:02 19.4 C 54 % 9.86 C
2436 20-08-2008 11:02:02 19.7 C 53 % 9.86 C
2437 20-08-2008 11:14:02 19.5 C 52 % 9.39 C
2438 20-08-2008 11:26:02 19.5 C 54 % 9.95 C
2439 20-08-2008 11:38:02 20.4 C 49 % 9.34 C
2440 20-08-2008 11:50:02 19.8 C 49 % 8.79 C
2441 20-08-2008 12:02:02 20.2 C 49 % 9.15 C
2442 20-08-2008 12:14:02 21.1 C 46 % 9.04 C
2443 20-08-2008 12:26:02 21.1 C 44 % 8.38 C
2444 20-08-2008 12:38:02 20.8 C 46 % 8.77 C
2445 20-08-2008 12:50:02 20.9 C 45 % 8.53 C
2446 20-08-2008 13:02:02 20.9 C 46 % 8.86 C
2447 20-08-2008 13:14:03 20.3 C 48 % 8.94 C
2448 20-08-2008 13:26:02 20.5 C 48 % 9.12 C
2449 20-08-2008 13:38:02 21.1 C 45 % 8.71 C
2450 20-08-2008 13:50:01 21.1 C 45 % 8.71 C
Sensor: Nr:Datum:Temp:Feuchte:Taupunkt:
Aussen-T/F 2451 20-08-2008 14:02:02 21.2 C 45 % 8.8 C
2452 20-08-2008 14:14:02 22 C 41 % 8.15 C
2453 20-08-2008 14:26:01 22.1 C 39 % 7.51 C
2454 20-08-2008 14:38:02 22.5 C 40 % 8.24 C
2455 20-08-2008 14:50:02 22.5 C 40 % 8.24 C
2456 20-08-2008 15:02:02 22.4 C 41 % 8.51 C
2457 20-08-2008 15:14:02 21.7 C 41 % 7.88 C
2458 20-08-2008 15:26:02 22.5 C 40 % 8.24 C
2459 20-08-2008 15:38:01 23 C 36 % 7.14 C
2460 20-08-2008 15:50:02 21.9 C 39 % 7.33 C
2461 20-08-2008 16:02:01 22.2 C 39 % 7.6 C
2462 20-08-2008 16:14:01 22.5 C 39 % 7.86 C
2463 20-08-2008 16:26:02 20.3 C 46 % 8.31 C
2464 20-08-2008 16:38:01 20.4 C 44 % 7.75 C
2465 20-08-2008 16:50:02 20.9 C 43 % 7.86 C
2466 20-08-2008 17:02:01 22.7 C 38 % 7.66 C
2467 20-08-2008 17:14:01 22.9 C 37 % 7.45 C
2468 20-08-2008 17:26:02 23.2 C 36 % 7.31 C
2469 20-08-2008 17:38:01 23.4 C 36 % 7.49 C
2470 20-08-2008 17:50:01 24.1 C 35 % 7.69 C
2471 20-08-2008 18:02:02 22.7 C 36 % 6.87 C
2472 20-08-2008 18:14:03 22.2 C 36 % 6.43 C
2473 20-08-2008 18:26:01 21.6 C 38 % 6.69 C
2474 20-08-2008 18:38:02 21.3 C 40 % 7.16 C
2475 20-08-2008 18:50:02 20.6 C 40 % 6.54 C
Sensor: Nr:Datum:Temp:Feuchte:Taupunkt:
Aussen-T/F 2476 20-08-2008 19:02:02 20.6 C 41 % 6.9 C
2477 20-08-2008 19:14:02 20.5 C 42 % 7.16 C
2478 20-08-2008 19:26:02 20.3 C 43 % 7.32 C
2479 20-08-2008 19:38:02 20.1 C 44 % 7.48 C
2480 20-08-2008 19:50:02 20 C 45 % 7.72 C
2481 20-08-2008 20:02:03 19.8 C 45 % 7.53 C
2482 20-08-2008 20:14:03 19.7 C 46 % 7.77 C
2483 20-08-2008 20:26:02 19.4 C 47 % 7.81 C
2484 20-08-2008 20:38:03 19.2 C 48 % 7.93 C
2485 20-08-2008 20:50:02 18.9 C 52 % 8.84 C
2486 20-08-2008 21:02:01 18.6 C 54 % 9.12 C
2487 20-08-2008 21:14:01 18.6 C 54 % 9.12 C
2488 20-08-2008 21:26:02 18.4 C 55 % 9.2 C
2489 20-08-2008 21:38:02 18.2 C 57 % 9.55 C
2490 20-08-2008 21:50:02 17.9 C 59 % 9.78 C
2491 20-08-2008 22:02:01 17.7 C 60 % 9.84 C
2492 20-08-2008 22:14:01 17.7 C 60 % 9.84 C
2493 20-08-2008 22:26:02 17.8 C 60 % 9.94 C
2494 20-08-2008 22:38:01 17.8 C 59 % 9.69 C
2495 20-08-2008 22:51:01 17.8 C 59 % 9.69 C
2496 20-08-2008 23:03:01 17.8 C 59 % 9.69 C
2497 20-08-2008 23:15:01 17.7 C 60 % 9.84 C
2498 20-08-2008 23:27:01 17.7 C 60 % 9.84 C
2499 20-08-2008 23:39:01 17.6 C 60 % 9.75 C
2500 20-08-2008 23:51:01 17.5 C 61 % 9.9 C
Sensor: Nr:Datum:Temp:Feuchte:Taupunkt:
Aussen-T/F 2501 21-08-2008 00:03:01 17.4 C 61 % 9.81 C
2502 21-08-2008 00:15:01 17.5 C 62 % 10.15 C
2503 21-08-2008 00:27:02 17.3 C 62 % 9.96 C
2504 21-08-2008 00:39:02 17.2 C 61 % 9.62 C
2505 21-08-2008 00:51:02 17.1 C 61 % 9.53 C
2506 21-08-2008 01:03:02 17 C 62 % 9.67 C
2507 21-08-2008 01:15:02 16.8 C 63 % 9.72 C
2508 21-08-2008 01:27:02 16.7 C 63 % 9.63 C
2509 21-08-2008 01:39:02 16.4 C 64 % 9.58 C
2510 21-08-2008 01:51:02 16.2 C 65 % 9.62 C
2511 21-08-2008 02:03:02 16 C 66 % 9.66 C
2512 21-08-2008 02:15:02 15.9 C 67 % 9.79 C
2513 21-08-2008 02:27:02 15.6 C 68 % 9.72 C
2514 21-08-2008 02:39:02 15.3 C 69 % 9.65 C
2515 21-08-2008 02:51:02 14.9 C 71 % 9.69 C
2516 21-08-2008 03:03:02 14.8 C 72 % 9.81 C
2517 21-08-2008 03:15:02 14.4 C 73 % 9.63 C
2518 21-08-2008 03:27:02 14.4 C 74 % 9.83 C
2519 21-08-2008 03:39:02 14.3 C 74 % 9.73 C
2520 21-08-2008 03:51:02 14.1 C 75 % 9.74 C
2521 21-08-2008 04:03:02 13.9 C 76 % 9.74 C
2522 21-08-2008 04:15:03 13.7 C 76 % 9.55 C
2523 21-08-2008 04:27:03 13.5 C 77 % 9.55 C
2524 21-08-2008 04:39:03 13.5 C 77 % 9.55 C
2525 21-08-2008 04:51:03 13.3 C 78 % 9.55 C
Sensor: Nr:Datum:Temp:Feuchte:Taupunkt:
Aussen-T/F 2526 21-08-2008 05:03:03 13.2 C 79 % 9.64 C
2527 21-08-2008 05:15:03 13.1 C 79 % 9.54 C
2528 21-08-2008 05:27:03 13.1 C 80 % 9.73 C
2529 21-08-2008 05:39:03 13.1 C 79 % 9.54 C
2530 21-08-2008 05:51:03 13.1 C 79 % 9.54 C
2531 21-08-2008 06:03:03 13 C 79 % 9.45 C
2532 21-08-2008 06:15:03 12.9 C 80 % 9.54 C
2533 21-08-2008 06:27:03 12.9 C 81 % 9.72 C
2534 21-08-2008 06:39:02 13.2 C 80 % 9.83 C
2535 21-08-2008 06:51:02 13.4 C 80 % 10.02 C
2536 21-08-2008 07:03:02 13.6 C 79 % 10.03 C
2537 21-08-2008 07:15:02 13.7 C 79 % 10.13 C
2538 21-08-2008 07:27:02 14 C 78 % 10.23 C
2539 21-08-2008 07:39:02 14.2 C 77 % 10.23 C
2540 21-08-2008 07:51:02 14.6 C 76 % 10.42 C
2541 21-08-2008 08:03:02 14.6 C 74 % 10.02 C
2542 21-08-2008 08:15:02 14.5 C 75 % 10.13 C
2543 21-08-2008 08:27:02 14.8 C 75 % 10.42 C
2544 21-08-2008 08:39:02 15.4 C 70 % 9.96 C
2545 21-08-2008 08:51:02 16 C 67 % 9.88 C
2546 21-08-2008 09:03:02 15.9 C 67 % 9.79 C
2547 21-08-2008 09:15:02 15.8 C 68 % 9.91 C
2548 21-08-2008 09:27:02 15.9 C 68 % 10.01 C
2549 21-08-2008 09:39:02 16.3 C 68 % 10.39 C
2550 21-08-2008 09:51:02 16.8 C 67 % 10.64 C
Sensor: Nr:Datum:Temp:Feuchte:Taupunkt:
Aussen-T/F 2551 21-08-2008 10:03:01 17.3 C 64 % 10.43 C
2552 21-08-2008 10:15:02 17.8 C 61 % 10.18 C
2553 21-08-2008 10:27:02 18.4 C 59 % 10.25 C
2554 21-08-2008 10:39:01 19.1 C 55 % 9.86 C
2555 21-08-2008 10:51:02 20.6 C 48 % 9.21 C
2556 21-08-2008 11:03:01 20.3 C 47 % 8.63 C
2557 21-08-2008 11:15:02 20.8 C 45 % 8.44 C
2558 21-08-2008 11:27:02 20.7 C 46 % 8.67 C
2559 21-08-2008 11:39:01 21.3 C 42 % 7.88 C
2560 21-08-2008 11:51:01 21.5 C 43 % 8.4 C
2561 21-08-2008 12:03:01 21.5 C 44 % 8.74 C
2562 21-08-2008 12:15:02 22.7 C 39 % 8.04 C
2563 21-08-2008 12:27:02 22.5 C 40 % 8.24 C
2564 21-08-2008 12:39:01 23.5 C 37 % 7.98 C
2565 21-08-2008 12:51:01 23.3 C 35 % 6.99 C
2566 21-08-2008 13:03:02 23.4 C 35 % 7.08 C
2567 21-08-2008 13:15:01 24.2 C 33 % 6.92 C
2568 21-08-2008 13:27:01 24.6 C 31 % 6.36 C
2569 21-08-2008 13:39:02 24.7 C 32 % 6.91 C
2570 21-08-2008 13:51:02 24.5 C 32 % 6.74 C
2571 21-08-2008 14:03:02 25.1 C 30 % 6.32 C
2572 21-08-2008 14:15:02 25.1 C 30 % 6.32 C
2573 21-08-2008 14:27:02 25.1 C 30 % 6.32 C
2574 21-08-2008 14:39:02 25.6 C 28 % 5.75 C
2575 21-08-2008 14:51:02 25.6 C 29 % 6.26 C
Sensor: Nr:Datum:Temp:Feuchte:Taupunkt:
Aussen-T/F 2576 21-08-2008 15:03:03 25.5 C 29 % 6.17 C
2577 21-08-2008 15:15:02 25.8 C 29 % 6.43 C
2578 21-08-2008 15:27:02 25.8 C 28 % 5.92 C
2579 21-08-2008 15:39:02 25.9 C 29 % 6.52 C
2580 21-08-2008 15:51:02 25.7 C 30 % 6.84 C
2581 21-08-2008 16:03:01 25.4 C 30 % 6.58 C
2582 21-08-2008 16:15:02 25.5 C 31 % 7.14 C
2583 21-08-2008 16:27:02 25.3 C 31 % 6.97 C
2584 21-08-2008 16:39:02 25.9 C 30 % 7.01 C
2585 21-08-2008 16:51:02 25.7 C 31 % 7.31 C
2586 21-08-2008 17:03:01 25.4 C 32 % 7.52 C
2587 21-08-2008 17:15:01 25 C 32 % 7.17 C
2588 21-08-2008 17:27:01 25.4 C 31 % 7.05 C
2589 21-08-2008 17:39:01 25.3 C 31 % 6.97 C
2590 21-08-2008 17:51:03 26.1 C 30 % 7.18 C
2591 21-08-2008 18:03:02 25.8 C 31 % 7.4 C
2592 21-08-2008 18:15:02 25.4 C 32 % 7.52 C
2593 21-08-2008 18:27:02 25.4 C 32 % 7.52 C
2594 21-08-2008 18:39:02 24.5 C 35 % 8.05 C
2595 21-08-2008 18:51:02 24.1 C 36 % 8.11 C
2596 21-08-2008 19:03:02 23.7 C 37 % 8.16 C
2597 21-08-2008 19:15:03 23.3 C 39 % 8.58 C
2598 21-08-2008 19:27:03 22.9 C 40 % 8.59 C
2599 21-08-2008 19:39:02 22.8 C 41 % 8.87 C
2600 21-08-2008 19:51:01 22.9 C 41 % 8.96 C
Sensor: Nr:Datum:Temp:Feuchte:Taupunkt:
Aussen-T/F 2601 21-08-2008 20:03:01 22.8 C 42 % 9.23 C
2602 21-08-2008 20:15:01 22.6 C 42 % 9.05 C
2603 21-08-2008 20:27:01 22.5 C 43 % 9.31 C
2604 21-08-2008 20:39:01 22.3 C 43 % 9.13 C
2605 21-08-2008 20:51:01 22.2 C 43 % 9.04 C
2606 21-08-2008 21:03:02 22 C 44 % 9.2 C
2607 21-08-2008 21:15:01 21.9 C 45 % 9.44 C
2608 21-08-2008 21:27:01 21.9 C 45 % 9.44 C
2609 21-08-2008 21:39:02 21.7 C 46 % 9.58 C
2610 21-08-2008 21:51:02 21.6 C 46 % 9.49 C
2611 21-08-2008 22:04:03 21.3 C 47 % 9.54 C
2612 21-08-2008 22:16:03 21.1 C 47 % 9.36 C
2613 21-08-2008 22:28:03 21 C 48 % 9.58 C
2614 21-08-2008 22:40:03 20.7 C 50 % 9.91 C
2615 21-08-2008 22:52:03 20.7 C 50 % 9.91 C
2616 21-08-2008 23:04:03 20.6 C 51 % 10.12 C
2617 21-08-2008 23:16:04 20.6 C 51 % 10.12 C
2618 21-08-2008 23:28:04 20.4 C 52 % 10.22 C
2619 21-08-2008 23:40:04 20.4 C 52 % 10.22 C
2620 21-08-2008 23:52:04 20.2 C 53 % 10.32 C
2621 22-08-2008 00:04:04 20.1 C 53 % 10.23 C
2622 22-08-2008 00:16:04 20 C 54 % 10.42 C
2623 22-08-2008 00:28:04 20.1 C 53 % 10.23 C
2624 22-08-2008 00:40:04 20 C 54 % 10.42 C
2625 22-08-2008 00:52:04 19.9 C 54 % 10.32 C
Sensor: Nr:Datum:Temp:Feuchte:Taupunkt:
Aussen-T/F 2626 22-08-2008 01:04:04 20 C 54 % 10.42 C
2627 22-08-2008 01:16:04 20.3 C 55 % 10.97 C
2628 22-08-2008 01:28:04 19.6 C 57 % 10.86 C
2629 22-08-2008 01:40:04 19.5 C 57 % 10.76 C
2630 22-08-2008 01:52:04 19.3 C 57 % 10.58 C
2631 22-08-2008 02:04:04 19.1 C 58 % 10.65 C
2632 22-08-2008 02:16:04 18.9 C 59 % 10.72 C
2633 22-08-2008 02:28:04 18.7 C 59 % 10.53 C
2634 22-08-2008 02:40:04 18.5 C 59 % 10.34 C
2635 22-08-2008 02:52:04 18.4 C 60 % 10.5 C
2636 22-08-2008 03:04:05 18.5 C 59 % 10.34 C
2637 22-08-2008 03:16:05 18.5 C 60 % 10.6 C
2638 22-08-2008 03:28:05 18.4 C 60 % 10.5 C
2639 22-08-2008 03:40:05 18.5 C 60 % 10.6 C
2640 22-08-2008 03:52:05 18.5 C 60 % 10.6 C
2641 22-08-2008 04:04:05 18.5 C 60 % 10.6 C
2642 22-08-2008 04:16:05 18.4 C 60 % 10.5 C
2643 22-08-2008 04:28:05 18.4 C 61 % 10.75 C
2644 22-08-2008 04:40:05 18.3 C 61 % 10.66 C
2645 22-08-2008 04:52:05 18.2 C 62 % 10.81 C
2646 22-08-2008 05:04:05 18.2 C 62 % 10.81 C
2647 22-08-2008 05:16:05 18.1 C 62 % 10.71 C
2648 22-08-2008 05:28:05 18.2 C 62 % 10.81 C
2649 22-08-2008 05:40:05 18.1 C 63 % 10.95 C
2650 22-08-2008 05:52:05 18 C 63 % 10.86 C
Sensor: Nr:Datum:Temp:Feuchte:Taupunkt:
Aussen-T/F 2651 22-08-2008 06:04:05 17.9 C 64 % 11 C
2652 22-08-2008 06:16:05 17.5 C 65 % 10.85 C
2653 22-08-2008 06:28:05 17.3 C 66 % 10.89 C
2654 22-08-2008 06:40:05 17 C 67 % 10.83 C
2655 22-08-2008 06:52:06 16.8 C 69 % 11.09 C
2656 22-08-2008 07:04:06 16.9 C 69 % 11.18 C
2657 22-08-2008 07:16:02 16.8 C 70 % 11.3 C
2658 22-08-2008 07:28:02 17 C 70 % 11.49 C
2659 22-08-2008 07:40:03 17.2 C 69 % 11.47 C
2660 22-08-2008 07:52:01 17.6 C 69 % 11.85 C
2661 22-08-2008 08:04:01 17.7 C 68 % 11.72 C
2662 22-08-2008 08:16:01 17.8 C 68 % 11.82 C
2663 22-08-2008 08:28:01 18 C 65 % 11.33 C
2664 22-08-2008 08:40:01 17.9 C 65 % 11.23 C
2665 22-08-2008 08:52:02 17.7 C 66 % 11.27 C
2666 22-08-2008 09:04:02 17.8 C 66 % 11.37 C
2667 22-08-2008 09:16:02 18.1 C 64 % 11.19 C
2668 22-08-2008 09:28:02 18.7 C 63 % 11.52 C
2669 22-08-2008 09:40:02 19.3 C 61 % 11.6 C
2670 22-08-2008 09:52:02 20 C 58 % 11.49 C
2671 22-08-2008 10:04:02 20.6 C 56 % 11.52 C
2672 22-08-2008 10:16:02 21.2 C 53 % 11.25 C
2673 22-08-2008 10:28:02 22.2 C 50 % 11.29 C
2674 22-08-2008 10:40:02 22.9 C 47 % 11 C
2675 22-08-2008 10:52:02 23.3 C 45 % 10.71 C
Sensor: Nr:Datum:Temp:Feuchte:Taupunkt:
Aussen-T/F 2676 22-08-2008 11:04:02 23.6 C 44 % 10.64 C
2677 22-08-2008 11:16:02 24.4 C 41 % 10.3 C
2678 22-08-2008 11:28:02 24.9 C 39 % 10 C
2679 22-08-2008 11:40:02 24.5 C 42 % 10.75 C
2680 22-08-2008 11:52:02 24.9 C 40 % 10.38 C
2681 22-08-2008 12:04:02 24.8 C 39 % 9.91 C
2682 22-08-2008 12:16:02 24.8 C 40 % 10.29 C
2683 22-08-2008 12:28:02 24.8 C 39 % 9.91 C
2684 22-08-2008 12:40:02 24.5 C 40 % 10.02 C
2685 22-08-2008 12:52:02 24.5 C 41 % 10.39 C
2686 22-08-2008 13:04:02 24.3 C 41 % 10.21 C
2687 22-08-2008 13:16:02 24.2 C 42 % 10.48 C
2688 22-08-2008 13:28:02 23.4 C 47 % 11.45 C
2689 22-08-2008 13:40:02 22.9 C 50 % 11.93 C
2690 22-08-2008 13:52:02 21.5 C 58 % 12.89 C
2691 22-08-2008 14:04:01 19.1 C 69 % 13.28 C
2692 22-08-2008 14:16:02 18.1 C 78 % 14.21 C
2693 22-08-2008 14:28:02 17.9 C 83 % 14.97 C
2694 22-08-2008 14:40:01 18.2 C 83 % 15.27 C
2695 22-08-2008 14:52:02 18.1 C 83 % 15.17 C
2696 22-08-2008 15:04:01 18.4 C 84 % 15.65 C
2697 22-08-2008 15:16:02 18.5 C 84 % 15.75 C
2698 22-08-2008 15:28:02 18 C 86 % 15.62 C
2699 22-08-2008 15:40:01 17.9 C 88 % 15.88 C
2700 22-08-2008 15:52:03 18.3 C 88 % 16.28 C
Sensor: Nr:Datum:Temp:Feuchte:Taupunkt:
Aussen-T/F 2701 22-08-2008 16:04:02 18.5 C 88 % 16.48 C
2702 22-08-2008 16:16:03 18.3 C 88 % 16.28 C
2703 22-08-2008 16:28:03 18.5 C 88 % 16.48 C
2704 22-08-2008 16:40:03 18.2 C 88 % 16.18 C
2705 22-08-2008 16:52:02 17.9 C 89 % 16.06 C
2706 22-08-2008 17:04:02 17.8 C 88 % 15.79 C
2707 22-08-2008 17:16:01 17.8 C 88 % 15.79 C
2708 22-08-2008 17:28:01 17.7 C 88 % 15.69 C
2709 22-08-2008 17:40:02 17.5 C 88 % 15.49 C
2710 22-08-2008 17:52:02 17.5 C 88 % 15.49 C
2711 22-08-2008 18:04:02 17.5 C 88 % 15.49 C
2712 22-08-2008 18:16:02 16.1 C 86 % 13.76 C
2713 22-08-2008 18:28:02 15.7 C 86 % 13.37 C
2714 22-08-2008 18:40:02 15.5 C 87 % 13.35 C
2715 22-08-2008 18:52:02 15.6 C 89 % 13.79 C
2716 22-08-2008 19:04:02 15.4 C 89 % 13.6 C
2717 22-08-2008 19:16:02 15.2 C 90 % 13.57 C
2718 22-08-2008 19:28:02 15.2 C 91 % 13.74 C
2719 22-08-2008 19:40:02 15.4 C 91 % 13.94 C
2720 22-08-2008 19:52:02 15.4 C 92 % 14.11 C
2721 22-08-2008 20:04:01 15.4 C 92 % 14.11 C
2722 22-08-2008 20:16:02 15.3 C 92 % 14.01 C
2723 22-08-2008 20:28:02 15.3 C 92 % 14.01 C
2724 22-08-2008 20:40:01 15.4 C 93 % 14.27 C
2725 22-08-2008 20:52:02 15.4 C 93 % 14.27 C
Sensor: Nr:Datum:Temp:Feuchte:Taupunkt:
Aussen-T/F 2726 22-08-2008 21:04:01 15.4 C 93 % 14.27 C
2727 22-08-2008 21:16:02 15.5 C 93 % 14.37 C
2728 22-08-2008 21:28:02 15.3 C 93 % 14.18 C
2729 22-08-2008 21:40:01 15.1 C 93 % 13.98 C
2730 22-08-2008 21:52:03 14.9 C 94 % 13.94 C
2731 22-08-2008 22:04:02 14.8 C 94 % 13.84 C
2732 22-08-2008 22:16:03 14.8 C 94 % 13.84 C
2733 22-08-2008 22:28:03 14.8 C 94 % 13.84 C
2734 22-08-2008 22:40:02 15 C 94 % 14.04 C
2735 22-08-2008 22:52:01 15 C 94 % 14.04 C
2736 22-08-2008 23:05:02 14.7 C 94 % 13.74 C
2737 22-08-2008 23:17:02 14.6 C 94 % 13.65 C
2738 22-08-2008 23:29:02 14.7 C 94 % 13.74 C
2739 22-08-2008 23:41:02 14.8 C 95 % 14.01 C
2740 22-08-2008 23:53:02 14.6 C 94 % 13.65 C
2741 23-08-2008 00:05:02 14.5 C 94 % 13.55 C
2742 23-08-2008 00:17:02 14.3 C 94 % 13.35 C
2743 23-08-2008 00:29:02 14.1 C 95 % 13.31 C
2744 23-08-2008 00:41:02 14 C 94 % 13.05 C
2745 23-08-2008 00:53:02 14 C 94 % 13.05 C
2746 23-08-2008 01:05:02 14 C 94 % 13.05 C
2747 23-08-2008 01:17:02 13.8 C 95 % 13.01 C
2748 23-08-2008 01:29:02 13.8 C 95 % 13.01 C
2749 23-08-2008 01:41:03 13.7 C 94 % 12.75 C
2750 23-08-2008 01:53:03 13.8 C 94 % 12.85 C
Sensor: Nr:Datum:Temp:Feuchte:Taupunkt:
Aussen-T/F 2751 23-08-2008 02:05:03 13.8 C 94 % 12.85 C
2752 23-08-2008 02:17:03 13.7 C 94 % 12.75 C
2753 23-08-2008 02:29:03 13.7 C 93 % 12.59 C
2754 23-08-2008 02:41:03 13.7 C 93 % 12.59 C
2755 23-08-2008 02:53:03 13.6 C 93 % 12.49 C
2756 23-08-2008 03:05:03 13.6 C 93 % 12.49 C
2757 23-08-2008 03:17:03 13.3 C 90 % 11.7 C
2758 23-08-2008 03:29:03 13 C 86 % 10.72 C
2759 23-08-2008 03:41:03 12.6 C 85 % 10.15 C
2760 23-08-2008 03:53:03 12.2 C 86 % 9.93 C
2761 23-08-2008 04:05:03 11.9 C 88 % 9.98 C
2762 23-08-2008 04:17:03 11.7 C 89 % 9.95 C
2763 23-08-2008 04:29:03 11.5 C 90 % 9.92 C
2764 23-08-2008 04:41:03 11.4 C 91 % 9.98 C
2765 23-08-2008 04:53:03 11.2 C 91 % 9.79 C
2766 23-08-2008 05:05:03 11.1 C 91 % 9.69 C
2767 23-08-2008 05:17:03 10.9 C 92 % 9.65 C
2768 23-08-2008 05:29:04 10.8 C 92 % 9.55 C
2769 23-08-2008 05:41:04 10.8 C 92 % 9.55 C
2770 23-08-2008 05:53:04 11 C 92 % 9.75 C
2771 23-08-2008 06:05:04 11.2 C 93 % 10.11 C
2772 23-08-2008 06:17:04 11 C 92 % 9.75 C
2773 23-08-2008 06:29:04 10.9 C 93 % 9.81 C
2774 23-08-2008 06:41:04 10.8 C 93 % 9.71 C
2775 23-08-2008 06:53:04 10.7 C 93 % 9.62 C
Sensor: Nr:Datum:Temp:Feuchte:Taupunkt:
Aussen-T/F 2776 23-08-2008 07:05:04 10.7 C 93 % 9.62 C
2777 23-08-2008 07:17:04 10.7 C 93 % 9.62 C
2778 23-08-2008 07:29:04 10.8 C 93 % 9.71 C
2779 23-08-2008 07:41:04 11.1 C 92 % 9.85 C
2780 23-08-2008 07:53:01 11.6 C 92 % 10.35 C
2781 23-08-2008 08:05:02 12 C 91 % 10.58 C
2782 23-08-2008 08:17:02 12.1 C 90 % 10.51 C
2783 23-08-2008 08:29:02 12.7 C 88 % 10.77 C
2784 23-08-2008 08:41:01 12.5 C 84 % 9.87 C
2785 23-08-2008 08:53:01 12.6 C 82 % 9.61 C
2786 23-08-2008 09:05:02 12.8 C 80 % 9.44 C
2787 23-08-2008 09:17:01 13.2 C 78 % 9.45 C
2788 23-08-2008 09:29:01 13.3 C 76 % 9.16 C
2789 23-08-2008 09:41:01 13.4 C 78 % 9.65 C
2790 23-08-2008 09:53:02 14.5 C 77 % 10.52 C
2791 23-08-2008 10:05:01 14.4 C 71 % 9.21 C
2792 23-08-2008 10:17:02 14.8 C 71 % 9.6 C
2793 23-08-2008 10:29:02 15.1 C 69 % 9.46 C
2794 23-08-2008 10:41:01 15.7 C 65 % 9.15 C
2795 23-08-2008 10:53:02 16 C 64 % 9.2 C
2796 23-08-2008 11:05:02 16.3 C 62 % 9.01 C
2797 23-08-2008 11:17:03 16.6 C 61 % 9.06 C
2798 23-08-2008 11:29:03 17.1 C 58 % 8.78 C
2799 23-08-2008 11:41:02 17.4 C 56 % 8.54 C
2800 23-08-2008 11:53:01 17.7 C 55 % 8.55 C
Sensor: Nr:Datum:Temp:Feuchte:Taupunkt:
Aussen-T/F 2801 23-08-2008 12:05:02 17.9 C 55 % 8.74 C
2802 23-08-2008 12:17:01 18.5 C 48 % 7.29 C
2803 23-08-2008 12:29:01 17.5 C 51 % 7.26 C
2804 23-08-2008 12:41:02 17.5 C 51 % 7.26 C
2805 23-08-2008 12:53:02 17.7 C 52 % 7.73 C
2806 23-08-2008 13:05:02 18.2 C 49 % 7.32 C
2807 23-08-2008 13:17:02 18 C 50 % 7.43 C
2808 23-08-2008 13:29:02 17.5 C 51 % 7.26 C
2809 23-08-2008 13:41:02 17.5 C 51 % 7.26 C
2810 23-08-2008 13:53:02 18.4 C 46 % 6.58 C
2811 23-08-2008 14:05:03 17.9 C 51 % 7.63 C
2812 23-08-2008 14:17:02 17.7 C 43 % 4.98 C
2813 23-08-2008 14:29:02 17.9 C 40 % 4.12 C
2814 23-08-2008 14:41:03 17.7 C 39 % 3.59 C
2815 23-08-2008 14:53:02 17.5 C 41 % 4.12 C
2816 23-08-2008 15:05:02 17.2 C 42 % 4.19 C
2817 23-08-2008 15:17:02 17.1 C 43 % 4.43 C
2818 23-08-2008 15:29:02 17.1 C 44 % 4.76 C
2819 23-08-2008 15:41:02 17 C 47 % 5.62 C
2820 23-08-2008 15:53:01 17.3 C 46 % 5.58 C
2821 23-08-2008 16:05:02 16.6 C 51 % 6.43 C
2822 23-08-2008 16:17:02 17.4 C 50 % 6.88 C
2823 23-08-2008 16:29:02 18.6 C 45 % 6.45 C
2824 23-08-2008 16:41:02 18.1 C 47 % 6.62 C
2825 23-08-2008 16:53:02 18.5 C 50 % 7.89 C
Sensor: Nr:Datum:Temp:Feuchte:Taupunkt:
Aussen-T/F 2826 23-08-2008 17:05:02 19.7 C 45 % 7.44 C
2827 23-08-2008 17:17:02 19.6 C 45 % 7.35 C
2828 23-08-2008 17:29:02 19.7 C 45 % 7.44 C
2829 23-08-2008 17:41:02 19.1 C 44 % 6.57 C
2830 23-08-2008 17:53:02 19.5 C 45 % 7.26 C
2831 23-08-2008 18:05:03 18.9 C 43 % 6.06 C
2832 23-08-2008 18:17:02 18.8 C 44 % 6.3 C
2833 23-08-2008 18:29:02 18.7 C 43 % 5.88 C
2834 23-08-2008 18:41:03 18.6 C 43 % 5.79 C
2835 23-08-2008 18:53:02 18.4 C 44 % 5.94 C
2836 23-08-2008 19:05:02 18.2 C 46 % 6.4 C
2837 23-08-2008 19:17:02 17 C 58 % 8.69 C
2838 23-08-2008 19:29:03 16.8 C 65 % 10.19 C
2839 23-08-2008 19:41:02 16 C 69 % 10.32 C
2840 23-08-2008 19:53:02 15.9 C 73 % 11.07 C
2841 23-08-2008 20:05:02 15.8 C 72 % 10.77 C
2842 23-08-2008 20:17:02 16 C 63 % 8.97 C
2843 23-08-2008 20:29:02 16.3 C 59 % 8.28 C
2844 23-08-2008 20:41:02 15.8 C 63 % 8.78 C
2845 23-08-2008 20:53:01 14.9 C 72 % 9.9 C
2846 23-08-2008 21:05:02 14.5 C 77 % 10.52 C
2847 23-08-2008 21:17:02 14.2 C 81 % 10.99 C
2848 23-08-2008 21:29:02 14 C 83 % 11.16 C
2849 23-08-2008 21:41:02 14.2 C 83 % 11.36 C
2850 23-08-2008 21:53:02 14.1 C 82 % 11.08 C
Sensor: Nr:Datum:Temp:Feuchte:Taupunkt:
Aussen-T/F 2851 23-08-2008 22:06:01 14.3 C 81 % 11.09 C
2852 23-08-2008 22:18:01 14.4 C 79 % 10.81 C
2853 23-08-2008 22:30:01 14.6 C 78 % 10.81 C
2854 23-08-2008 22:42:01 14.4 C 77 % 10.42 C
2855 23-08-2008 22:54:01 14.1 C 78 % 10.33 C
2856 23-08-2008 23:06:01 14 C 78 % 10.23 C
2857 23-08-2008 23:18:01 13.9 C 79 % 10.32 C
2858 23-08-2008 23:30:01 13.9 C 78 % 10.13 C
2859 23-08-2008 23:42:01 14.1 C 75 % 9.74 C
2860 23-08-2008 23:54:02 14.2 C 75 % 9.84 C
2861 24-08-2008 00:06:02 13.9 C 76 % 9.74 C
2862 24-08-2008 00:18:02 13.8 C 77 % 9.84 C
2863 24-08-2008 00:30:02 13.6 C 77 % 9.65 C
2864 24-08-2008 00:42:02 13.6 C 77 % 9.65 C
2865 24-08-2008 00:54:02 13.5 C 77 % 9.55 C
2866 24-08-2008 01:06:02 13.5 C 77 % 9.55 C
2867 24-08-2008 01:18:02 13.4 C 77 % 9.45 C
2868 24-08-2008 01:30:02 13.5 C 76 % 9.36 C
2869 24-08-2008 01:42:02 13.2 C 77 % 9.26 C
2870 24-08-2008 01:54:02 12.9 C 79 % 9.35 C
2871 24-08-2008 02:06:02 13 C 79 % 9.45 C
2872 24-08-2008 02:18:02 13.1 C 78 % 9.36 C
2873 24-08-2008 02:30:02 12.8 C 79 % 9.25 C
2874 24-08-2008 02:42:02 12.6 C 81 % 9.43 C
2875 24-08-2008 02:54:02 12.5 C 81 % 9.33 C
Sensor: Nr:Datum:Temp:Feuchte:Taupunkt:
Aussen-T/F 2876 24-08-2008 03:06:02 12.3 C 82 % 9.32 C
2877 24-08-2008 03:18:02 12.4 C 82 % 9.42 C
2878 24-08-2008 03:30:02 12.5 C 81 % 9.33 C
2879 24-08-2008 03:42:03 12.4 C 81 % 9.23 C
2880 24-08-2008 03:54:03 12.1 C 83 % 9.3 C
2881 24-08-2008 04:06:03 12.1 C 82 % 9.12 C
2882 24-08-2008 04:18:03 12 C 83 % 9.21 C
2883 24-08-2008 04:30:03 12 C 83 % 9.21 C
2884 24-08-2008 04:42:03 11.8 C 84 % 9.19 C
2885 24-08-2008 04:54:03 11.7 C 84 % 9.09 C
2886 24-08-2008 05:06:03 11.4 C 85 % 8.97 C
2887 24-08-2008 05:18:03 11.2 C 86 % 8.95 C
2888 24-08-2008 05:30:03 11.2 C 87 % 9.12 C
2889 24-08-2008 05:42:03 11.1 C 87 % 9.02 C
2890 24-08-2008 05:54:03 11.2 C 87 % 9.12 C
2891 24-08-2008 06:06:03 11.2 C 87 % 9.12 C
2892 24-08-2008 06:18:03 11.5 C 87 % 9.41 C
2893 24-08-2008 06:30:03 11.7 C 86 % 9.44 C
2894 24-08-2008 06:42:03 11.8 C 85 % 9.36 C
2895 24-08-2008 06:54:03 11.7 C 85 % 9.27 C
2896 24-08-2008 07:06:03 11.8 C 85 % 9.36 C
2897 24-08-2008 07:18:03 11.8 C 85 % 9.36 C
2898 24-08-2008 07:30:03 11.6 C 85 % 9.17 C
2899 24-08-2008 07:42:04 11.6 C 85 % 9.17 C
2900 24-08-2008 07:54:04 11.7 C 85 % 9.27 C
Sensor: Nr:Datum:Temp:Feuchte:Taupunkt:
Aussen-T/F 2901 24-08-2008 08:06:04 11.6 C 86 % 9.34 C
2902 24-08-2008 08:18:04 11.8 C 86 % 9.54 C
2903 24-08-2008 08:30:04 11.9 C 85 % 9.46 C
2904 24-08-2008 08:42:04 12.1 C 84 % 9.48 C
2905 24-08-2008 08:54:04 12.3 C 84 % 9.68 C
2906 24-08-2008 09:06:02 12.5 C 84 % 9.87 C
2907 24-08-2008 09:18:02 12.8 C 83 % 9.99 C
2908 24-08-2008 09:30:02 13.5 C 80 % 10.12 C
2909 24-08-2008 09:42:02 14 C 76 % 9.84 C
2910 24-08-2008 09:54:02 14.2 C 76 % 10.03 C
2911 24-08-2008 10:06:02 15.2 C 73 % 10.4 C
2912 24-08-2008 10:18:02 15.5 C 70 % 10.06 C
2913 24-08-2008 10:30:03 15.8 C 69 % 10.13 C
2914 24-08-2008 10:42:02 16.2 C 65 % 9.62 C
2915 24-08-2008 10:54:02 16.4 C 64 % 9.58 C
2916 24-08-2008 11:06:02 16.6 C 63 % 9.53 C
2917 24-08-2008 11:18:02 17 C 60 % 9.19 C
2918 24-08-2008 11:30:02 17.4 C 58 % 9.06 C
2919 24-08-2008 11:42:02 18.4 C 53 % 8.66 C
2920 24-08-2008 11:54:02 19.1 C 47 % 7.53 C
2921 24-08-2008 12:06:02 19.1 C 45 % 6.9 C
2922 24-08-2008 12:18:02 19.2 C 46 % 7.31 C
2923 24-08-2008 12:30:02 19.7 C 44 % 7.12 C
2924 24-08-2008 12:42:02 19.5 C 41 % 5.91 C
2925 24-08-2008 12:54:02 19.6 C 41 % 6 C
Sensor: Nr:Datum:Temp:Feuchte:Taupunkt:
Aussen-T/F 2926 24-08-2008 13:06:02 19.6 C 40 % 5.64 C
2927 24-08-2008 13:18:01 20.5 C 39 % 6.08 C
2928 24-08-2008 13:30:01 21.1 C 37 % 5.86 C
2929 24-08-2008 13:42:02 21.6 C 34 % 5.08 C
2930 24-08-2008 13:54:02 21.9 C 34 % 5.34 C
2931 24-08-2008 14:06:03 21.3 C 34 % 4.82 C
2932 24-08-2008 14:18:02 21.5 C 33 % 4.57 C
2933 24-08-2008 14:30:02 21.6 C 32 % 4.21 C
2934 24-08-2008 14:42:03 22.5 C 30 % 4.08 C
2935 24-08-2008 14:54:02 22 C 31 % 4.11 C
2936 24-08-2008 15:06:01 22.1 C 31 % 4.2 C
2937 24-08-2008 15:18:02 22.9 C 31 % 4.89 C
2938 24-08-2008 15:30:03 22.9 C 30 % 4.42 C
2939 24-08-2008 15:42:01 22.7 C 31 % 4.72 C
2940 24-08-2008 15:54:02 22.4 C 30 % 3.99 C
2941 24-08-2008 16:06:02 22.7 C 30 % 4.25 C
2942 24-08-2008 16:18:02 22.7 C 31 % 4.72 C
2943 24-08-2008 16:30:02 22.6 C 31 % 4.63 C
2944 24-08-2008 16:42:02 22.4 C 31 % 4.46 C
2945 24-08-2008 16:54:01 22.7 C 30 % 4.25 C
2946 24-08-2008 17:06:02 22.5 C 30 % 4.08 C
2947 24-08-2008 17:18:02 22.4 C 32 % 4.91 C
2948 24-08-2008 17:30:02 23.5 C 27 % 3.44 C
2949 24-08-2008 17:42:02 23.4 C 28 % 3.87 C
2950 24-08-2008 17:54:01 22.1 C 32 % 4.65 C
Sensor: Nr:Datum:Temp:Feuchte:Taupunkt:
Aussen-T/F 2951 24-08-2008 18:06:01 21.8 C 36 % 6.08 C
2952 24-08-2008 18:18:02 21.9 C 36 % 6.17 C
2953 24-08-2008 18:30:03 21.6 C 40 % 7.43 C
2954 24-08-2008 18:42:01 21.2 C 40 % 7.08 C
2955 24-08-2008 18:54:03 21.1 C 38 % 6.24 C
2956 24-08-2008 19:06:02 21 C 40 % 6.9 C
2957 24-08-2008 19:18:03 20.7 C 42 % 7.34 C
2958 24-08-2008 19:30:03 20.3 C 44 % 7.66 C
2959 24-08-2008 19:42:02 19.9 C 45 % 7.63 C
2960 24-08-2008 19:54:01 19.5 C 47 % 7.9 C
2961 24-08-2008 20:06:01 19 C 47 % 7.44 C
2962 24-08-2008 20:18:01 18.8 C 49 % 7.87 C
2963 24-08-2008 20:30:01 18.6 C 51 % 8.27 C
2964 24-08-2008 20:42:01 18.3 C 52 % 8.28 C
2965 24-08-2008 20:54:01 18.2 C 53 % 8.47 C
2966 24-08-2008 21:06:02 17.9 C 54 % 8.47 C
2967 24-08-2008 21:18:01 17.9 C 54 % 8.47 C
2968 24-08-2008 21:30:01 17.9 C 55 % 8.74 C
2969 24-08-2008 21:42:02 17.9 C 53 % 8.19 C
2970 24-08-2008 21:55:03 17.9 C 54 % 8.47 C
2971 24-08-2008 22:07:03 17.9 C 53 % 8.19 C
2972 24-08-2008 22:19:03 17.8 C 54 % 8.38 C
2973 24-08-2008 22:31:03 17.3 C 58 % 8.97 C
2974 24-08-2008 22:43:03 16.4 C 65 % 9.81 C
2975 24-08-2008 22:55:03 16.2 C 68 % 10.29 C
Sensor: Nr:Datum:Temp:Feuchte:Taupunkt:
Aussen-T/F 2976 24-08-2008 23:07:03 15.9 C 73 % 11.07 C
2977 24-08-2008 23:19:03 15.6 C 77 % 11.59 C
2978 24-08-2008 23:31:03 15.4 C 79 % 11.78 C
2979 24-08-2008 23:43:03 15 C 82 % 11.95 C
2980 24-08-2008 23:55:03 14.6 C 85 % 12.11 C
2981 25-08-2008 00:07:03 14.5 C 86 % 12.19 C
2982 25-08-2008 00:19:03 14.4 C 88 % 12.44 C
2983 25-08-2008 00:31:03 14.5 C 89 % 12.71 C
2984 25-08-2008 00:43:03 14.5 C 89 % 12.71 C
2985 25-08-2008 00:55:03 14.4 C 90 % 12.78 C
2986 25-08-2008 01:07:03 14.5 C 90 % 12.88 C
2987 25-08-2008 01:19:03 14.4 C 90 % 12.78 C
2988 25-08-2008 01:31:04 14.4 C 90 % 12.78 C
2989 25-08-2008 01:43:04 14.4 C 90 % 12.78 C
2990 25-08-2008 01:55:04 14.5 C 90 % 12.88 C
2991 25-08-2008 02:07:04 14.7 C 91 % 13.25 C
2992 25-08-2008 02:19:04 14.7 C 90 % 13.08 C
2993 25-08-2008 02:31:04 14.6 C 90 % 12.98 C
2994 25-08-2008 02:43:04 14.7 C 90 % 13.08 C
2995 25-08-2008 02:55:04 14.6 C 90 % 12.98 C
2996 25-08-2008 03:07:04 14.5 C 90 % 12.88 C
2997 25-08-2008 03:19:04 14.5 C 89 % 12.71 C
2998 25-08-2008 03:31:04 14.4 C 89 % 12.61 C
2999 25-08-2008 03:43:04 14.4 C 89 % 12.61 C
3000 25-08-2008 03:55:04 14.4 C 90 % 12.78 C
Sensor: Nr:Datum:Temp:Feuchte:Taupunkt:
Aussen-T/F 3001 25-08-2008 04:07:04 14.4 C 90 % 12.78 C
3002 25-08-2008 04:19:04 14.3 C 89 % 12.51 C
3003 25-08-2008 04:31:04 14.3 C 90 % 12.68 C
3004 25-08-2008 04:43:04 14.3 C 90 % 12.68 C
3005 25-08-2008 04:55:04 14.2 C 90 % 12.58 C
3006 25-08-2008 05:07:04 14.2 C 90 % 12.58 C
3007 25-08-2008 05:19:04 14.2 C 91 % 12.75 C
3008 25-08-2008 05:31:05 14.2 C 91 % 12.75 C
3009 25-08-2008 05:43:05 14.3 C 91 % 12.85 C
3010 25-08-2008 05:55:05 14.2 C 91 % 12.75 C
3011 25-08-2008 06:07:05 14.3 C 90 % 12.68 C
3012 25-08-2008 06:19:05 14.4 C 89 % 12.61 C
3013 25-08-2008 06:31:05 14.5 C 88 % 12.54 C
3014 25-08-2008 06:43:05 14.6 C 87 % 12.46 C
3015 25-08-2008 06:55:05 14.6 C 87 % 12.46 C
3016 25-08-2008 07:07:05 14.7 C 87 % 12.56 C
3017 25-08-2008 07:19:05 14.8 C 87 % 12.66 C
3018 25-08-2008 07:31:03 14.7 C 88 % 12.73 C
3019 25-08-2008 07:43:03 14.7 C 88 % 12.73 C
3020 25-08-2008 07:55:02 14.7 C 88 % 12.73 C
3021 25-08-2008 08:07:01 14.8 C 88 % 12.83 C
3022 25-08-2008 08:19:01 14.8 C 88 % 12.83 C
3023 25-08-2008 08:31:02 14.9 C 87 % 12.76 C
3024 25-08-2008 08:43:02 15.1 C 87 % 12.95 C
3025 25-08-2008 08:55:02 15.2 C 87 % 13.05 C
Sensor: Nr:Datum:Temp:Feuchte:Taupunkt:
Aussen-T/F 3026 25-08-2008 09:07:02 15.5 C 87 % 13.35 C
3027 25-08-2008 09:19:03 15.6 C 86 % 13.27 C
3028 25-08-2008 09:31:02 15.6 C 87 % 13.45 C
3029 25-08-2008 09:43:02 15.9 C 87 % 13.74 C
3030 25-08-2008 09:55:02 16 C 85 % 13.48 C
3031 25-08-2008 10:07:01 16.5 C 84 % 13.79 C
3032 25-08-2008 10:19:02 16.8 C 83 % 13.9 C
3033 25-08-2008 10:31:01 17 C 82 % 13.91 C
3034 25-08-2008 10:43:01 17 C 80 % 13.53 C
3035 25-08-2008 10:55:02 17.1 C 78 % 13.24 C
3036 25-08-2008 11:07:01 17.2 C 78 % 13.33 C
3037 25-08-2008 11:19:02 17.5 C 77 % 13.43 C
3038 25-08-2008 11:31:01 17.7 C 76 % 13.42 C
3039 25-08-2008 11:43:01 17.9 C 75 % 13.41 C
3040 25-08-2008 11:55:02 18.7 C 71 % 13.34 C
3041 25-08-2008 12:07:02 18.9 C 69 % 13.09 C
3042 25-08-2008 12:19:02 19.5 C 64 % 12.51 C
3043 25-08-2008 12:31:02 19.6 C 64 % 12.61 C
3044 25-08-2008 12:43:02 20 C 62 % 12.5 C
3045 25-08-2008 12:55:02 20.5 C 59 % 12.22 C
3046 25-08-2008 13:07:03 20 C 60 % 12 C
3047 25-08-2008 13:19:02 19.4 C 62 % 11.94 C
3048 25-08-2008 13:31:03 20 C 61 % 12.26 C
3049 25-08-2008 13:43:03 20.5 C 58 % 11.96 C
3050 25-08-2008 13:55:02 19.7 C 61 % 11.97 C
Sensor: Nr:Datum:Temp:Feuchte:Taupunkt:
Aussen-T/F 3051 25-08-2008 14:07:01 20 C 60 % 12 C
3052 25-08-2008 14:19:02 20.5 C 58 % 11.96 C
3053 25-08-2008 14:31:01 20.8 C 57 % 11.97 C
3054 25-08-2008 14:43:01 20.9 C 56 % 11.8 C
3055 25-08-2008 14:55:02 21.2 C 54 % 11.53 C
3056 25-08-2008 15:07:01 20.4 C 58 % 11.86 C
3057 25-08-2008 15:19:02 20.7 C 59 % 12.41 C
3058 25-08-2008 15:31:01 21.4 C 55 % 11.99 C
3059 25-08-2008 15:43:01 21.4 C 55 % 11.99 C
3060 25-08-2008 15:55:02 22.2 C 50 % 11.29 C
3061 25-08-2008 16:07:01 22.4 C 50 % 11.47 C
3062 25-08-2008 16:19:02 22.4 C 51 % 11.77 C
3063 25-08-2008 16:31:01 22.5 C 49 % 11.26 C
3064 25-08-2008 16:43:01 22.4 C 51 % 11.77 C
3065 25-08-2008 16:55:01 23.5 C 46 % 11.22 C
3066 25-08-2008 17:07:02 23.8 C 46 % 11.49 C
3067 25-08-2008 17:19:01 23.9 C 45 % 11.25 C
3068 25-08-2008 17:31:02 23.8 C 45 % 11.16 C
3069 25-08-2008 17:43:02 22.6 C 49 % 11.35 C
3070 25-08-2008 17:55:02 21.9 C 52 % 11.61 C
3071 25-08-2008 18:07:02 21.9 C 53 % 11.89 C
3072 25-08-2008 18:19:02 21.4 C 54 % 11.71 C
3073 25-08-2008 18:31:02 21 C 55 % 11.62 C
3074 25-08-2008 18:43:02 21 C 58 % 12.43 C
3075 25-08-2008 18:55:02 20.9 C 59 % 12.59 C
Sensor: Nr:Datum:Temp:Feuchte:Taupunkt:
Aussen-T/F 3076 25-08-2008 19:07:03 20.9 C 59 % 12.59 C
3077 25-08-2008 19:19:02 20.5 C 61 % 12.73 C
3078 25-08-2008 19:31:03 20.3 C 62 % 12.79 C
3079 25-08-2008 19:43:03 21 C 58 % 12.43 C
3080 25-08-2008 19:55:02 20.9 C 51 % 10.39 C
3081 25-08-2008 20:07:02 20 C 54 % 10.42 C
3082 25-08-2008 20:19:02 19.3 C 59 % 11.09 C
3083 25-08-2008 20:31:01 18.8 C 61 % 11.13 C
3084 25-08-2008 20:43:01 18.3 C 63 % 11.14 C
3085 25-08-2008 20:55:02 17.9 C 65 % 11.23 C
3086 25-08-2008 21:07:02 17.6 C 67 % 11.4 C
3087 25-08-2008 21:19:02 17.4 C 67 % 11.21 C
3088 25-08-2008 21:31:01 17.2 C 68 % 11.25 C
3089 25-08-2008 21:43:01 17 C 69 % 11.28 C
3090 25-08-2008 21:56:02 17 C 69 % 11.28 C
3091 25-08-2008 22:08:02 16.8 C 70 % 11.3 C
3092 25-08-2008 22:20:02 16.6 C 70 % 11.11 C
3093 25-08-2008 22:32:02 16.6 C 69 % 10.89 C
3094 25-08-2008 22:44:02 16.3 C 70 % 10.82 C
3095 25-08-2008 22:56:02 16.1 C 71 % 10.84 C
3096 25-08-2008 23:08:02 15.8 C 73 % 10.97 C
3097 25-08-2008 23:20:02 15.7 C 74 % 11.08 C
3098 25-08-2008 23:32:02 15.5 C 75 % 11.09 C
3099 25-08-2008 23:44:02 15.3 C 76 % 11.1 C
3100 25-08-2008 23:56:02 15.1 C 78 % 11.3 C
Sensor: Nr:Datum:Temp:Feuchte:Taupunkt:
Aussen-T/F 3101 26-08-2008 00:08:02 14.9 C 80 % 11.48 C
3102 26-08-2008 00:20:02 14.7 C 81 % 11.48 C
3103 26-08-2008 00:32:03 14.5 C 81 % 11.28 C
3104 26-08-2008 00:44:03 14.4 C 82 % 11.37 C
3105 26-08-2008 00:56:03 14.3 C 82 % 11.27 C
3106 26-08-2008 01:08:03 14.2 C 82 % 11.17 C
3107 26-08-2008 01:20:03 14.1 C 82 % 11.08 C
3108 26-08-2008 01:32:03 13.9 C 83 % 11.06 C
3109 26-08-2008 01:44:03 13.8 C 83 % 10.97 C
3110 26-08-2008 01:56:03 13.7 C 83 % 10.87 C
3111 26-08-2008 02:08:03 13.6 C 83 % 10.77 C
3112 26-08-2008 02:20:03 13.8 C 84 % 11.15 C
3113 26-08-2008 02:32:03 13.9 C 84 % 11.24 C
3114 26-08-2008 02:44:03 14.1 C 83 % 11.26 C
3115 26-08-2008 02:56:03 14.2 C 82 % 11.17 C
3116 26-08-2008 03:08:03 14.2 C 82 % 11.17 C
3117 26-08-2008 03:20:03 14.2 C 82 % 11.17 C
3118 26-08-2008 03:32:03 14 C 81 % 10.79 C
3119 26-08-2008 03:44:03 14 C 81 % 10.79 C
3120 26-08-2008 03:56:03 14 C 81 % 10.79 C
3121 26-08-2008 04:08:03 14.1 C 82 % 11.08 C
3122 26-08-2008 04:20:03 14.1 C 81 % 10.89 C
3123 26-08-2008 04:32:04 14.1 C 82 % 11.08 C
3124 26-08-2008 04:44:04 14.3 C 82 % 11.27 C
3125 26-08-2008 04:56:04 14.4 C 81 % 11.18 C
Sensor: Nr:Datum:Temp:Feuchte:Taupunkt:
Aussen-T/F 3126 26-08-2008 05:08:04 14.5 C 81 % 11.28 C
3127 26-08-2008 05:20:04 14.6 C 81 % 11.38 C
3128 26-08-2008 05:32:04 14.6 C 80 % 11.19 C
3129 26-08-2008 05:44:04 14.6 C 81 % 11.38 C
3130 26-08-2008 05:56:04 14.7 C 79 % 11.1 C
3131 26-08-2008 06:08:04 14.7 C 79 % 11.1 C
3132 26-08-2008 06:20:04 14.7 C 78 % 10.91 C
3133 26-08-2008 06:32:04 15 C 77 % 11 C
3134 26-08-2008 06:44:04 14.7 C 78 % 10.91 C
3135 26-08-2008 06:56:02 14.8 C 77 % 10.81 C
3136 26-08-2008 07:08:02 14.9 C 77 % 10.91 C
3137 26-08-2008 07:20:02 15 C 75 % 10.61 C
3138 26-08-2008 07:32:02 15.2 C 75 % 10.8 C
3139 26-08-2008 07:44:02 15.3 C 75 % 10.9 C
3140 26-08-2008 07:56:01 15.4 C 74 % 10.79 C
3141 26-08-2008 08:08:02 15.6 C 74 % 10.99 C
3142 26-08-2008 08:20:01 15.6 C 73 % 10.78 C
3143 26-08-2008 08:32:02 15.8 C 73 % 10.97 C
3144 26-08-2008 08:44:02 15.9 C 72 % 10.86 C
3145 26-08-2008 08:56:02 16.2 C 71 % 10.94 C
3146 26-08-2008 09:08:02 16.4 C 70 % 10.92 C
3147 26-08-2008 09:20:02 16.7 C 68 % 10.77 C
3148 26-08-2008 09:32:01 16.8 C 68 % 10.87 C
3149 26-08-2008 09:44:01 17 C 66 % 10.61 C
3150 26-08-2008 09:56:01 17.2 C 65 % 10.57 C
Sensor: Nr:Datum:Temp:Feuchte:Taupunkt:
Aussen-T/F 3151 26-08-2008 10:08:02 17.5 C 64 % 10.62 C
3152 26-08-2008 10:20:02 17.7 C 64 % 10.81 C
3153 26-08-2008 10:32:02 18.2 C 61 % 10.56 C
3154 26-08-2008 10:44:02 18.6 C 59 % 10.44 C
3155 26-08-2008 10:56:01 19.1 C 58 % 10.65 C
3156 26-08-2008 11:08:02 19.7 C 56 % 10.68 C
3157 26-08-2008 11:20:01 20.1 C 53 % 10.23 C
3158 26-08-2008 11:32:02 20.6 C 52 % 10.41 C
3159 26-08-2008 11:44:02 21 C 49 % 9.89 C
3160 26-08-2008 11:56:02 21.4 C 49 % 10.25 C
3161 26-08-2008 12:08:02 22.2 C 46 % 10.04 C
3162 26-08-2008 12:20:02 22.5 C 44 % 9.65 C
3163 26-08-2008 12:32:02 22.9 C 43 % 9.67 C
3164 26-08-2008 12:44:02 22.9 C 43 % 9.67 C
3165 26-08-2008 12:56:02 22.9 C 44 % 10.01 C
3166 26-08-2008 13:08:02 22.7 C 45 % 10.16 C
3167 26-08-2008 13:20:01 23.1 C 45 % 10.53 C
3168 26-08-2008 13:32:02 23.6 C 43 % 10.3 C
3169 26-08-2008 13:44:02 24.3 C 40 % 9.84 C
3170 26-08-2008 13:56:02 23.9 C 42 % 10.21 C
3171 26-08-2008 14:08:02 23.4 C 42 % 9.77 C
3172 26-08-2008 14:20:02 23.8 C 41 % 9.76 C
3173 26-08-2008 14:32:02 23.6 C 42 % 9.94 C
3174 26-08-2008 14:44:02 23.6 C 43 % 10.3 C
3175 26-08-2008 14:56:02 24.5 C 40 % 10.02 C
Sensor: Nr:Datum:Temp:Feuchte:Taupunkt:
Aussen-T/F 3176 26-08-2008 15:08:02 24.8 C 39 % 9.91 C
3177 26-08-2008 15:20:02 24.6 C 39 % 9.73 C
3178 26-08-2008 15:32:02 24.9 C 39 % 10 C
3179 26-08-2008 15:44:02 24.6 C 39 % 9.73 C
3180 26-08-2008 15:56:02 25.2 C 37 % 9.48 C
3181 26-08-2008 16:08:02 25.4 C 37 % 9.66 C
3182 26-08-2008 16:20:02 25.9 C 36 % 9.69 C
3183 26-08-2008 16:32:02 25.7 C 36 % 9.52 C
3184 26-08-2008 16:44:02 26 C 36 % 9.78 C
3185 26-08-2008 16:56:02 25.9 C 36 % 9.69 C
3186 26-08-2008 17:08:02 26 C 34 % 8.93 C
3187 26-08-2008 17:20:01 26.3 C 34 % 9.19 C
3188 26-08-2008 17:32:02 25.8 C 36 % 9.61 C
3189 26-08-2008 17:44:02 27.3 C 33 % 9.62 C
3190 26-08-2008 17:56:02 26.4 C 34 % 9.28 C
3191 26-08-2008 18:08:02 26.8 C 35 % 10.06 C
3192 26-08-2008 18:20:02 25.8 C 37 % 10.01 C
3193 26-08-2008 18:32:02 26 C 36 % 9.78 C
3194 26-08-2008 18:44:02 25.7 C 37 % 9.92 C
3195 26-08-2008 18:56:02 24.9 C 40 % 10.38 C
3196 26-08-2008 19:08:02 24.6 C 41 % 10.48 C
3197 26-08-2008 19:20:02 24.3 C 43 % 10.93 C
3198 26-08-2008 19:32:02 23.8 C 45 % 11.16 C
3199 26-08-2008 19:44:02 23.8 C 45 % 11.16 C
3200 26-08-2008 19:56:03 23.7 C 45 % 11.07 C
Sensor: Nr:Datum:Temp:Feuchte:Taupunkt:
Aussen-T/F 3201 26-08-2008 20:08:02 23.2 C 46 % 10.95 C
3202 26-08-2008 20:20:02 22.6 C 49 % 11.35 C
3203 26-08-2008 20:32:02 22 C 51 % 11.4 C
3204 26-08-2008 20:44:02 21.4 C 55 % 11.99 C
3205 26-08-2008 20:56:02 21 C 56 % 11.89 C
3206 26-08-2008 21:08:02 20.8 C 57 % 11.97 C
3207 26-08-2008 21:20:02 20.7 C 58 % 12.15 C
3208 26-08-2008 21:32:02 20.6 C 59 % 12.31 C
3209 26-08-2008 21:44:02 20.3 C 60 % 12.29 C
3210 26-08-2008 21:57:03 19.9 C 62 % 12.41 C
3211 26-08-2008 22:09:03 19.4 C 64 % 12.42 C
3212 26-08-2008 22:21:03 18.9 C 68 % 12.87 C
3213 26-08-2008 22:33:03 18.8 C 69 % 13 C
3214 26-08-2008 22:45:03 18.6 C 70 % 13.02 C
3215 26-08-2008 22:57:03 18.4 C 70 % 12.83 C
3216 26-08-2008 23:09:03 18.2 C 71 % 12.86 C
3217 26-08-2008 23:21:03 17.8 C 73 % 12.9 C
3218 26-08-2008 23:33:03 17.7 C 74 % 13.01 C
3219 26-08-2008 23:45:03 17.6 C 76 % 13.32 C
3220 26-08-2008 23:57:03 17.4 C 76 % 13.13 C
3221 27-08-2008 00:09:03 17.2 C 77 % 13.14 C
3222 27-08-2008 00:21:03 17 C 78 % 13.14 C
3223 27-08-2008 00:33:03 16.8 C 79 % 13.14 C
3224 27-08-2008 00:45:03 16.5 C 80 % 13.04 C
3225 27-08-2008 00:57:04 16.5 C 80 % 13.04 C
Sensor: Nr:Datum:Temp:Feuchte:Taupunkt:
Aussen-T/F 3226 27-08-2008 01:09:04 16.2 C 81 % 12.94 C
3227 27-08-2008 01:21:04 16.1 C 81 % 12.84 C
3228 27-08-2008 01:33:04 16 C 82 % 12.93 C
3229 27-08-2008 01:45:04 16.1 C 82 % 13.03 C
3230 27-08-2008 01:57:04 15.9 C 83 % 13.02 C
3231 27-08-2008 02:09:04 15.8 C 83 % 12.92 C
3232 27-08-2008 02:21:04 15.6 C 83 % 12.72 C
3233 27-08-2008 02:33:04 15.6 C 84 % 12.91 C
3234 27-08-2008 02:45:04 15.7 C 84 % 13.01 C
3235 27-08-2008 02:57:04 15.7 C 84 % 13.01 C
3236 27-08-2008 03:09:04 15.8 C 83 % 12.92 C
3237 27-08-2008 03:21:04 15.8 C 83 % 12.92 C
3238 27-08-2008 03:33:04 15.8 C 83 % 12.92 C
3239 27-08-2008 03:45:04 15.7 C 83 % 12.82 C
3240 27-08-2008 03:57:04 15.6 C 83 % 12.72 C
3241 27-08-2008 04:09:04 15.6 C 83 % 12.72 C
3242 27-08-2008 04:21:04 15.5 C 83 % 12.63 C
3243 27-08-2008 04:33:04 15.4 C 83 % 12.53 C
3244 27-08-2008 04:45:04 15.3 C 83 % 12.43 C
3245 27-08-2008 04:57:04 15 C 83 % 12.14 C
3246 27-08-2008 05:09:05 14.7 C 85 % 12.21 C
3247 27-08-2008 05:21:05 14.5 C 86 % 12.19 C
3248 27-08-2008 05:33:05 14.3 C 86 % 11.99 C
3249 27-08-2008 05:45:05 14.2 C 87 % 12.07 C
3250 27-08-2008 05:57:05 14 C 87 % 11.87 C
Sensor: Nr:Datum:Temp:Feuchte:Taupunkt:
Aussen-T/F 3251 27-08-2008 06:09:05 14 C 88 % 12.05 C
3252 27-08-2008 06:21:05 14.2 C 89 % 12.41 C
3253 27-08-2008 06:33:05 14.2 C 88 % 12.24 C
3254 27-08-2008 06:45:05 14.2 C 88 % 12.24 C
3255 27-08-2008 06:57:05 14.2 C 88 % 12.24 C
3256 27-08-2008 07:09:02 14.2 C 88 % 12.24 C
3257 27-08-2008 07:21:02 14.3 C 88 % 12.34 C
3258 27-08-2008 07:33:02 14.4 C 88 % 12.44 C
3259 27-08-2008 07:45:03 14.5 C 87 % 12.36 C
3260 27-08-2008 07:57:03 14.7 C 86 % 12.38 C
3261 27-08-2008 08:09:02 14.8 C 85 % 12.3 C
3262 27-08-2008 08:21:03 14.8 C 84 % 12.12 C
3263 27-08-2008 08:33:02 14.7 C 83 % 11.85 C
3264 27-08-2008 08:45:02 15 C 83 % 12.14 C
3265 27-08-2008 08:57:02 15.1 C 81 % 11.87 C
3266 27-08-2008 09:09:02 15.5 C 81 % 12.26 C
3267 27-08-2008 09:21:03 15.8 C 79 % 12.17 C
3268 27-08-2008 09:33:03 16.3 C 78 % 12.46 C
3269 27-08-2008 09:45:02 16.8 C 76 % 12.55 C
3270 27-08-2008 09:57:02 17.1 C 73 % 12.23 C
3271 27-08-2008 10:09:01 17.3 C 73 % 12.42 C
3272 27-08-2008 10:21:02 17.7 C 72 % 12.59 C
3273 27-08-2008 10:33:02 18 C 70 % 12.45 C
3274 27-08-2008 10:45:02 18.3 C 70 % 12.74 C
3275 27-08-2008 10:57:02 19.3 C 64 % 12.32 C
Sensor: Nr:Datum:Temp:Feuchte:Taupunkt:
Aussen-T/F 3276 27-08-2008 11:09:01 19.9 C 58 % 11.4 C
3277 27-08-2008 11:21:02 20.3 C 56 % 11.24 C
3278 27-08-2008 11:33:01 20.7 C 53 % 10.78 C
3279 27-08-2008 11:45:02 21 C 51 % 10.48 C
3280 27-08-2008 11:57:02 21 C 52 % 10.78 C
3281 27-08-2008 12:09:01 21.5 C 50 % 10.65 C
3282 27-08-2008 12:21:02 21.5 C 50 % 10.65 C
3283 27-08-2008 12:33:01 21.9 C 49 % 10.71 C
3284 27-08-2008 12:45:01 22 C 48 % 10.49 C
3285 27-08-2008 12:57:01 22.3 C 47 % 10.45 C
3286 27-08-2008 13:09:01 22.7 C 47 % 10.81 C
3287 27-08-2008 13:21:01 23.1 C 44 % 10.19 C
3288 27-08-2008 13:33:01 23.7 C 44 % 10.73 C
3289 27-08-2008 13:45:01 23.6 C 44 % 10.64 C
3290 27-08-2008 13:57:01 24 C 41 % 9.94 C
3291 27-08-2008 14:09:02 24.6 C 40 % 10.11 C
3292 27-08-2008 14:21:01 24.6 C 39 % 9.73 C
3293 27-08-2008 14:33:02 25.6 C 39 % 10.62 C
3294 27-08-2008 14:45:02 25.8 C 37 % 10.01 C
3295 27-08-2008 14:57:02 26.3 C 35 % 9.63 C
3296 27-08-2008 15:09:02 26.5 C 35 % 9.8 C
3297 27-08-2008 15:21:02 26.6 C 35 % 9.89 C
3298 27-08-2008 15:33:02 27 C 33 % 9.36 C
3299 27-08-2008 15:45:02 27.4 C 34 % 10.16 C
3300 27-08-2008 15:57:02 28.1 C 32 % 9.86 C
Sensor: Nr:Datum:Temp:Feuchte:Taupunkt:
Aussen-T/F 3301 27-08-2008 16:09:03 28.5 C 31 % 9.73 C
3302 27-08-2008 16:21:02 28.9 C 31 % 10.08 C
3303 27-08-2008 16:33:03 29 C 30 % 9.68 C
3304 27-08-2008 16:45:02 29 C 29 % 9.17 C
3305 27-08-2008 16:57:02 28.8 C 30 % 9.51 C
3306 27-08-2008 17:09:01 28.5 C 31 % 9.73 C
3307 27-08-2008 17:21:02 27.8 C 31 % 9.13 C
3308 27-08-2008 17:33:02 27.3 C 33 % 9.62 C
3309 27-08-2008 17:45:02 26.8 C 36 % 10.49 C
3310 27-08-2008 17:57:02 26.6 C 37 % 10.72 C
3311 27-08-2008 18:09:01 26.7 C 35 % 9.98 C
3312 27-08-2008 18:21:02 26.4 C 37 % 10.54 C
3313 27-08-2008 18:33:01 26.5 C 37 % 10.63 C
3314 27-08-2008 18:45:03 25.9 C 39 % 10.89 C
3315 27-08-2008 18:57:03 25 C 41 % 10.84 C
3316 27-08-2008 19:09:02 24.3 C 43 % 10.93 C
3317 27-08-2008 19:21:03 23.5 C 46 % 11.22 C
3318 27-08-2008 19:33:02 23.3 C 46 % 11.04 C
3319 27-08-2008 19:45:02 23 C 47 % 11.09 C
3320 27-08-2008 19:57:02 22.7 C 49 % 11.44 C
3321 27-08-2008 20:09:02 22 C 50 % 11.11 C
3322 27-08-2008 20:21:02 21.8 C 51 % 11.22 C
3323 27-08-2008 20:33:02 21.6 C 51 % 11.04 C
3324 27-08-2008 20:45:01 21.3 C 52 % 11.05 C
3325 27-08-2008 20:57:01 21.1 C 52 % 10.87 C
Sensor: Nr:Datum:Temp:Feuchte:Taupunkt:
Aussen-T/F 3326 27-08-2008 21:09:01 20.9 C 53 % 10.97 C
3327 27-08-2008 21:21:01 20.8 C 53 % 10.88 C
3328 27-08-2008 21:33:01 20.8 C 53 % 10.88 C
3329 27-08-2008 21:45:01 20.2 C 53 % 10.32 C
3330 27-08-2008 21:57:01 20.1 C 53 % 10.23 C
3331 27-08-2008 22:09:02 20.1 C 53 % 10.23 C
3332 27-08-2008 22:21:01 20.2 C 53 % 10.32 C
3333 27-08-2008 22:33:02 20 C 53 % 10.14 C
3334 27-08-2008 22:46:02 19.7 C 55 % 10.41 C
3335 27-08-2008 22:58:02 19.7 C 56 % 10.68 C
3336 27-08-2008 23:10:02 19.8 C 57 % 11.04 C
3337 27-08-2008 23:22:02 19.6 C 56 % 10.59 C
3338 27-08-2008 23:34:02 19.7 C 57 % 10.95 C
3339 27-08-2008 23:46:02 19.5 C 57 % 10.76 C
3340 27-08-2008 23:58:02 19.4 C 57 % 10.67 C
3341 28-08-2008 00:10:02 19.4 C 58 % 10.93 C
3342 28-08-2008 00:22:02 19.4 C 58 % 10.93 C
3343 28-08-2008 00:34:02 19.2 C 58 % 10.74 C
3344 28-08-2008 00:46:02 19.1 C 59 % 10.91 C
3345 28-08-2008 00:58:02 19.1 C 59 % 10.91 C
3346 28-08-2008 01:10:02 19 C 59 % 10.81 C
3347 28-08-2008 01:22:02 19.1 C 60 % 11.16 C
3348 28-08-2008 01:34:02 19 C 59 % 10.81 C
3349 28-08-2008 01:46:02 19 C 60 % 11.07 C
3350 28-08-2008 01:58:02 18.9 C 61 % 11.22 C
Sensor: Nr:Datum:Temp:Feuchte:Taupunkt:
Aussen-T/F 3351 28-08-2008 02:10:02 18.8 C 61 % 11.13 C
3352 28-08-2008 02:22:02 18.9 C 62 % 11.47 C
3353 28-08-2008 02:34:03 18.9 C 62 % 11.47 C
3354 28-08-2008 02:46:03 18.7 C 63 % 11.52 C
3355 28-08-2008 02:58:03 18.6 C 63 % 11.42 C
3356 28-08-2008 03:10:03 18.6 C 63 % 11.42 C
3357 28-08-2008 03:22:03 18.6 C 63 % 11.42 C
3358 28-08-2008 03:34:03 18.5 C 64 % 11.57 C
3359 28-08-2008 03:46:03 18.5 C 64 % 11.57 C
3360 28-08-2008 03:58:03 18.5 C 64 % 11.57 C
3361 28-08-2008 04:10:03 18.4 C 65 % 11.71 C
3362 28-08-2008 04:22:03 18.4 C 65 % 11.71 C
3363 28-08-2008 04:34:03 18.4 C 65 % 11.71 C
3364 28-08-2008 04:46:03 18.3 C 65 % 11.61 C
3365 28-08-2008 04:58:03 18.3 C 66 % 11.84 C
3366 28-08-2008 05:10:03 18.2 C 65 % 11.52 C
3367 28-08-2008 05:22:03 18.2 C 66 % 11.75 C
3368 28-08-2008 05:34:03 18.2 C 66 % 11.75 C
3369 28-08-2008 05:46:03 18.1 C 65 % 11.42 C
3370 28-08-2008 05:58:03 18 C 66 % 11.56 C
3371 28-08-2008 06:10:03 18 C 66 % 11.56 C
3372 28-08-2008 06:22:04 17.9 C 67 % 11.69 C
3373 28-08-2008 06:34:04 17.9 C 67 % 11.69 C
3374 28-08-2008 06:46:04 17.9 C 68 % 11.91 C
3375 28-08-2008 06:58:04 17.8 C 68 % 11.82 C
Sensor: Nr:Datum:Temp:Feuchte:Taupunkt:
Aussen-T/F 3376 28-08-2008 07:10:02 17.8 C 68 % 11.82 C
3377 28-08-2008 07:22:02 17.8 C 68 % 11.82 C
3378 28-08-2008 07:34:03 17.8 C 68 % 11.82 C
3379 28-08-2008 07:46:02 17.9 C 69 % 12.14 C
3380 28-08-2008 07:58:02 18.1 C 68 % 12.11 C
3381 28-08-2008 08:10:02 18.1 C 68 % 12.11 C
3382 28-08-2008 08:22:02 18.1 C 69 % 12.33 C
3383 28-08-2008 08:34:02 18.5 C 69 % 12.71 C
3384 28-08-2008 08:46:02 18.6 C 67 % 12.36 C
3385 28-08-2008 08:58:02 18.7 C 67 % 12.45 C
3386 28-08-2008 09:10:03 18.9 C 66 % 12.41 C
3387 28-08-2008 09:22:02 19.1 C 62 % 11.65 C
3388 28-08-2008 09:34:02 19.2 C 61 % 11.5 C
3389 28-08-2008 09:46:02 19.3 C 59 % 11.09 C
3390 28-08-2008 09:58:02 19.3 C 60 % 11.35 C
3391 28-08-2008 10:10:02 19.4 C 59 % 11.19 C
3392 28-08-2008 10:22:02 19.6 C 58 % 11.12 C
3393 28-08-2008 10:34:02 19.9 C 55 % 10.6 C
3394 28-08-2008 10:46:02 20.2 C 51 % 9.75 C
3395 28-08-2008 10:58:02 20.5 C 51 % 10.02 C
3396 28-08-2008 11:10:02 21 C 46 % 8.95 C
3397 28-08-2008 11:22:02 21.5 C 44 % 8.74 C
3398 28-08-2008 11:34:02 21.7 C 43 % 8.58 C
3399 28-08-2008 11:46:02 22.1 C 40 % 7.88 C
3400 28-08-2008 11:58:02 22.7 C 39 % 8.04 C
Sensor: Nr:Datum:Temp:Feuchte:Taupunkt:
Aussen-T/F 3401 28-08-2008 12:10:02 23 C 37 % 7.54 C
3402 28-08-2008 12:22:02 22.9 C 37 % 7.45 C
3403 28-08-2008 12:34:02 23.1 C 36 % 7.23 C
3404 28-08-2008 12:46:02 23.3 C 35 % 6.99 C
3405 28-08-2008 12:58:02 23.5 C 35 % 7.17 C
3406 28-08-2008 13:10:02 23.6 C 35 % 7.25 C
3407 28-08-2008 13:22:02 23.9 C 35 % 7.52 C
3408 28-08-2008 13:34:02 23.2 C 35 % 6.9 C
3409 28-08-2008 13:46:02 23.1 C 37 % 7.63 C
3410 28-08-2008 13:58:02 23.3 C 36 % 7.4 C
3411 28-08-2008 14:10:02 23 C 37 % 7.54 C
3412 28-08-2008 14:22:02 23.3 C 37 % 7.8 C
3413 28-08-2008 14:34:02 23.7 C 36 % 7.75 C
3414 28-08-2008 14:46:02 23.1 C 38 % 8.02 C
3415 28-08-2008 14:58:02 23.6 C 37 % 8.07 C
3416 28-08-2008 15:10:02 23.7 C 36 % 7.75 C
3417 28-08-2008 15:22:02 24.4 C 35 % 7.96 C
3418 28-08-2008 15:34:02 24.2 C 34 % 7.36 C
3419 28-08-2008 15:46:01 23.6 C 37 % 8.07 C
3420 28-08-2008 15:58:01 23.2 C 37 % 7.71 C
3421 28-08-2008 16:10:02 22.6 C 40 % 8.33 C
3422 28-08-2008 16:22:02 23 C 40 % 8.68 C
3423 28-08-2008 16:34:02 23.1 C 38 % 8.02 C
3424 28-08-2008 16:46:02 23.3 C 39 % 8.58 C
3425 28-08-2008 16:58:02 23.4 C 37 % 7.89 C
Sensor: Nr:Datum:Temp:Feuchte:Taupunkt:
Aussen-T/F 3426 28-08-2008 17:10:02 22.8 C 40 % 8.5 C
3427 28-08-2008 17:22:02 22.9 C 40 % 8.59 C
3428 28-08-2008 17:34:02 22.6 C 40 % 8.33 C
3429 28-08-2008 17:46:02 22 C 41 % 8.15 C
3430 28-08-2008 17:58:02 22 C 41 % 8.15 C
3431 28-08-2008 18:10:03 21.8 C 43 % 8.67 C
3432 28-08-2008 18:22:02 22 C 42 % 8.51 C
3433 28-08-2008 18:34:02 22 C 42 % 8.51 C
3434 28-08-2008 18:46:02 21.7 C 43 % 8.58 C
3435 28-08-2008 18:58:02 21.7 C 43 % 8.58 C
3436 28-08-2008 19:10:02 21.6 C 44 % 8.83 C
3437 28-08-2008 19:22:02 21.6 C 46 % 9.49 C
3438 28-08-2008 19:34:02 21.5 C 45 % 9.08 C
3439 28-08-2008 19:46:03 21.3 C 46 % 9.22 C
3440 28-08-2008 19:58:03 21.1 C 48 % 9.67 C
3441 28-08-2008 20:10:02 20.8 C 51 % 10.3 C
3442 28-08-2008 20:22:03 20.6 C 51 % 10.12 C
3443 28-08-2008 20:34:02 20.4 C 53 % 10.51 C
3444 28-08-2008 20:46:03 20.3 C 52 % 10.13 C
3445 28-08-2008 20:58:03 20.2 C 52 % 10.04 C
3446 28-08-2008 21:10:02 20.1 C 52 % 9.94 C
3447 28-08-2008 21:22:02 20 C 53 % 10.14 C
3448 28-08-2008 21:34:02 20 C 54 % 10.42 C
3449 28-08-2008 21:46:02 19.8 C 56 % 10.78 C
3450 28-08-2008 21:58:02 19.6 C 58 % 11.12 C
Sensor: Nr:Datum:Temp:Feuchte:Taupunkt:
Aussen-T/F 3451 28-08-2008 22:10:03 19.5 C 59 % 11.28 C
3452 28-08-2008 22:22:02 19.4 C 58 % 10.93 C
3453 28-08-2008 22:35:02 19.4 C 58 % 10.93 C
3454 28-08-2008 22:47:02 19.3 C 59 % 11.09 C
3455 28-08-2008 22:59:02 19.1 C 59 % 10.91 C
3456 28-08-2008 23:11:02 19.1 C 60 % 11.16 C
3457 28-08-2008 23:23:02 19.2 C 60 % 11.25 C
3458 28-08-2008 23:35:02 19.2 C 60 % 11.25 C
3459 28-08-2008 23:47:02 19.1 C 60 % 11.16 C
3460 28-08-2008 23:59:02 19.1 C 61 % 11.41 C
3461 29-08-2008 00:11:02 19 C 61 % 11.31 C
3462 29-08-2008 00:23:02 18.9 C 62 % 11.47 C
3463 29-08-2008 00:35:02 18.9 C 62 % 11.47 C
3464 29-08-2008 00:47:02 18.9 C 62 % 11.47 C
3465 29-08-2008 00:59:02 18.8 C 62 % 11.37 C
3466 29-08-2008 01:11:02 18.8 C 62 % 11.37 C
3467 29-08-2008 01:23:02 18.8 C 62 % 11.37 C
3468 29-08-2008 01:35:02 18.7 C 62 % 11.28 C
3469 29-08-2008 01:47:02 18.7 C 61 % 11.03 C
3470 29-08-2008 01:59:02 18.6 C 61 % 10.94 C
3471 29-08-2008 02:11:03 18.6 C 61 % 10.94 C
3472 29-08-2008 02:23:03 18.5 C 61 % 10.84 C
3473 29-08-2008 02:35:03 18.5 C 62 % 11.09 C
3474 29-08-2008 02:47:03 18.5 C 60 % 10.6 C
3475 29-08-2008 02:59:03 18.4 C 61 % 10.75 C
Sensor: Nr:Datum:Temp:Feuchte:Taupunkt:
Aussen-T/F 3476 29-08-2008 03:11:03 18.4 C 63 % 11.23 C
3477 29-08-2008 03:23:03 18.3 C 62 % 10.9 C
3478 29-08-2008 03:35:03 18.2 C 62 % 10.81 C
3479 29-08-2008 03:47:03 18.2 C 62 % 10.81 C
3480 29-08-2008 03:59:03 18.1 C 62 % 10.71 C
3481 29-08-2008 04:11:03 18.1 C 61 % 10.47 C
3482 29-08-2008 04:23:03 18.1 C 62 % 10.71 C
3483 29-08-2008 04:35:03 18.1 C 61 % 10.47 C
3484 29-08-2008 04:47:03 18.1 C 61 % 10.47 C
3485 29-08-2008 04:59:03 18.1 C 61 % 10.47 C
3486 29-08-2008 05:11:03 18 C 60 % 10.13 C
3487 29-08-2008 05:23:03 18 C 60 % 10.13 C
3488 29-08-2008 05:35:03 17.9 C 61 % 10.28 C
3489 29-08-2008 05:47:03 17.9 C 62 % 10.52 C
3490 29-08-2008 05:59:04 17.9 C 61 % 10.28 C
3491 29-08-2008 06:11:04 17.8 C 62 % 10.43 C
3492 29-08-2008 06:23:04 17.8 C 62 % 10.43 C
3493 29-08-2008 06:35:04 17.8 C 62 % 10.43 C
3494 29-08-2008 06:47:04 17.8 C 62 % 10.43 C
3495 29-08-2008 06:59:04 17.8 C 62 % 10.43 C
3496 29-08-2008 07:11:04 17.8 C 63 % 10.67 C
3497 29-08-2008 07:23:04 17.8 C 63 % 10.67 C
3498 29-08-2008 07:35:04 17.8 C 63 % 10.67 C
3499 29-08-2008 07:47:04 17.9 C 63 % 10.76 C
3500 29-08-2008 07:59:04 17.9 C 62 % 10.52 C
Sensor: Nr:Datum:Temp:Feuchte:Taupunkt:
Aussen-T/F 3501 29-08-2008 08:11:04 17.9 C 62 % 10.52 C
3502 29-08-2008 08:23:02 18.1 C 61 % 10.47 C
3503 29-08-2008 08:35:02 18.1 C 61 % 10.47 C
3504 29-08-2008 08:47:01 18.1 C 62 % 10.71 C
3505 29-08-2008 08:59:01 18.2 C 63 % 11.05 C
3506 29-08-2008 09:11:02 18.3 C 63 % 11.14 C
3507 29-08-2008 09:23:02 18.4 C 63 % 11.23 C
3508 29-08-2008 09:35:02 18.5 C 63 % 11.33 C
3509 29-08-2008 09:47:02 18.6 C 60 % 10.69 C
3510 29-08-2008 09:59:02 18.9 C 60 % 10.97 C
3511 29-08-2008 10:11:03 19.3 C 57 % 10.58 C
3512 29-08-2008 10:23:02 19.6 C 56 % 10.59 C
3513 29-08-2008 10:35:03 19.8 C 55 % 10.51 C
3514 29-08-2008 10:47:02 20.4 C 53 % 10.51 C
3515 29-08-2008 10:59:02 20.5 C 52 % 10.31 C
3516 29-08-2008 11:11:01 20.7 C 52 % 10.5 C
3517 29-08-2008 11:23:02 20.4 C 53 % 10.51 C
3518 29-08-2008 11:35:02 20.5 C 52 % 10.31 C
3519 29-08-2008 11:47:02 20.8 C 52 % 10.59 C
3520 29-08-2008 11:59:02 21.3 C 51 % 10.76 C
3521 29-08-2008 12:11:01 21 C 51 % 10.48 C
3522 29-08-2008 12:23:02 21.1 C 51 % 10.58 C
3523 29-08-2008 12:35:01 21.5 C 51 % 10.94 C
3524 29-08-2008 12:47:02 21.8 C 50 % 10.92 C
3525 29-08-2008 12:59:02 22.3 C 46 % 10.13 C
Sensor: Nr:Datum:Temp:Feuchte:Taupunkt:
Aussen-T/F 3526 29-08-2008 13:11:01 23.1 C 44 % 10.19 C
3527 29-08-2008 13:23:02 23.2 C 43 % 9.94 C
3528 29-08-2008 13:35:01 23.3 C 42 % 9.68 C
3529 29-08-2008 13:47:01 23.8 C 40 % 9.4 C
3530 29-08-2008 13:59:01 23.4 C 42 % 9.77 C
3531 29-08-2008 14:11:01 23.7 C 42 % 10.03 C
3532 29-08-2008 14:23:01 24.5 C 40 % 10.02 C
3533 29-08-2008 14:35:01 23.9 C 41 % 9.85 C
3534 29-08-2008 14:47:01 24.1 C 41 % 10.03 C
3535 29-08-2008 14:59:01 24.5 C 40 % 10.02 C
3536 29-08-2008 15:11:02 24.1 C 39 % 9.29 C
3537 29-08-2008 15:23:01 24.1 C 40 % 9.67 C
3538 29-08-2008 15:35:02 24.6 C 39 % 9.73 C
3539 29-08-2008 15:47:02 25.3 C 36 % 9.16 C
3540 29-08-2008 15:59:02 25.7 C 36 % 9.52 C
3541 29-08-2008 16:11:02 25.7 C 35 % 9.1 C
3542 29-08-2008 16:23:02 25.7 C 36 % 9.52 C
3543 29-08-2008 16:35:02 25 C 37 % 9.31 C
3544 29-08-2008 16:47:01 24.7 C 40 % 10.2 C
3545 29-08-2008 16:59:01 25.4 C 38 % 10.06 C
3546 29-08-2008 17:11:01 26.1 C 34 % 9.02 C
3547 29-08-2008 17:23:01 26 C 35 % 9.36 C
3548 29-08-2008 17:35:01 27.4 C 32 % 9.25 C
3549 29-08-2008 17:47:03 28.5 C 32 % 10.21 C
3550 29-08-2008 17:59:03 28.1 C 32 % 9.86 C
Sensor: Nr:Datum:Temp:Feuchte:Taupunkt:
Aussen-T/F 3551 29-08-2008 18:11:02 27.9 C 32 % 9.69 C
3552 29-08-2008 18:23:03 27.3 C 33 % 9.62 C
3553 29-08-2008 18:35:02 27.6 C 33 % 9.89 C
3554 29-08-2008 18:47:02 28 C 32 % 9.77 C
3555 29-08-2008 18:59:02 27.9 C 31 % 9.22 C
3556 29-08-2008 19:11:03 26.7 C 32 % 8.65 C
3557 29-08-2008 19:23:02 25.1 C 37 % 9.39 C
3558 29-08-2008 19:35:03 24.9 C 40 % 10.38 C
3559 29-08-2008 19:47:02 24.5 C 43 % 11.11 C
3560 29-08-2008 19:59:03 23.7 C 45 % 11.07 C
3561 29-08-2008 20:11:01 23.1 C 47 % 11.18 C
3562 29-08-2008 20:23:02 22.3 C 51 % 11.68 C
3563 29-08-2008 20:35:01 21.4 C 53 % 11.43 C
3564 29-08-2008 20:47:02 20.7 C 56 % 11.61 C
3565 29-08-2008 20:59:02 20.1 C 58 % 11.58 C
3566 29-08-2008 21:11:01 19.8 C 61 % 12.07 C
3567 29-08-2008 21:23:02 19.5 C 62 % 12.03 C
3568 29-08-2008 21:35:01 19.3 C 63 % 12.09 C
3569 29-08-2008 21:47:02 19.3 C 63 % 12.09 C
3570 29-08-2008 21:59:02 19 C 64 % 12.04 C
3571 29-08-2008 22:11:01 18.9 C 66 % 12.41 C
3572 29-08-2008 22:24:01 18.8 C 67 % 12.55 C
3573 29-08-2008 22:36:01 18.6 C 68 % 12.58 C
3574 29-08-2008 22:48:01 18.5 C 68 % 12.49 C
3575 29-08-2008 23:00:01 18.3 C 69 % 12.52 C
Sensor: Nr:Datum:Temp:Feuchte:Taupunkt:
Aussen-T/F 3576 29-08-2008 23:12:01 18.1 C 70 % 12.55 C
3577 29-08-2008 23:24:01 17.9 C 72 % 12.78 C
3578 29-08-2008 23:36:02 17.7 C 73 % 12.8 C
3579 29-08-2008 23:48:02 17.4 C 74 % 12.72 C
3580 30-08-2008 00:00:02 17.2 C 74 % 12.53 C
3581 30-08-2008 00:12:02 17.1 C 75 % 12.64 C
3582 30-08-2008 00:24:02 16.9 C 76 % 12.65 C
3583 30-08-2008 00:36:02 16.8 C 77 % 12.75 C
3584 30-08-2008 00:48:02 16.6 C 77 % 12.55 C
3585 30-08-2008 01:00:02 16.4 C 78 % 12.56 C
3586 30-08-2008 01:12:02 16.3 C 78 % 12.46 C
3587 30-08-2008 01:24:02 16.2 C 79 % 12.56 C
3588 30-08-2008 01:36:02 16.1 C 79 % 12.46 C
3589 30-08-2008 01:48:02 15.9 C 80 % 12.46 C
3590 30-08-2008 02:00:02 15.8 C 80 % 12.36 C
3591 30-08-2008 02:12:02 15.6 C 80 % 12.16 C
3592 30-08-2008 02:24:02 15.5 C 81 % 12.26 C
3593 30-08-2008 02:36:02 15.4 C 81 % 12.16 C
3594 30-08-2008 02:48:02 15.4 C 81 % 12.16 C
3595 30-08-2008 03:00:02 15.2 C 81 % 11.96 C
3596 30-08-2008 03:12:02 15 C 81 % 11.77 C
3597 30-08-2008 03:24:03 14.9 C 82 % 11.86 C
3598 30-08-2008 03:36:03 14.7 C 83 % 11.85 C
3599 30-08-2008 03:48:03 14.7 C 83 % 11.85 C
3600 30-08-2008 04:00:03 14.7 C 83 % 11.85 C
Sensor: Nr:Datum:Temp:Feuchte:Taupunkt:
Aussen-T/F 3601 30-08-2008 04:12:03 14.4 C 83 % 11.55 C
3602 30-08-2008 04:24:03 14.4 C 83 % 11.55 C
3603 30-08-2008 04:36:03 14.3 C 83 % 11.45 C
3604 30-08-2008 04:48:03 14.4 C 83 % 11.55 C
3605 30-08-2008 05:00:03 14.5 C 84 % 11.83 C
3606 30-08-2008 05:12:03 14.5 C 84 % 11.83 C
3607 30-08-2008 05:24:03 14.5 C 84 % 11.83 C
3608 30-08-2008 05:36:03 14.5 C 84 % 11.83 C
3609 30-08-2008 05:48:03 14 C 85 % 11.52 C
3610 30-08-2008 06:00:03 14.5 C 85 % 12.01 C
3611 30-08-2008 06:12:03 14.4 C 85 % 11.91 C
3612 30-08-2008 06:24:03 14.3 C 86 % 11.99 C
3613 30-08-2008 06:36:03 14.3 C 87 % 12.17 C
3614 30-08-2008 06:48:03 14.4 C 88 % 12.44 C
3615 30-08-2008 07:00:03 14.6 C 88 % 12.64 C
3616 30-08-2008 07:12:04 14.6 C 87 % 12.46 C
3617 30-08-2008 07:24:04 14.8 C 88 % 12.83 C
3618 30-08-2008 07:36:04 14.9 C 87 % 12.76 C
3619 30-08-2008 07:48:04 15.1 C 86 % 12.78 C
3620 30-08-2008 08:00:04 15.2 C 85 % 12.7 C
3621 30-08-2008 08:12:02 15.4 C 84 % 12.71 C
3622 30-08-2008 08:24:01 15.5 C 83 % 12.63 C
3623 30-08-2008 08:36:02 15.7 C 83 % 12.82 C
3624 30-08-2008 08:48:02 15.8 C 82 % 12.74 C
3625 30-08-2008 09:00:02 15.8 C 82 % 12.74 C
Sensor: Nr:Datum:Temp:Feuchte:Taupunkt:
Aussen-T/F 3626 30-08-2008 09:12:02 16.1 C 81 % 12.84 C
3627 30-08-2008 09:24:02 16.4 C 80 % 12.94 C
3628 30-08-2008 09:36:02 16.8 C 79 % 13.14 C
3629 30-08-2008 09:48:02 17.1 C 77 % 13.04 C
3630 30-08-2008 10:00:02 17 C 78 % 13.14 C
3631 30-08-2008 10:12:02 17.4 C 79 % 13.72 C
3632 30-08-2008 10:24:02 17.9 C 77 % 13.81 C
3633 30-08-2008 10:36:02 18.5 C 74 % 13.78 C
3634 30-08-2008 10:48:02 19.1 C 72 % 13.94 C
3635 30-08-2008 11:00:02 19.6 C 70 % 13.98 C
3636 30-08-2008 11:12:01 20.2 C 64 % 13.18 C
3637 30-08-2008 11:24:02 20.7 C 62 % 13.16 C
3638 30-08-2008 11:36:02 21.2 C 59 % 12.87 C
3639 30-08-2008 11:48:02 21.8 C 57 % 12.91 C
3640 30-08-2008 12:00:02 22.4 C 55 % 12.92 C
3641 30-08-2008 12:12:01 22.9 C 52 % 12.53 C
3642 30-08-2008 12:24:02 23.5 C 51 % 12.78 C
3643 30-08-2008 12:36:01 23.8 C 49 % 12.45 C
3644 30-08-2008 12:48:02 24.1 C 46 % 11.76 C
3645 30-08-2008 13:00:02 24.5 C 44 % 11.45 C
3646 30-08-2008 13:12:02 25.1 C 43 % 11.65 C
3647 30-08-2008 13:24:02 25.6 C 42 % 11.74 C
3648 30-08-2008 13:36:03 26.1 C 39 % 11.07 C
3649 30-08-2008 13:48:02 26.3 C 39 % 11.25 C
3650 30-08-2008 14:00:02 26.9 C 37 % 10.99 C
Sensor: Nr:Datum:Temp:Feuchte:Taupunkt:
Aussen-T/F 3651 30-08-2008 14:12:02 27.7 C 36 % 11.28 C
3652 30-08-2008 14:24:02 28.4 C 34 % 11.03 C
3653 30-08-2008 14:36:02 28.9 C 32 % 10.55 C
3654 30-08-2008 14:48:02 29.3 C 30 % 9.94 C
3655 30-08-2008 15:00:02 29.6 C 30 % 10.19 C
3656 30-08-2008 15:12:02 30.3 C 29 % 10.29 C
3657 30-08-2008 15:24:01 30.4 C 28 % 9.85 C
3658 30-08-2008 15:36:02 30.4 C 27 % 9.31 C
3659 30-08-2008 15:48:02 30.7 C 26 % 9 C
3660 30-08-2008 16:00:02 31 C 26 % 9.26 C
3661 30-08-2008 16:12:02 31.2 C 25 % 8.84 C
3662 30-08-2008 16:24:02 31.2 C 24 % 8.24 C
3663 30-08-2008 16:36:02 31.6 C 23 % 7.95 C
3664 30-08-2008 16:48:02 31.9 C 22 % 7.55 C
3665 30-08-2008 17:00:02 31.4 C 22 % 7.13 C
3666 30-08-2008 17:12:02 31.7 C 22 % 7.38 C
3667 30-08-2008 17:24:01 32.1 C 21 % 7.03 C
3668 30-08-2008 17:36:02 32.1 C 20 % 6.32 C
3669 30-08-2008 17:48:02 32.1 C 20 % 6.32 C
3670 30-08-2008 18:00:02 32.2 C 20 % 6.41 C
3671 30-08-2008 18:12:02 32.3 C 20 % 6.49 C
3672 30-08-2008 18:24:02 32 C 20 % 6.24 C
3673 30-08-2008 18:36:02 31.8 C 20 % 6.08 C
3674 30-08-2008 18:48:02 31.7 C 22 % 7.38 C
3675 30-08-2008 19:00:02 31.3 C 23 % 7.7 C
Sensor: Nr:Datum:Temp:Feuchte:Taupunkt:
Aussen-T/F 3676 30-08-2008 19:12:02 31 C 25 % 8.67 C
3677 30-08-2008 19:24:02 30.4 C 26 % 8.75 C
3678 30-08-2008 19:36:02 29.4 C 29 % 9.52 C
3679 30-08-2008 19:48:02 28.1 C 31 % 9.39 C
3680 30-08-2008 20:00:02 26.5 C 35 % 9.8 C
3681 30-08-2008 20:12:02 25.2 C 38 % 9.88 C
3682 30-08-2008 20:24:02 24.3 C 41 % 10.21 C
3683 30-08-2008 20:36:02 23.5 C 44 % 10.55 C
3684 30-08-2008 20:48:02 23 C 45 % 10.43 C
3685 30-08-2008 21:00:02 22.7 C 48 % 11.13 C
3686 30-08-2008 21:12:03 22.6 C 48 % 11.04 C
3687 30-08-2008 21:24:02 22.2 C 49 % 10.98 C
3688 30-08-2008 21:36:03 22 C 49 % 10.8 C
3689 30-08-2008 21:48:02 21.6 C 51 % 11.04 C
3690 30-08-2008 22:00:02 21.4 C 52 % 11.14 C
3691 30-08-2008 22:12:02 21.2 C 53 % 11.25 C
3692 30-08-2008 22:24:02 21 C 53 % 11.06 C
3693 30-08-2008 22:36:02 20.7 C 54 % 11.07 C
3694 30-08-2008 22:48:02 20.4 C 55 % 11.06 C
3695 30-08-2008 23:00:02 20.4 C 55 % 11.06 C
3696 30-08-2008 23:12:01 20.1 C 56 % 11.06 C
3697 30-08-2008 23:24:02 20 C 56 % 10.96 C
3698 30-08-2008 23:36:01 19.6 C 57 % 10.86 C
3699 30-08-2008 23:49:02 19.4 C 58 % 10.93 C
3700 31-08-2008 00:01:02 19.2 C 59 % 11 C
Sensor: Nr:Datum:Temp:Feuchte:Taupunkt:
Aussen-T/F 3701 31-08-2008 00:13:02 19.1 C 59 % 10.91 C
3702 31-08-2008 00:25:02 18.8 C 61 % 11.13 C
3703 31-08-2008 00:37:02 18.6 C 63 % 11.42 C
3704 31-08-2008 00:49:02 18.4 C 62 % 10.99 C
3705 31-08-2008 01:01:02 18.2 C 63 % 11.05 C
3706 31-08-2008 01:13:02 18.1 C 63 % 10.95 C
3707 31-08-2008 01:25:02 17.9 C 65 % 11.23 C
3708 31-08-2008 01:37:02 17.7 C 65 % 11.04 C
3709 31-08-2008 01:49:02 17.5 C 65 % 10.85 C
3710 31-08-2008 02:01:02 17.4 C 68 % 11.44 C
3711 31-08-2008 02:13:02 17.1 C 70 % 11.59 C
3712 31-08-2008 02:25:02 16.9 C 70 % 11.4 C
3713 31-08-2008 02:37:03 16.8 C 72 % 11.73 C
3714 31-08-2008 02:49:03 16.6 C 71 % 11.32 C
3715 31-08-2008 03:01:03 16.4 C 71 % 11.13 C
3716 31-08-2008 03:13:03 16.1 C 70 % 10.63 C
3717 31-08-2008 03:25:03 16 C 71 % 10.75 C
3718 31-08-2008 03:37:03 15.9 C 73 % 11.07 C
3719 31-08-2008 03:49:03 15.8 C 75 % 11.38 C
3720 31-08-2008 04:01:03 15.6 C 75 % 11.19 C
3721 31-08-2008 04:13:03 15.6 C 76 % 11.39 C
3722 31-08-2008 04:25:03 15.4 C 77 % 11.39 C
3723 31-08-2008 04:37:03 15.2 C 77 % 11.2 C
3724 31-08-2008 04:49:03 15.1 C 77 % 11.1 C
3725 31-08-2008 05:01:03 14.9 C 77 % 10.91 C
Sensor: Nr:Datum:Temp:Feuchte:Taupunkt:
Aussen-T/F 3726 31-08-2008 05:13:03 14.8 C 78 % 11 C
3727 31-08-2008 05:25:03 14.7 C 77 % 10.71 C
3728 31-08-2008 05:37:03 14.5 C 77 % 10.52 C
3729 31-08-2008 05:49:03 14.5 C 77 % 10.52 C
3730 31-08-2008 06:01:03 14.3 C 77 % 10.33 C
3731 31-08-2008 06:13:03 14.2 C 77 % 10.23 C
3732 31-08-2008 06:25:04 14.1 C 78 % 10.33 C
3733 31-08-2008 06:37:04 14 C 78 % 10.23 C
3734 31-08-2008 06:49:04 13.9 C 80 % 10.51 C
3735 31-08-2008 07:01:04 14 C 80 % 10.61 C
3736 31-08-2008 07:13:04 14 C 79 % 10.42 C
3737 31-08-2008 07:25:04 14 C 79 % 10.42 C
3738 31-08-2008 07:37:04 14 C 80 % 10.61 C
3739 31-08-2008 07:49:04 14.1 C 80 % 10.71 C
3740 31-08-2008 08:01:04 14.2 C 80 % 10.8 C
3741 31-08-2008 08:13:04 14.4 C 79 % 10.81 C
3742 31-08-2008 08:25:04 14.5 C 79 % 10.91 C
3743 31-08-2008 08:37:04 14.6 C 79 % 11 C
3744 31-08-2008 08:49:01 14.7 C 79 % 11.1 C
3745 31-08-2008 09:01:02 15 C 78 % 11.2 C
3746 31-08-2008 09:13:02 15.4 C 77 % 11.39 C
3747 31-08-2008 09:25:02 15.8 C 77 % 11.78 C
3748 31-08-2008 09:37:02 16.5 C 74 % 11.85 C
3749 31-08-2008 09:49:03 17.1 C 70 % 11.59 C
3750 31-08-2008 10:01:02 17.7 C 67 % 11.5 C
Sensor: Nr:Datum:Temp:Feuchte:Taupunkt:
Aussen-T/F 3751 31-08-2008 10:13:02 18.4 C 63 % 11.23 C
3752 31-08-2008 10:25:02 19 C 61 % 11.31 C
3753 31-08-2008 10:37:02 19.3 C 61 % 11.6 C
3754 31-08-2008 10:49:03 20 C 58 % 11.49 C
3755 31-08-2008 11:01:02 20.7 C 58 % 12.15 C
3756 31-08-2008 11:13:02 21.4 C 54 % 11.71 C
3757 31-08-2008 11:25:03 22.1 C 50 % 11.2 C
3758 31-08-2008 11:37:02 22.8 C 47 % 10.91 C
3759 31-08-2008 11:49:02 23.5 C 44 % 10.55 C
3760 31-08-2008 12:01:02 24.1 C 44 % 11.09 C
3761 31-08-2008 12:13:02 24.9 C 39 % 10 C
3762 31-08-2008 12:25:02 25.3 C 36 % 9.16 C
3763 31-08-2008 12:37:02 25.6 C 35 % 9.01 C
3764 31-08-2008 12:49:01 26 C 32 % 8.04 C
3765 31-08-2008 13:01:02 26.1 C 32 % 8.13 C
3766 31-08-2008 13:13:02 26.6 C 33 % 9.01 C
3767 31-08-2008 13:25:01 26.8 C 33 % 9.19 C
3768 31-08-2008 13:37:02 27.9 C 32 % 9.69 C
3769 31-08-2008 13:49:02 28.3 C 30 % 9.07 C
3770 31-08-2008 14:01:02 28.7 C 30 % 9.42 C
3771 31-08-2008 14:13:02 28.7 C 30 % 9.42 C
3772 31-08-2008 14:25:02 29.7 C 29 % 9.77 C
3773 31-08-2008 14:37:02 30.1 C 28 % 9.59 C
3774 31-08-2008 14:49:02 30.3 C 27 % 9.22 C
3775 31-08-2008 15:01:01 30.4 C 26 % 8.75 C
Sensor: Nr:Datum:Temp:Feuchte:Taupunkt:
Aussen-T/F 3776 31-08-2008 15:13:01 30.5 C 26 % 8.83 C
3777 31-08-2008 15:25:02 31 C 25 % 8.67 C
3778 31-08-2008 15:37:01 31.2 C 24 % 8.24 C
3779 31-08-2008 15:49:02 31.8 C 22 % 7.46 C
3780 31-08-2008 16:01:01 31.8 C 23 % 8.12 C
3781 31-08-2008 16:13:01 32 C 21 % 6.95 C
3782 31-08-2008 16:25:02 32 C 22 % 7.63 C
3783 31-08-2008 16:37:01 32.3 C 21 % 7.2 C
3784 31-08-2008 16:49:01 31.5 C 24 % 8.49 C
3785 31-08-2008 17:01:02 31.8 C 23 % 8.12 C
3786 31-08-2008 17:13:02 31.4 C 25 % 9.01 C
3787 31-08-2008 17:25:01 31.4 C 25 % 9.01 C
3788 31-08-2008 17:37:02 31.6 C 25 % 9.18 C
3789 31-08-2008 17:49:02 31.9 C 24 % 8.83 C
3790 31-08-2008 18:01:02 32.4 C 22 % 7.96 C
3791 31-08-2008 18:13:02 32.3 C 22 % 7.88 C
3792 31-08-2008 18:25:02 32.4 C 22 % 7.96 C
3793 31-08-2008 18:37:02 32.1 C 23 % 8.37 C
3794 31-08-2008 18:49:02 31.9 C 25 % 9.43 C
3795 31-08-2008 19:01:02 31.2 C 27 % 9.99 C
3796 31-08-2008 19:13:02 30.9 C 29 % 10.8 C
3797 31-08-2008 19:25:02 30.6 C 30 % 11.05 C
3798 31-08-2008 19:37:02 29.5 C 34 % 11.99 C
3799 31-08-2008 19:49:02 28.2 C 37 % 12.13 C
3800 31-08-2008 20:01:02 27.1 C 40 % 12.34 C
Sensor: Nr:Datum:Temp:Feuchte:Taupunkt:
Aussen-T/F 3801 31-08-2008 20:13:03 26.2 C 42 % 12.28 C
3802 31-08-2008 20:25:01 25.5 C 45 % 12.7 C
3803 31-08-2008 20:37:02 25 C 46 % 12.58 C
3804 31-08-2008 20:49:02 24.9 C 48 % 13.14 C
3805 31-08-2008 21:01:02 24.8 C 49 % 13.36 C
3806 31-08-2008 21:13:02 24.5 C 50 % 13.4 C
3807 31-08-2008 21:25:02 24.5 C 51 % 13.7 C
3808 31-08-2008 21:37:02 24.4 C 51 % 13.61 C
3809 31-08-2008 21:49:02 24.3 C 51 % 13.52 C
3810 31-08-2008 22:01:01 24.1 C 52 % 13.63 C
3811 31-08-2008 22:13:01 23.7 C 54 % 13.84 C
3812 31-08-2008 22:25:02 23.3 C 56 % 14.03 C
3813 31-08-2008 22:37:02 23 C 58 % 14.29 C
3814 31-08-2008 22:49:03 23 C 58 % 14.29 C
3815 31-08-2008 23:01:02 22.9 C 58 % 14.2 C
3816 31-08-2008 23:13:02 22.6 C 59 % 14.18 C
3817 31-08-2008 23:25:03 22.8 C 59 % 14.37 C
3818 31-08-2008 23:37:02 22.5 C 59 % 14.09 C
3819 31-08-2008 23:49:03 22.3 C 60 % 14.16 C
3820 01-09-2008 00:02:02 22.1 C 60 % 13.98 C
3821 01-09-2008 00:14:02 22.1 C 61 % 14.23 C
3822 01-09-2008 00:26:02 22 C 62 % 14.39 C
3823 01-09-2008 00:38:02 22.2 C 62 % 14.58 C
3824 01-09-2008 00:50:02 22 C 62 % 14.39 C
3825 01-09-2008 01:02:03 22 C 62 % 14.39 C
Sensor: Nr:Datum:Temp:Feuchte:Taupunkt:
Aussen-T/F 3826 01-09-2008 01:14:03 21.9 C 63 % 14.54 C
3827 01-09-2008 01:26:03 21.8 C 63 % 14.45 C
3828 01-09-2008 01:38:03 21.7 C 63 % 14.35 C
3829 01-09-2008 01:50:03 21.8 C 62 % 14.2 C
3830 01-09-2008 02:02:03 21.6 C 62 % 14.01 C
3831 01-09-2008 02:14:03 21.7 C 62 % 14.1 C
3832 01-09-2008 02:26:03 21.7 C 62 % 14.1 C
3833 01-09-2008 02:38:03 21.3 C 67 % 14.93 C
3834 01-09-2008 02:50:03 20.8 C 71 % 15.35 C
3835 01-09-2008 03:02:03 20.6 C 69 % 14.71 C
3836 01-09-2008 03:14:03 20.7 C 66 % 14.12 C
3837 01-09-2008 03:26:03 20.9 C 63 % 13.6 C
3838 01-09-2008 03:38:03 20.9 C 64 % 13.84 C
3839 01-09-2008 03:50:03 20.9 C 65 % 14.08 C
3840 01-09-2008 04:02:03 20.8 C 65 % 13.98 C
3841 01-09-2008 04:14:03 20.8 C 64 % 13.74 C
3842 01-09-2008 04:26:03 20.8 C 65 % 13.98 C
3843 01-09-2008 04:38:03 20.8 C 64 % 13.74 C
3844 01-09-2008 04:50:04 20.2 C 68 % 14.11 C
3845 01-09-2008 05:02:04 20 C 70 % 14.36 C
3846 01-09-2008 05:14:04 19.4 C 76 % 15.06 C
3847 01-09-2008 05:26:04 19.1 C 79 % 15.37 C
3848 01-09-2008 05:38:04 18.8 C 82 % 15.66 C
3849 01-09-2008 05:50:04 18.9 C 83 % 15.95 C
3850 01-09-2008 06:02:04 19.1 C 82 % 15.96 C
Sensor: Nr:Datum:Temp:Feuchte:Taupunkt:
Aussen-T/F 3851 01-09-2008 06:14:04 19.3 C 81 % 15.96 C
3852 01-09-2008 06:26:04 19.3 C 79 % 15.57 C
3853 01-09-2008 06:38:04 19.1 C 80 % 15.57 C
3854 01-09-2008 06:50:04 18.9 C 82 % 15.76 C
3855 01-09-2008 07:02:04 18.7 C 84 % 15.94 C
3856 01-09-2008 07:14:04 18.6 C 85 % 16.03 C
3857 01-09-2008 07:26:04 18.7 C 85 % 16.13 C
3858 01-09-2008 07:38:04 18.8 C 85 % 16.23 C
3859 01-09-2008 07:50:04 18.9 C 85 % 16.32 C
3860 01-09-2008 08:02:04 18.9 C 83 % 15.95 C
3861 01-09-2008 08:14:04 19.1 C 82 % 15.96 C
3862 01-09-2008 08:26:04 19.3 C 81 % 15.96 C
3863 01-09-2008 08:38:05 19.1 C 80 % 15.57 C
3864 01-09-2008 08:50:05 19.2 C 81 % 15.86 C
3865 01-09-2008 09:02:05 19.3 C 81 % 15.96 C
3866 01-09-2008 09:14:05 19.3 C 81 % 15.96 C
3867 01-09-2008 09:26:05 19.4 C 79 % 15.66 C
3868 01-09-2008 09:38:03 20.7 C 73 % 15.69 C
3869 01-09-2008 09:50:02 21.2 C 66 % 14.6 C
3870 01-09-2008 10:02:01 21.5 C 63 % 14.16 C
3871 01-09-2008 10:14:01 21.4 C 63 % 14.07 C
3872 01-09-2008 10:26:02 21.2 C 63 % 13.88 C
3873 01-09-2008 10:38:01 21.3 C 63 % 13.97 C
3874 01-09-2008 10:50:01 21.7 C 60 % 13.6 C
3875 01-09-2008 11:02:01 22.1 C 56 % 12.92 C
Sensor: Nr:Datum:Temp:Feuchte:Taupunkt:
Aussen-T/F 3876 01-09-2008 11:14:01 22.4 C 53 % 12.36 C
3877 01-09-2008 11:26:01 22.4 C 53 % 12.36 C
3878 01-09-2008 11:38:01 22.6 C 52 % 12.25 C
3879 01-09-2008 11:50:01 22.6 C 49 % 11.35 C
3880 01-09-2008 12:02:02 22.6 C 49 % 11.35 C
3881 01-09-2008 12:14:02 22.5 C 50 %